<?xml version='1.0' encoding='UTF-8'?>
<gpx version="1.1" creator="https://www.komoot.de" xmlns="http://www.topografix.com/GPX/1/1" xmlns:xsi="http://www.w3.org/2001/XMLSchema-instance" xsi:schemaLocation="http://www.topografix.com/GPX/1/1 http://www.topografix.com/GPX/1/1/gpx.xsd">
  <metadata>
    <name>50_900SaalFrick</name>
    <author>
      <link href="https://www.komoot.de">
        <text>komoot</text>
        <type>text/html</type>
      </link>
    </author>
  </metadata>
  <trk>
    <name>50_900SaalFrick</name>
    <trkseg>
      <trkpt lat="47.541454" lon="7.870757">
        <ele>341.155515</ele>
        <time>2021-11-12T20:11:18.480Z</time>
      </trkpt>
      <trkpt lat="47.541576" lon="7.870664">
        <ele>341.155515</ele>
        <time>2021-11-12T20:11:21.627Z</time>
      </trkpt>
      <trkpt lat="47.541796" lon="7.871042">
        <ele>341.155515</ele>
        <time>2021-11-12T20:11:28.970Z</time>
      </trkpt>
      <trkpt lat="47.541953" lon="7.871286">
        <ele>341.155515</ele>
        <time>2021-11-12T20:11:33.819Z</time>
      </trkpt>
      <trkpt lat="47.542039" lon="7.871556">
        <ele>341.171189</ele>
        <time>2021-11-12T20:11:38.412Z</time>
      </trkpt>
      <trkpt lat="47.542067" lon="7.871664">
        <ele>341.486407</ele>
        <time>2021-11-12T20:11:40.002Z</time>
      </trkpt>
      <trkpt lat="47.542091" lon="7.871721">
        <ele>341.669446</ele>
        <time>2021-11-12T20:11:40.607Z</time>
      </trkpt>
      <trkpt lat="47.542218" lon="7.871866">
        <ele>342.316625</ele>
        <time>2021-11-12T20:11:45.945Z</time>
      </trkpt>
      <trkpt lat="47.542394" lon="7.872341">
        <ele>343.792968</ele>
        <time>2021-11-12T20:11:56.180Z</time>
      </trkpt>
      <trkpt lat="47.542436" lon="7.872494">
        <ele>344.242986</ele>
        <time>2021-11-12T20:11:59.520Z</time>
      </trkpt>
      <trkpt lat="47.542537" lon="7.872430">
        <ele>344.686373</ele>
        <time>2021-11-12T20:12:01.556Z</time>
      </trkpt>
      <trkpt lat="47.542570" lon="7.872412">
        <ele>344.828311</ele>
        <time>2021-11-12T20:12:03.179Z</time>
      </trkpt>
      <trkpt lat="47.542714" lon="7.872334">
        <ele>345.447161</ele>
        <time>2021-11-12T20:12:08.669Z</time>
      </trkpt>
      <trkpt lat="47.542814" lon="7.872280">
        <ele>345.876763</ele>
        <time>2021-11-12T20:12:11.546Z</time>
      </trkpt>
      <trkpt lat="47.542919" lon="7.872226">
        <ele>346.325379</ele>
        <time>2021-11-12T20:12:15.386Z</time>
      </trkpt>
      <trkpt lat="47.543013" lon="7.872182">
        <ele>346.723273</ele>
        <time>2021-11-12T20:12:19.016Z</time>
      </trkpt>
      <trkpt lat="47.543233" lon="7.872082">
        <ele>347.652101</ele>
        <time>2021-11-12T20:12:26.114Z</time>
      </trkpt>
      <trkpt lat="47.543251" lon="7.872152">
        <ele>347.856191</ele>
        <time>2021-11-12T20:12:29.528Z</time>
      </trkpt>
      <trkpt lat="47.543332" lon="7.872237">
        <ele>348.256840</ele>
        <time>2021-11-12T20:12:32.939Z</time>
      </trkpt>
      <trkpt lat="47.544390" lon="7.872423">
        <ele>355.055240</ele>
        <time>2021-11-12T20:13:14.571Z</time>
      </trkpt>
      <trkpt lat="47.544883" lon="7.872555">
        <ele>358.296928</ele>
        <time>2021-11-12T20:13:36.913Z</time>
      </trkpt>
      <trkpt lat="47.545131" lon="7.872664">
        <ele>359.970770</ele>
        <time>2021-11-12T20:13:47.917Z</time>
      </trkpt>
      <trkpt lat="47.545375" lon="7.872836">
        <ele>361.722303</ele>
        <time>2021-11-12T20:13:58.858Z</time>
      </trkpt>
      <trkpt lat="47.545478" lon="7.872968">
        <ele>362.605173</ele>
        <time>2021-11-12T20:14:05.666Z</time>
      </trkpt>
      <trkpt lat="47.545515" lon="7.873015">
        <ele>362.921128</ele>
        <time>2021-11-12T20:14:07.622Z</time>
      </trkpt>
      <trkpt lat="47.545746" lon="7.873302">
        <ele>364.875506</ele>
        <time>2021-11-12T20:14:20.822Z</time>
      </trkpt>
      <trkpt lat="47.545934" lon="7.873549">
        <ele>366.504447</ele>
        <time>2021-11-12T20:14:30.922Z</time>
      </trkpt>
      <trkpt lat="47.546077" lon="7.873763">
        <ele>367.822100</ele>
        <time>2021-11-12T20:14:40.118Z</time>
      </trkpt>
      <trkpt lat="47.546135" lon="7.873859">
        <ele>368.385862</ele>
        <time>2021-11-12T20:14:43.357Z</time>
      </trkpt>
      <trkpt lat="47.546309" lon="7.874154">
        <ele>370.100091</ele>
        <time>2021-11-12T20:14:54.472Z</time>
      </trkpt>
      <trkpt lat="47.547126" lon="7.875801">
        <ele>375.798608</ele>
        <time>2021-11-12T20:15:40.233Z</time>
      </trkpt>
      <trkpt lat="47.547574" lon="7.876801">
        <ele>378.061377</ele>
        <time>2021-11-12T20:15:59.229Z</time>
      </trkpt>
      <trkpt lat="47.547992" lon="7.877974">
        <ele>377.116324</ele>
        <time>2021-11-12T20:16:12.029Z</time>
      </trkpt>
      <trkpt lat="47.548234" lon="7.878638">
        <ele>376.578684</ele>
        <time>2021-11-12T20:16:17.342Z</time>
      </trkpt>
      <trkpt lat="47.548422" lon="7.878959">
        <ele>376.165133</ele>
        <time>2021-11-12T20:16:20.184Z</time>
      </trkpt>
      <trkpt lat="47.548718" lon="7.879258">
        <ele>374.656970</ele>
        <time>2021-11-12T20:16:23.723Z</time>
      </trkpt>
      <trkpt lat="47.549140" lon="7.879391">
        <ele>372.840694</ele>
        <time>2021-11-12T20:16:27.910Z</time>
      </trkpt>
      <trkpt lat="47.549318" lon="7.879398">
        <ele>372.091090</ele>
        <time>2021-11-12T20:16:29.537Z</time>
      </trkpt>
      <trkpt lat="47.549327" lon="7.879547">
        <ele>371.666029</ele>
        <time>2021-11-12T20:16:30.523Z</time>
      </trkpt>
      <trkpt lat="47.549726" lon="7.880786">
        <ele>367.914145</ele>
        <time>2021-11-12T20:16:39.457Z</time>
      </trkpt>
      <trkpt lat="47.549927" lon="7.881490">
        <ele>366.073413</ele>
        <time>2021-11-12T20:16:44.489Z</time>
      </trkpt>
      <trkpt lat="47.550234" lon="7.883221">
        <ele>361.637943</ele>
        <time>2021-11-12T20:16:56.890Z</time>
      </trkpt>
      <trkpt lat="47.550332" lon="7.884727">
        <ele>357.178011</ele>
        <time>2021-11-12T20:17:06.734Z</time>
      </trkpt>
      <trkpt lat="47.550391" lon="7.885109">
        <ele>356.022857</ele>
        <time>2021-11-12T20:17:09.267Z</time>
      </trkpt>
      <trkpt lat="47.550548" lon="7.885799">
        <ele>353.694060</ele>
        <time>2021-11-12T20:17:13.871Z</time>
      </trkpt>
      <trkpt lat="47.550677" lon="7.886476">
        <ele>350.981579</ele>
        <time>2021-11-12T20:17:18.302Z</time>
      </trkpt>
      <trkpt lat="47.550758" lon="7.887295">
        <ele>347.789879</ele>
        <time>2021-11-12T20:17:23.444Z</time>
      </trkpt>
      <trkpt lat="47.550789" lon="7.887816">
        <ele>345.773169</ele>
        <time>2021-11-12T20:17:26.675Z</time>
      </trkpt>
      <trkpt lat="47.550831" lon="7.888611">
        <ele>342.558621</ele>
        <time>2021-11-12T20:17:31.632Z</time>
      </trkpt>
      <trkpt lat="47.550833" lon="7.889069">
        <ele>340.627449</ele>
        <time>2021-11-12T20:17:34.441Z</time>
      </trkpt>
      <trkpt lat="47.550915" lon="7.890600">
        <ele>334.151786</ele>
        <time>2021-11-12T20:17:43.834Z</time>
      </trkpt>
      <trkpt lat="47.550904" lon="7.891725">
        <ele>330.688470</ele>
        <time>2021-11-12T20:17:50.838Z</time>
      </trkpt>
      <trkpt lat="47.550892" lon="7.893176">
        <ele>326.778121</ele>
        <time>2021-11-12T20:18:00.450Z</time>
      </trkpt>
      <trkpt lat="47.550908" lon="7.894308">
        <ele>325.135401</ele>
        <time>2021-11-12T20:18:09.655Z</time>
      </trkpt>
      <trkpt lat="47.550878" lon="7.895158">
        <ele>324.418973</ele>
        <time>2021-11-12T20:18:16.840Z</time>
      </trkpt>
      <trkpt lat="47.550838" lon="7.895509">
        <ele>324.119351</ele>
        <time>2021-11-12T20:18:20.004Z</time>
      </trkpt>
      <trkpt lat="47.550660" lon="7.896255">
        <ele>323.356405</ele>
        <time>2021-11-12T20:18:26.493Z</time>
      </trkpt>
      <trkpt lat="47.550639" lon="7.896345">
        <ele>323.177523</ele>
        <time>2021-11-12T20:18:27.680Z</time>
      </trkpt>
      <trkpt lat="47.550648" lon="7.896481">
        <ele>322.920825</ele>
        <time>2021-11-12T20:18:28.635Z</time>
      </trkpt>
      <trkpt lat="47.550819" lon="7.898109">
        <ele>319.825848</ele>
        <time>2021-11-12T20:18:40.383Z</time>
      </trkpt>
      <trkpt lat="47.550801" lon="7.900244">
        <ele>314.380134</ele>
        <time>2021-11-12T20:18:54.221Z</time>
      </trkpt>
      <trkpt lat="47.550769" lon="7.901362">
        <ele>311.165610</ele>
        <time>2021-11-12T20:19:01.492Z</time>
      </trkpt>
      <trkpt lat="47.550757" lon="7.901591">
        <ele>310.628626</ele>
        <time>2021-11-12T20:19:03.628Z</time>
      </trkpt>
      <trkpt lat="47.550688" lon="7.902451">
        <ele>308.978185</ele>
        <time>2021-11-12T20:19:12.063Z</time>
      </trkpt>
      <trkpt lat="47.550498" lon="7.903445">
        <ele>307.009414</ele>
        <time>2021-11-12T20:19:22.479Z</time>
      </trkpt>
      <trkpt lat="47.550302" lon="7.904164">
        <ele>305.731646</ele>
        <time>2021-11-12T20:19:30.827Z</time>
      </trkpt>
      <trkpt lat="47.550025" lon="7.904774">
        <ele>305.405981</ele>
        <time>2021-11-12T20:19:39.310Z</time>
      </trkpt>
      <trkpt lat="47.549868" lon="7.905010">
        <ele>305.259199</ele>
        <time>2021-11-12T20:19:43.316Z</time>
      </trkpt>
      <trkpt lat="47.549867" lon="7.905155">
        <ele>305.194967</ele>
        <time>2021-11-12T20:19:45.046Z</time>
      </trkpt>
      <trkpt lat="47.549793" lon="7.905202">
        <ele>305.142127</ele>
        <time>2021-11-12T20:19:46.576Z</time>
      </trkpt>
      <trkpt lat="47.549674" lon="7.905336">
        <ele>305.044033</ele>
        <time>2021-11-12T20:19:49.370Z</time>
      </trkpt>
      <trkpt lat="47.549519" lon="7.906378">
        <ele>304.674340</ele>
        <time>2021-11-12T20:20:03.707Z</time>
      </trkpt>
      <trkpt lat="47.549039" lon="7.907742">
        <ele>305.729801</ele>
        <time>2021-11-12T20:20:28.013Z</time>
      </trkpt>
      <trkpt lat="47.548638" lon="7.908599">
        <ele>306.445287</ele>
        <time>2021-11-12T20:20:47.155Z</time>
      </trkpt>
      <trkpt lat="47.548279" lon="7.909060">
        <ele>306.926295</ele>
        <time>2021-11-12T20:20:59.387Z</time>
      </trkpt>
      <trkpt lat="47.548222" lon="7.909154">
        <ele>307.012650</ele>
        <time>2021-11-12T20:21:01.931Z</time>
      </trkpt>
      <trkpt lat="47.547859" lon="7.909845">
        <ele>307.611042</ele>
        <time>2021-11-12T20:21:15.806Z</time>
      </trkpt>
      <trkpt lat="47.547648" lon="7.910267">
        <ele>307.969943</ele>
        <time>2021-11-12T20:21:23.886Z</time>
      </trkpt>
      <trkpt lat="47.547348" lon="7.911011">
        <ele>308.986473</ele>
        <time>2021-11-12T20:21:33.405Z</time>
      </trkpt>
      <trkpt lat="47.546526" lon="7.912513">
        <ele>312.171207</ele>
        <time>2021-11-12T20:22:00.412Z</time>
      </trkpt>
      <trkpt lat="47.546113" lon="7.913536">
        <ele>318.787965</ele>
        <time>2021-11-12T20:22:36.502Z</time>
      </trkpt>
      <trkpt lat="47.546064" lon="7.913662">
        <ele>319.778298</ele>
        <time>2021-11-12T20:22:45.345Z</time>
      </trkpt>
      <trkpt lat="47.545846" lon="7.913439">
        <ele>322.451179</ele>
        <time>2021-11-12T20:22:59.285Z</time>
      </trkpt>
      <trkpt lat="47.545803" lon="7.913417">
        <ele>322.910169</ele>
        <time>2021-11-12T20:23:04.146Z</time>
      </trkpt>
      <trkpt lat="47.545760" lon="7.913396">
        <ele>323.366981</ele>
        <time>2021-11-12T20:23:09.281Z</time>
      </trkpt>
      <trkpt lat="47.545512" lon="7.913459">
        <ele>325.905685</ele>
        <time>2021-11-12T20:23:22.919Z</time>
      </trkpt>
      <trkpt lat="47.545283" lon="7.913975">
        <ele>330.111379</ele>
        <time>2021-11-12T20:23:53.461Z</time>
      </trkpt>
      <trkpt lat="47.544842" lon="7.914607">
        <ele>333.426969</ele>
        <time>2021-11-12T20:24:33.361Z</time>
      </trkpt>
      <trkpt lat="47.544667" lon="7.914777">
        <ele>334.435588</ele>
        <time>2021-11-12T20:24:50.198Z</time>
      </trkpt>
      <trkpt lat="47.544535" lon="7.914938">
        <ele>335.259678</ele>
        <time>2021-11-12T20:24:54.488Z</time>
      </trkpt>
      <trkpt lat="47.544436" lon="7.915136">
        <ele>336.061325</ele>
        <time>2021-11-12T20:25:00.381Z</time>
      </trkpt>
      <trkpt lat="47.544381" lon="7.915381">
        <ele>336.901337</ele>
        <time>2021-11-12T20:25:02.953Z</time>
      </trkpt>
      <trkpt lat="47.544170" lon="7.916929">
        <ele>338.249784</ele>
        <time>2021-11-12T20:25:19.946Z</time>
      </trkpt>
      <trkpt lat="47.544062" lon="7.917335">
        <ele>337.578423</ele>
        <time>2021-11-12T20:25:23.971Z</time>
      </trkpt>
      <trkpt lat="47.544023" lon="7.917429">
        <ele>337.408676</ele>
        <time>2021-11-12T20:25:24.992Z</time>
      </trkpt>
      <trkpt lat="47.543882" lon="7.917804">
        <ele>336.748292</ele>
        <time>2021-11-12T20:25:29.093Z</time>
      </trkpt>
      <trkpt lat="47.543788" lon="7.917949">
        <ele>336.439002</ele>
        <time>2021-11-12T20:25:31.047Z</time>
      </trkpt>
      <trkpt lat="47.543490" lon="7.918167">
        <ele>335.681530</ele>
        <time>2021-11-12T20:25:35.999Z</time>
      </trkpt>
      <trkpt lat="47.543011" lon="7.918178">
        <ele>336.975304</ele>
        <time>2021-11-12T20:25:46.719Z</time>
      </trkpt>
      <trkpt lat="47.542951" lon="7.918203">
        <ele>337.269164</ele>
        <time>2021-11-12T20:25:49.395Z</time>
      </trkpt>
      <trkpt lat="47.542901" lon="7.918253">
        <ele>337.553584</ele>
        <time>2021-11-12T20:25:50.937Z</time>
      </trkpt>
      <trkpt lat="47.542847" lon="7.918520">
        <ele>338.440666</ele>
        <time>2021-11-12T20:25:57.556Z</time>
      </trkpt>
      <trkpt lat="47.542897" lon="7.919138">
        <ele>340.421607</ele>
        <time>2021-11-12T20:26:17.416Z</time>
      </trkpt>
      <trkpt lat="47.542830" lon="7.919388">
        <ele>341.277676</ele>
        <time>2021-11-12T20:26:26.826Z</time>
      </trkpt>
      <trkpt lat="47.542762" lon="7.919488">
        <ele>341.729425</ele>
        <time>2021-11-12T20:26:31.104Z</time>
      </trkpt>
      <trkpt lat="47.542663" lon="7.919567">
        <ele>342.259595</ele>
        <time>2021-11-12T20:26:43.960Z</time>
      </trkpt>
      <trkpt lat="47.542445" lon="7.919627">
        <ele>343.304997</ele>
        <time>2021-11-12T20:27:08.167Z</time>
      </trkpt>
      <trkpt lat="47.541893" lon="7.920117">
        <ele>346.755605</ele>
        <time>2021-11-12T20:28:17.045Z</time>
      </trkpt>
      <trkpt lat="47.541270" lon="7.921054">
        <ele>351.641242</ele>
        <time>2021-11-12T20:29:48.738Z</time>
      </trkpt>
      <trkpt lat="47.540576" lon="7.921805">
        <ele>355.035861</ele>
        <time>2021-11-12T20:31:06.776Z</time>
      </trkpt>
      <trkpt lat="47.540468" lon="7.922009">
        <ele>355.509298</ele>
        <time>2021-11-12T20:31:22.293Z</time>
      </trkpt>
      <trkpt lat="47.540426" lon="7.922257">
        <ele>355.976225</ele>
        <time>2021-11-12T20:31:37.373Z</time>
      </trkpt>
      <trkpt lat="47.540276" lon="7.922517">
        <ele>356.600802</ele>
        <time>2021-11-12T20:31:57.569Z</time>
      </trkpt>
      <trkpt lat="47.540110" lon="7.922616">
        <ele>357.084888</ele>
        <time>2021-11-12T20:32:12.933Z</time>
      </trkpt>
      <trkpt lat="47.539357" lon="7.923066">
        <ele>359.821274</ele>
        <time>2021-11-12T20:33:26.004Z</time>
      </trkpt>
      <trkpt lat="47.538673" lon="7.923346">
        <ele>363.286346</ele>
        <time>2021-11-12T20:34:35.085Z</time>
      </trkpt>
      <trkpt lat="47.538225" lon="7.923716">
        <ele>365.790914</ele>
        <time>2021-11-12T20:35:30.366Z</time>
      </trkpt>
      <trkpt lat="47.537704" lon="7.924286">
        <ele>368.330123</ele>
        <time>2021-11-12T20:36:36.424Z</time>
      </trkpt>
      <trkpt lat="47.537368" lon="7.924418">
        <ele>369.349262</ele>
        <time>2021-11-12T20:37:10.335Z</time>
      </trkpt>
      <trkpt lat="47.537009" lon="7.924729">
        <ele>370.568562</ele>
        <time>2021-11-12T20:37:49.683Z</time>
      </trkpt>
      <trkpt lat="47.536706" lon="7.925193">
        <ele>371.846286</ele>
        <time>2021-11-12T20:38:01.413Z</time>
      </trkpt>
      <trkpt lat="47.536480" lon="7.925533">
        <ele>372.593652</ele>
        <time>2021-11-12T20:38:07.935Z</time>
      </trkpt>
      <trkpt lat="47.535703" lon="7.925981">
        <ele>371.157921</ele>
        <time>2021-11-12T20:38:20.909Z</time>
      </trkpt>
      <trkpt lat="47.535496" lon="7.926292">
        <ele>370.650215</ele>
        <time>2021-11-12T20:38:25.035Z</time>
      </trkpt>
      <trkpt lat="47.535366" lon="7.926580">
        <ele>370.247466</ele>
        <time>2021-11-12T20:38:28.431Z</time>
      </trkpt>
      <trkpt lat="47.535237" lon="7.926835">
        <ele>369.877031</ele>
        <time>2021-11-12T20:38:32.069Z</time>
      </trkpt>
      <trkpt lat="47.534394" lon="7.928043">
        <ele>370.227045</ele>
        <time>2021-11-12T20:38:55.298Z</time>
      </trkpt>
      <trkpt lat="47.534319" lon="7.928138">
        <ele>370.292315</ele>
        <time>2021-11-12T20:38:57.709Z</time>
      </trkpt>
      <trkpt lat="47.534250" lon="7.928183">
        <ele>370.342179</ele>
        <time>2021-11-12T20:38:59.867Z</time>
      </trkpt>
      <trkpt lat="47.534226" lon="7.928203">
        <ele>370.360392</ele>
        <time>2021-11-12T20:39:00.788Z</time>
      </trkpt>
      <trkpt lat="47.534168" lon="7.928273">
        <ele>370.409875</ele>
        <time>2021-11-12T20:39:03.322Z</time>
      </trkpt>
      <trkpt lat="47.533454" lon="7.928933">
        <ele>371.248501</ele>
        <time>2021-11-12T20:39:27.440Z</time>
      </trkpt>
      <trkpt lat="47.533316" lon="7.929060">
        <ele>371.501978</ele>
        <time>2021-11-12T20:39:30.611Z</time>
      </trkpt>
      <trkpt lat="47.532796" lon="7.929524">
        <ele>372.449111</ele>
        <time>2021-11-12T20:39:43.480Z</time>
      </trkpt>
      <trkpt lat="47.532584" lon="7.929704">
        <ele>372.830357</ele>
        <time>2021-11-12T20:39:50.451Z</time>
      </trkpt>
      <trkpt lat="47.532610" lon="7.929877">
        <ele>373.017050</ele>
        <time>2021-11-12T20:39:51.698Z</time>
      </trkpt>
      <trkpt lat="47.532726" lon="7.930299">
        <ele>373.497000</ele>
        <time>2021-11-12T20:39:59.025Z</time>
      </trkpt>
      <trkpt lat="47.532726" lon="7.930392">
        <ele>373.561765</ele>
        <time>2021-11-12T20:39:59.621Z</time>
      </trkpt>
      <trkpt lat="47.532599" lon="7.930581">
        <ele>373.529472</ele>
        <time>2021-11-12T20:40:04.720Z</time>
      </trkpt>
      <trkpt lat="47.532261" lon="7.931393">
        <ele>373.413948</ele>
        <time>2021-11-12T20:40:12.897Z</time>
      </trkpt>
      <trkpt lat="47.532237" lon="7.931571">
        <ele>373.391966</ele>
        <time>2021-11-12T20:40:15.831Z</time>
      </trkpt>
      <trkpt lat="47.532170" lon="7.931998">
        <ele>373.338876</ele>
        <time>2021-11-12T20:40:19.123Z</time>
      </trkpt>
      <trkpt lat="47.531984" lon="7.932581">
        <ele>373.260785</ele>
        <time>2021-11-12T20:40:24.829Z</time>
      </trkpt>
      <trkpt lat="47.531985" lon="7.932692">
        <ele>373.247341</ele>
        <time>2021-11-12T20:40:25.698Z</time>
      </trkpt>
      <trkpt lat="47.531984" lon="7.932824">
        <ele>373.242696</ele>
        <time>2021-11-12T20:40:26.850Z</time>
      </trkpt>
      <trkpt lat="47.531931" lon="7.933297">
        <ele>373.243360</ele>
        <time>2021-11-12T20:40:31.598Z</time>
      </trkpt>
      <trkpt lat="47.531622" lon="7.934065">
        <ele>373.244599</ele>
        <time>2021-11-12T20:40:40.742Z</time>
      </trkpt>
      <trkpt lat="47.531503" lon="7.934360">
        <ele>373.245075</ele>
        <time>2021-11-12T20:40:44.011Z</time>
      </trkpt>
      <trkpt lat="47.531505" lon="7.934420">
        <ele>373.245158</ele>
        <time>2021-11-12T20:40:44.692Z</time>
      </trkpt>
      <trkpt lat="47.531519" lon="7.934461">
        <ele>373.245222</ele>
        <time>2021-11-12T20:40:45.136Z</time>
      </trkpt>
      <trkpt lat="47.531561" lon="7.934562">
        <ele>373.245386</ele>
        <time>2021-11-12T20:40:46.143Z</time>
      </trkpt>
      <trkpt lat="47.531638" lon="7.934766">
        <ele>373.245710</ele>
        <time>2021-11-12T20:40:48.372Z</time>
      </trkpt>
      <trkpt lat="47.531548" lon="7.934833">
        <ele>373.245917</ele>
        <time>2021-11-12T20:40:50.064Z</time>
      </trkpt>
      <trkpt lat="47.531129" lon="7.935142">
        <ele>373.591882</ele>
        <time>2021-11-12T20:40:58.105Z</time>
      </trkpt>
      <trkpt lat="47.530759" lon="7.935410">
        <ele>374.064015</ele>
        <time>2021-11-12T20:41:06.125Z</time>
      </trkpt>
      <trkpt lat="47.530404" lon="7.935710">
        <ele>374.532532</ele>
        <time>2021-11-12T20:41:14.622Z</time>
      </trkpt>
      <trkpt lat="47.530062" lon="7.936223">
        <ele>375.090510</ele>
        <time>2021-11-12T20:41:24.982Z</time>
      </trkpt>
      <trkpt lat="47.530009" lon="7.936303">
        <ele>375.177256</ele>
        <time>2021-11-12T20:41:26.642Z</time>
      </trkpt>
      <trkpt lat="47.529827" lon="7.936525">
        <ele>375.518565</ele>
        <time>2021-11-12T20:41:31.158Z</time>
      </trkpt>
      <trkpt lat="47.529626" lon="7.936730">
        <ele>375.940774</ele>
        <time>2021-11-12T20:41:35.898Z</time>
      </trkpt>
      <trkpt lat="47.529468" lon="7.936891">
        <ele>376.272565</ele>
        <time>2021-11-12T20:41:39.488Z</time>
      </trkpt>
      <trkpt lat="47.529273" lon="7.937297">
        <ele>376.854568</ele>
        <time>2021-11-12T20:41:46.044Z</time>
      </trkpt>
      <trkpt lat="47.529185" lon="7.937741">
        <ele>377.395099</ele>
        <time>2021-11-12T20:41:52.694Z</time>
      </trkpt>
      <trkpt lat="47.529106" lon="7.937991">
        <ele>377.717530</ele>
        <time>2021-11-12T20:41:57.187Z</time>
      </trkpt>
      <trkpt lat="47.528958" lon="7.938333">
        <ele>378.192038</ele>
        <time>2021-11-12T20:42:03.836Z</time>
      </trkpt>
      <trkpt lat="47.528822" lon="7.938652">
        <ele>378.800340</ele>
        <time>2021-11-12T20:42:10.202Z</time>
      </trkpt>
      <trkpt lat="47.528658" lon="7.939111">
        <ele>379.884212</ele>
        <time>2021-11-12T20:42:19.455Z</time>
      </trkpt>
      <trkpt lat="47.528467" lon="7.939644">
        <ele>381.143641</ele>
        <time>2021-11-12T20:42:30.434Z</time>
      </trkpt>
      <trkpt lat="47.528286" lon="7.940193">
        <ele>382.418804</ele>
        <time>2021-11-12T20:42:41.796Z</time>
      </trkpt>
      <trkpt lat="47.528232" lon="7.940349">
        <ele>382.784699</ele>
        <time>2021-11-12T20:42:45.140Z</time>
      </trkpt>
      <trkpt lat="47.528193" lon="7.940482">
        <ele>383.087343</ele>
        <time>2021-11-12T20:42:47.908Z</time>
      </trkpt>
      <trkpt lat="47.528074" lon="7.940914">
        <ele>384.078833</ele>
        <time>2021-11-12T20:42:57.085Z</time>
      </trkpt>
      <trkpt lat="47.527738" lon="7.942144">
        <ele>387.447621</ele>
        <time>2021-11-12T20:43:23.419Z</time>
      </trkpt>
      <trkpt lat="47.527562" lon="7.942799">
        <ele>389.237478</ele>
        <time>2021-11-12T20:43:36.959Z</time>
      </trkpt>
      <trkpt lat="47.527379" lon="7.943358">
        <ele>390.845708</ele>
        <time>2021-11-12T20:43:49.322Z</time>
      </trkpt>
      <trkpt lat="47.527098" lon="7.943983">
        <ele>393.569494</ele>
        <time>2021-11-12T20:44:07.651Z</time>
      </trkpt>
      <trkpt lat="47.526465" lon="7.944912">
        <ele>398.357064</ele>
        <time>2021-11-12T20:44:41.563Z</time>
      </trkpt>
      <trkpt lat="47.526210" lon="7.945167">
        <ele>400.010039</ele>
        <time>2021-11-12T20:44:53.331Z</time>
      </trkpt>
      <trkpt lat="47.526080" lon="7.945282">
        <ele>400.756030</ele>
        <time>2021-11-12T20:44:58.988Z</time>
      </trkpt>
      <trkpt lat="47.525932" lon="7.945400">
        <ele>401.513293</ele>
        <time>2021-11-12T20:45:05.036Z</time>
      </trkpt>
      <trkpt lat="47.525755" lon="7.945530">
        <ele>402.403398</ele>
        <time>2021-11-12T20:45:12.326Z</time>
      </trkpt>
      <trkpt lat="47.525003" lon="7.946035">
        <ele>406.123377</ele>
        <time>2021-11-12T20:45:40.702Z</time>
      </trkpt>
      <trkpt lat="47.524540" lon="7.946546">
        <ele>408.654728</ele>
        <time>2021-11-12T20:45:57.145Z</time>
      </trkpt>
      <trkpt lat="47.524015" lon="7.947474">
        <ele>411.143776</ele>
        <time>2021-11-12T20:46:17.258Z</time>
      </trkpt>
      <trkpt lat="47.522871" lon="7.949842">
        <ele>417.850378</ele>
        <time>2021-11-12T20:47:12.171Z</time>
      </trkpt>
      <trkpt lat="47.522583" lon="7.950558">
        <ele>419.956274</ele>
        <time>2021-11-12T20:47:29.391Z</time>
      </trkpt>
      <trkpt lat="47.522583" lon="7.950558">
        <ele>419.956274</ele>
        <time>2021-11-12T20:47:29.474Z</time>
      </trkpt>
      <trkpt lat="47.522583" lon="7.950558">
        <ele>419.956274</ele>
        <time>2021-11-12T20:47:29.480Z</time>
      </trkpt>
      <trkpt lat="47.522551" lon="7.950637">
        <ele>420.189058</ele>
        <time>2021-11-12T20:47:32.188Z</time>
      </trkpt>
      <trkpt lat="47.522166" lon="7.951598">
        <ele>423.641800</ele>
        <time>2021-11-12T20:47:57.082Z</time>
      </trkpt>
      <trkpt lat="47.521866" lon="7.952202">
        <ele>426.055318</ele>
        <time>2021-11-12T20:48:14.771Z</time>
      </trkpt>
      <trkpt lat="47.520960" lon="7.953410">
        <ele>432.264922</ele>
        <time>2021-11-12T20:48:56.102Z</time>
      </trkpt>
      <trkpt lat="47.520851" lon="7.953518">
        <ele>432.986660</ele>
        <time>2021-11-12T20:49:01.431Z</time>
      </trkpt>
      <trkpt lat="47.520196" lon="7.954168">
        <ele>437.325810</ele>
        <time>2021-11-12T20:49:32.644Z</time>
      </trkpt>
      <trkpt lat="47.519633" lon="7.954614">
        <ele>440.084492</ele>
        <time>2021-11-12T20:49:56.019Z</time>
      </trkpt>
      <trkpt lat="47.519421" lon="7.954816">
        <ele>440.837978</ele>
        <time>2021-11-12T20:50:04.491Z</time>
      </trkpt>
      <trkpt lat="47.518911" lon="7.955491">
        <ele>442.882458</ele>
        <time>2021-11-12T20:50:24.214Z</time>
      </trkpt>
      <trkpt lat="47.518757" lon="7.955695">
        <ele>443.500049</ele>
        <time>2021-11-12T20:50:28.634Z</time>
      </trkpt>
      <trkpt lat="47.518060" lon="7.957077">
        <ele>444.002348</ele>
        <time>2021-11-12T20:50:44.409Z</time>
      </trkpt>
      <trkpt lat="47.517852" lon="7.957582">
        <ele>443.725740</ele>
        <time>2021-11-12T20:50:49.000Z</time>
      </trkpt>
      <trkpt lat="47.517628" lon="7.958176">
        <ele>443.407596</ele>
        <time>2021-11-12T20:50:54.399Z</time>
      </trkpt>
      <trkpt lat="47.517484" lon="7.958473">
        <ele>443.324668</ele>
        <time>2021-11-12T20:50:57.313Z</time>
      </trkpt>
      <trkpt lat="47.517422" lon="7.958602">
        <ele>443.331409</ele>
        <time>2021-11-12T20:50:58.645Z</time>
      </trkpt>
      <trkpt lat="47.516682" lon="7.959949">
        <ele>443.405339</ele>
        <time>2021-11-12T20:51:15.730Z</time>
      </trkpt>
      <trkpt lat="47.516286" lon="7.960801">
        <ele>443.887679</ele>
        <time>2021-11-12T20:51:29.324Z</time>
      </trkpt>
      <trkpt lat="47.515417" lon="7.961931">
        <ele>445.672946</ele>
        <time>2021-11-12T20:51:55.525Z</time>
      </trkpt>
      <trkpt lat="47.515199" lon="7.962207">
        <ele>446.115702</ele>
        <time>2021-11-12T20:52:00.885Z</time>
      </trkpt>
      <trkpt lat="47.515187" lon="7.962222">
        <ele>446.139943</ele>
        <time>2021-11-12T20:52:01.789Z</time>
      </trkpt>
      <trkpt lat="47.514883" lon="7.962671">
        <ele>446.829521</ele>
        <time>2021-11-12T20:52:09.716Z</time>
      </trkpt>
      <trkpt lat="47.514842" lon="7.962822">
        <ele>447.006815</ele>
        <time>2021-11-12T20:52:11.898Z</time>
      </trkpt>
      <trkpt lat="47.514838" lon="7.962840">
        <ele>447.027458</ele>
        <time>2021-11-12T20:52:12.037Z</time>
      </trkpt>
      <trkpt lat="47.514838" lon="7.963162">
        <ele>447.378244</ele>
        <time>2021-11-12T20:52:16.455Z</time>
      </trkpt>
      <trkpt lat="47.514830" lon="7.963311">
        <ele>447.541076</ele>
        <time>2021-11-12T20:52:18.752Z</time>
      </trkpt>
      <trkpt lat="47.514809" lon="7.963450">
        <ele>447.696244</ele>
        <time>2021-11-12T20:52:20.259Z</time>
      </trkpt>
      <trkpt lat="47.514722" lon="7.963775">
        <ele>448.077093</ele>
        <time>2021-11-12T20:52:26.128Z</time>
      </trkpt>
      <trkpt lat="47.514703" lon="7.963873">
        <ele>448.188165</ele>
        <time>2021-11-12T20:52:27.377Z</time>
      </trkpt>
      <trkpt lat="47.514699" lon="7.963986">
        <ele>448.311436</ele>
        <time>2021-11-12T20:52:28.733Z</time>
      </trkpt>
      <trkpt lat="47.514665" lon="7.964238">
        <ele>448.591389</ele>
        <time>2021-11-12T20:52:33.281Z</time>
      </trkpt>
      <trkpt lat="47.514616" lon="7.964407">
        <ele>448.791745</ele>
        <time>2021-11-12T20:52:35.978Z</time>
      </trkpt>
      <trkpt lat="47.514429" lon="7.964841">
        <ele>449.585193</ele>
        <time>2021-11-12T20:52:43.987Z</time>
      </trkpt>
      <trkpt lat="47.514345" lon="7.964927">
        <ele>449.906777</ele>
        <time>2021-11-12T20:52:45.909Z</time>
      </trkpt>
      <trkpt lat="47.514266" lon="7.964968">
        <ele>450.170379</ele>
        <time>2021-11-12T20:52:47.895Z</time>
      </trkpt>
      <trkpt lat="47.514153" lon="7.964997">
        <ele>450.531508</ele>
        <time>2021-11-12T20:52:50.812Z</time>
      </trkpt>
      <trkpt lat="47.513988" lon="7.964994">
        <ele>451.051113</ele>
        <time>2021-11-12T20:52:54.253Z</time>
      </trkpt>
      <trkpt lat="47.513857" lon="7.965014">
        <ele>451.465804</ele>
        <time>2021-11-12T20:52:57.784Z</time>
      </trkpt>
      <trkpt lat="47.513799" lon="7.965061">
        <ele>451.674004</ele>
        <time>2021-11-12T20:52:59.599Z</time>
      </trkpt>
      <trkpt lat="47.513691" lon="7.965208">
        <ele>452.135953</ele>
        <time>2021-11-12T20:53:03.019Z</time>
      </trkpt>
      <trkpt lat="47.513617" lon="7.965308">
        <ele>452.451437</ele>
        <time>2021-11-12T20:53:05.606Z</time>
      </trkpt>
      <trkpt lat="47.513496" lon="7.965435">
        <ele>452.918479</ele>
        <time>2021-11-12T20:53:09.717Z</time>
      </trkpt>
      <trkpt lat="47.513552" lon="7.965694">
        <ele>453.496858</ele>
        <time>2021-11-12T20:53:15.038Z</time>
      </trkpt>
      <trkpt lat="47.513574" lon="7.965795">
        <ele>453.722560</ele>
        <time>2021-11-12T20:53:17.565Z</time>
      </trkpt>
      <trkpt lat="47.513607" lon="7.966067">
        <ele>454.310309</ele>
        <time>2021-11-12T20:53:23.350Z</time>
      </trkpt>
      <trkpt lat="47.513677" lon="7.966493">
        <ele>455.664886</ele>
        <time>2021-11-12T20:53:33.617Z</time>
      </trkpt>
      <trkpt lat="47.513719" lon="7.966609">
        <ele>456.195806</ele>
        <time>2021-11-12T20:53:37.294Z</time>
      </trkpt>
      <trkpt lat="47.513963" lon="7.966968">
        <ele>458.250253</ele>
        <time>2021-11-12T20:53:50.356Z</time>
      </trkpt>
      <trkpt lat="47.514175" lon="7.967361">
        <ele>460.279115</ele>
        <time>2021-11-12T20:54:02.523Z</time>
      </trkpt>
      <trkpt lat="47.514265" lon="7.967596">
        <ele>461.368850</ele>
        <time>2021-11-12T20:54:09.145Z</time>
      </trkpt>
      <trkpt lat="47.514516" lon="7.968208">
        <ele>464.257034</ele>
        <time>2021-11-12T20:54:27.491Z</time>
      </trkpt>
      <trkpt lat="47.514581" lon="7.968390">
        <ele>465.087502</ele>
        <time>2021-11-12T20:54:34.820Z</time>
      </trkpt>
      <trkpt lat="47.514762" lon="7.968835">
        <ele>468.028900</ele>
        <time>2021-11-12T20:54:51.499Z</time>
      </trkpt>
      <trkpt lat="47.515012" lon="7.969232">
        <ele>471.328409</ele>
        <time>2021-11-12T20:55:09.948Z</time>
      </trkpt>
      <trkpt lat="47.515227" lon="7.969425">
        <ele>473.591345</ele>
        <time>2021-11-12T20:55:22.708Z</time>
      </trkpt>
      <trkpt lat="47.515307" lon="7.969493">
        <ele>474.421584</ele>
        <time>2021-11-12T20:55:28.077Z</time>
      </trkpt>
      <trkpt lat="47.515780" lon="7.969896">
        <ele>479.333244</ele>
        <time>2021-11-12T20:55:57.321Z</time>
      </trkpt>
      <trkpt lat="47.516258" lon="7.970425">
        <ele>483.691151</ele>
        <time>2021-11-12T20:56:28.381Z</time>
      </trkpt>
      <trkpt lat="47.516475" lon="7.970786">
        <ele>485.637268</ele>
        <time>2021-11-12T20:56:46.074Z</time>
      </trkpt>
      <trkpt lat="47.516639" lon="7.971156">
        <ele>487.419446</ele>
        <time>2021-11-12T20:57:00.906Z</time>
      </trkpt>
      <trkpt lat="47.516849" lon="7.971986">
        <ele>490.988613</ele>
        <time>2021-11-12T20:57:22.264Z</time>
      </trkpt>
      <trkpt lat="47.517017" lon="7.972944">
        <ele>490.184176</ele>
        <time>2021-11-12T20:57:30.012Z</time>
      </trkpt>
      <trkpt lat="47.517070" lon="7.973149">
        <ele>489.405971</ele>
        <time>2021-11-12T20:57:31.436Z</time>
      </trkpt>
      <trkpt lat="47.517191" lon="7.973538">
        <ele>487.887637</ele>
        <time>2021-11-12T20:57:34.228Z</time>
      </trkpt>
      <trkpt lat="47.517208" lon="7.973572">
        <ele>487.737661</ele>
        <time>2021-11-12T20:57:34.470Z</time>
      </trkpt>
      <trkpt lat="47.517263" lon="7.973683">
        <ele>487.249591</ele>
        <time>2021-11-12T20:57:35.304Z</time>
      </trkpt>
      <trkpt lat="47.517422" lon="7.973976">
        <ele>485.917065</ele>
        <time>2021-11-12T20:57:37.632Z</time>
      </trkpt>
      <trkpt lat="47.517539" lon="7.974133">
        <ele>485.088208</ele>
        <time>2021-11-12T20:57:39.026Z</time>
      </trkpt>
      <trkpt lat="47.517601" lon="7.974216">
        <ele>484.649452</ele>
        <time>2021-11-12T20:57:39.753Z</time>
      </trkpt>
      <trkpt lat="47.517803" lon="7.974479">
        <ele>483.237464</ele>
        <time>2021-11-12T20:57:42.101Z</time>
      </trkpt>
      <trkpt lat="47.517897" lon="7.974601">
        <ele>482.307193</ele>
        <time>2021-11-12T20:57:43.165Z</time>
      </trkpt>
      <trkpt lat="47.518511" lon="7.975376">
        <ele>475.198015</ele>
        <time>2021-11-12T20:57:50.077Z</time>
      </trkpt>
      <trkpt lat="47.518771" lon="7.975833">
        <ele>471.642120</ele>
        <time>2021-11-12T20:57:53.590Z</time>
      </trkpt>
      <trkpt lat="47.518954" lon="7.976318">
        <ele>468.336079</ele>
        <time>2021-11-12T20:57:56.931Z</time>
      </trkpt>
      <trkpt lat="47.519021" lon="7.976610">
        <ele>466.782716</ele>
        <time>2021-11-12T20:57:58.848Z</time>
      </trkpt>
      <trkpt lat="47.519068" lon="7.976937">
        <ele>465.675218</ele>
        <time>2021-11-12T20:58:00.937Z</time>
      </trkpt>
      <trkpt lat="47.519130" lon="7.977741">
        <ele>462.994542</ele>
        <time>2021-11-12T20:58:05.948Z</time>
      </trkpt>
      <trkpt lat="47.519217" lon="7.979377">
        <ele>458.398215</ele>
        <time>2021-11-12T20:58:16.739Z</time>
      </trkpt>
      <trkpt lat="47.519262" lon="7.980038">
        <ele>458.643398</ele>
        <time>2021-11-12T20:58:21.954Z</time>
      </trkpt>
      <trkpt lat="47.518938" lon="7.980093">
        <ele>458.821615</ele>
        <time>2021-11-12T20:58:58.407Z</time>
      </trkpt>
      <trkpt lat="47.518298" lon="7.980206">
        <ele>459.173836</ele>
        <time>2021-11-12T21:00:15.217Z</time>
      </trkpt>
      <trkpt lat="47.517633" lon="7.980418">
        <ele>461.336230</ele>
        <time>2021-11-12T21:01:42.746Z</time>
      </trkpt>
      <trkpt lat="47.517255" lon="7.980642">
        <ele>463.161116</ele>
        <time>2021-11-12T21:02:37.658Z</time>
      </trkpt>
      <trkpt lat="47.516970" lon="7.981153">
        <ele>465.167224</ele>
        <time>2021-11-12T21:03:37.257Z</time>
      </trkpt>
      <trkpt lat="47.516666" lon="7.982302">
        <ele>468.358328</ele>
        <time>2021-11-12T21:05:22.004Z</time>
      </trkpt>
      <trkpt lat="47.516360" lon="7.983035">
        <ele>470.047165</ele>
        <time>2021-11-12T21:06:33.157Z</time>
      </trkpt>
      <trkpt lat="47.516251" lon="7.983296">
        <ele>470.648577</ele>
        <time>2021-11-12T21:06:57.584Z</time>
      </trkpt>
      <trkpt lat="47.516036" lon="7.983707">
        <ele>471.667433</ele>
        <time>2021-11-12T21:07:39.389Z</time>
      </trkpt>
      <trkpt lat="47.515459" lon="7.984619">
        <ele>474.008311</ele>
        <time>2021-11-12T21:09:24.984Z</time>
      </trkpt>
      <trkpt lat="47.515212" lon="7.985092">
        <ele>475.097658</ele>
        <time>2021-11-12T21:10:13.273Z</time>
      </trkpt>
      <trkpt lat="47.515029" lon="7.985591">
        <ele>476.132213</ele>
        <time>2021-11-12T21:10:59.220Z</time>
      </trkpt>
      <trkpt lat="47.514984" lon="7.985795">
        <ele>476.523221</ele>
        <time>2021-11-12T21:11:16.920Z</time>
      </trkpt>
      <trkpt lat="47.514955" lon="7.985985">
        <ele>476.878129</ele>
        <time>2021-11-12T21:11:32.530Z</time>
      </trkpt>
      <trkpt lat="47.514922" lon="7.986199">
        <ele>477.278069</ele>
        <time>2021-11-12T21:11:51.306Z</time>
      </trkpt>
      <trkpt lat="47.514895" lon="7.986454">
        <ele>478.005501</ele>
        <time>2021-11-12T21:12:12.281Z</time>
      </trkpt>
      <trkpt lat="47.514857" lon="7.986612">
        <ele>478.558021</ele>
        <time>2021-11-12T21:12:26.562Z</time>
      </trkpt>
      <trkpt lat="47.514801" lon="7.986869">
        <ele>479.447634</ele>
        <time>2021-11-12T21:12:49.317Z</time>
      </trkpt>
      <trkpt lat="47.514696" lon="7.987074">
        <ele>480.295206</ele>
        <time>2021-11-12T21:13:10.915Z</time>
      </trkpt>
      <trkpt lat="47.514488" lon="7.987298">
        <ele>481.549734</ele>
        <time>2021-11-12T21:13:42.943Z</time>
      </trkpt>
      <trkpt lat="47.514195" lon="7.987607">
        <ele>483.304349</ele>
        <time>2021-11-12T21:14:32.867Z</time>
      </trkpt>
      <trkpt lat="47.514055" lon="7.987689">
        <ele>484.038705</ele>
        <time>2021-11-12T21:14:55.016Z</time>
      </trkpt>
      <trkpt lat="47.513697" lon="7.987670">
        <ele>485.786009</ele>
        <time>2021-11-12T21:15:42.341Z</time>
      </trkpt>
      <trkpt lat="47.513512" lon="7.987549">
        <ele>487.148498</ele>
        <time>2021-11-12T21:16:06.799Z</time>
      </trkpt>
      <trkpt lat="47.513196" lon="7.987138">
        <ele>490.555128</ele>
        <time>2021-11-12T21:17:04.950Z</time>
      </trkpt>
      <trkpt lat="47.513120" lon="7.987065">
        <ele>491.288856</ele>
        <time>2021-11-12T21:17:20.978Z</time>
      </trkpt>
      <trkpt lat="47.513070" lon="7.987017">
        <ele>491.771493</ele>
        <time>2021-11-12T21:17:31.504Z</time>
      </trkpt>
      <trkpt lat="47.512195" lon="7.986702">
        <ele>499.064770</ele>
        <time>2021-11-12T21:19:42.736Z</time>
      </trkpt>
      <trkpt lat="47.512105" lon="7.986697">
        <ele>499.794210</ele>
        <time>2021-11-12T21:19:56.266Z</time>
      </trkpt>
      <trkpt lat="47.511754" lon="7.986681">
        <ele>501.681971</ele>
        <time>2021-11-12T21:20:46.792Z</time>
      </trkpt>
      <trkpt lat="47.511677" lon="7.986666">
        <ele>501.988870</ele>
        <time>2021-11-12T21:21:00.721Z</time>
      </trkpt>
      <trkpt lat="47.511625" lon="7.986656">
        <ele>502.196082</ele>
        <time>2021-11-12T21:21:08.609Z</time>
      </trkpt>
      <trkpt lat="47.511388" lon="7.986757">
        <ele>503.170648</ele>
        <time>2021-11-12T21:21:39.023Z</time>
      </trkpt>
      <trkpt lat="47.511287" lon="7.986937">
        <ele>503.795241</ele>
        <time>2021-11-12T21:22:00.497Z</time>
      </trkpt>
      <trkpt lat="47.511285" lon="7.987015">
        <ele>504.003583</ele>
        <time>2021-11-12T21:22:06.680Z</time>
      </trkpt>
      <trkpt lat="47.511279" lon="7.987254">
        <ele>504.641942</ele>
        <time>2021-11-12T21:22:26.859Z</time>
      </trkpt>
      <trkpt lat="47.511286" lon="7.987663">
        <ele>505.733961</ele>
        <time>2021-11-12T21:23:00.302Z</time>
      </trkpt>
      <trkpt lat="47.511291" lon="7.987928">
        <ele>506.441553</ele>
        <time>2021-11-12T21:23:23.215Z</time>
      </trkpt>
      <trkpt lat="47.511279" lon="7.989103">
        <ele>506.313714</ele>
        <time>2021-11-12T21:24:50.767Z</time>
      </trkpt>
      <trkpt lat="47.511281" lon="7.989398">
        <ele>505.588897</ele>
        <time>2021-11-12T21:25:11.380Z</time>
      </trkpt>
      <trkpt lat="47.511310" lon="7.989658">
        <ele>504.941456</ele>
        <time>2021-11-12T21:25:28.992Z</time>
      </trkpt>
      <trkpt lat="47.511323" lon="7.989943">
        <ele>504.239650</ele>
        <time>2021-11-12T21:25:48.373Z</time>
      </trkpt>
      <trkpt lat="47.511276" lon="7.990072">
        <ele>503.879544</ele>
        <time>2021-11-12T21:25:57.926Z</time>
      </trkpt>
      <trkpt lat="47.511333" lon="7.990498">
        <ele>502.812574</ele>
        <time>2021-11-12T21:26:26.317Z</time>
      </trkpt>
      <trkpt lat="47.511524" lon="7.990642">
        <ele>502.032931</ele>
        <time>2021-11-12T21:26:46.613Z</time>
      </trkpt>
      <trkpt lat="47.511515" lon="7.991186">
        <ele>499.902687</ele>
        <time>2021-11-12T21:27:20.644Z</time>
      </trkpt>
      <trkpt lat="47.511385" lon="7.991709">
        <ele>496.836095</ele>
        <time>2021-11-12T21:27:54.411Z</time>
      </trkpt>
      <trkpt lat="47.510997" lon="7.992648">
        <ele>490.778871</ele>
        <time>2021-11-12T21:29:01.146Z</time>
      </trkpt>
      <trkpt lat="47.510818" lon="7.992811">
        <ele>489.066832</ele>
        <time>2021-11-12T21:29:19.972Z</time>
      </trkpt>
      <trkpt lat="47.510461" lon="7.992804">
        <ele>486.389211</ele>
        <time>2021-11-12T21:29:51.858Z</time>
      </trkpt>
      <trkpt lat="47.509038" lon="7.992773">
        <ele>479.901358</ele>
        <time>2021-11-12T21:32:07.608Z</time>
      </trkpt>
      <trkpt lat="47.508977" lon="7.992786">
        <ele>479.620405</ele>
        <time>2021-11-12T21:32:13.192Z</time>
      </trkpt>
      <trkpt lat="47.508933" lon="7.992795">
        <ele>479.417913</ele>
        <time>2021-11-12T21:32:18.065Z</time>
      </trkpt>
      <trkpt lat="47.508819" lon="7.992358">
        <ele>479.044929</ele>
        <time>2021-11-12T21:32:54.670Z</time>
      </trkpt>
      <trkpt lat="47.508590" lon="7.991481">
        <ele>482.248457</ele>
        <time>2021-11-12T21:34:14.617Z</time>
      </trkpt>
      <trkpt lat="47.508561" lon="7.991069">
        <ele>483.659793</ele>
        <time>2021-11-12T21:34:50.681Z</time>
      </trkpt>
      <trkpt lat="47.508932" lon="7.990221">
        <ele>487.102107</ele>
        <time>2021-11-12T21:36:30.250Z</time>
      </trkpt>
      <trkpt lat="47.508930" lon="7.989875">
        <ele>488.733175</ele>
        <time>2021-11-12T21:37:05.587Z</time>
      </trkpt>
      <trkpt lat="47.508822" lon="7.989054">
        <ele>493.359056</ele>
        <time>2021-11-12T21:38:26.539Z</time>
      </trkpt>
      <trkpt lat="47.508812" lon="7.988947">
        <ele>493.956462</ele>
        <time>2021-11-12T21:38:38.208Z</time>
      </trkpt>
      <trkpt lat="47.508804" lon="7.988871">
        <ele>494.381857</ele>
        <time>2021-11-12T21:38:46.227Z</time>
      </trkpt>
      <trkpt lat="47.508539" lon="7.986509">
        <ele>506.938396</ele>
        <time>2021-11-12T21:42:35.829Z</time>
      </trkpt>
      <trkpt lat="47.508861" lon="7.985423">
        <ele>512.655864</ele>
        <time>2021-11-12T21:44:26.694Z</time>
      </trkpt>
      <trkpt lat="47.508982" lon="7.985006">
        <ele>514.843730</ele>
        <time>2021-11-12T21:45:09.505Z</time>
      </trkpt>
      <trkpt lat="47.509006" lon="7.984925">
        <ele>515.254876</ele>
        <time>2021-11-12T21:45:17.628Z</time>
      </trkpt>
      <trkpt lat="47.509029" lon="7.984818">
        <ele>515.741714</ele>
        <time>2021-11-12T21:45:28.314Z</time>
      </trkpt>
      <trkpt lat="47.509056" lon="7.984659">
        <ele>516.452532</ele>
        <time>2021-11-12T21:45:43.970Z</time>
      </trkpt>
      <trkpt lat="47.509054" lon="7.984474">
        <ele>517.254729</ele>
        <time>2021-11-12T21:46:01.067Z</time>
      </trkpt>
      <trkpt lat="47.509026" lon="7.984256">
        <ele>518.216835</ele>
        <time>2021-11-12T21:46:22.041Z</time>
      </trkpt>
      <trkpt lat="47.508909" lon="7.983878">
        <ele>520.019582</ele>
        <time>2021-11-12T21:47:01.243Z</time>
      </trkpt>
      <trkpt lat="47.508402" lon="7.982292">
        <ele>526.674418</ele>
        <time>2021-11-12T21:49:44.448Z</time>
      </trkpt>
      <trkpt lat="47.508315" lon="7.981894">
        <ele>526.694952</ele>
        <time>2021-11-12T21:50:20.689Z</time>
      </trkpt>
      <trkpt lat="47.508252" lon="7.981311">
        <ele>526.723933</ele>
        <time>2021-11-12T21:51:06.997Z</time>
      </trkpt>
      <trkpt lat="47.508287" lon="7.980547">
        <ele>526.761521</ele>
        <time>2021-11-12T21:52:02.176Z</time>
      </trkpt>
      <trkpt lat="47.508295" lon="7.980412">
        <ele>526.768173</ele>
        <time>2021-11-12T21:52:13.360Z</time>
      </trkpt>
      <trkpt lat="47.508298" lon="7.980362">
        <ele>526.770637</ele>
        <time>2021-11-12T21:52:16.959Z</time>
      </trkpt>
      <trkpt lat="47.508160" lon="7.980614">
        <ele>526.786561</ele>
        <time>2021-11-12T21:52:19.894Z</time>
      </trkpt>
      <trkpt lat="47.507123" lon="7.982752">
        <ele>515.342452</ele>
        <time>2021-11-12T21:52:42.670Z</time>
      </trkpt>
      <trkpt lat="47.507055" lon="7.982858">
        <ele>514.666383</ele>
        <time>2021-11-12T21:52:43.903Z</time>
      </trkpt>
      <trkpt lat="47.507011" lon="7.982902">
        <ele>514.267663</ele>
        <time>2021-11-12T21:52:44.542Z</time>
      </trkpt>
      <trkpt lat="47.506875" lon="7.982899">
        <ele>513.151319</ele>
        <time>2021-11-12T21:52:46.256Z</time>
      </trkpt>
      <trkpt lat="47.506692" lon="7.982561">
        <ele>510.749745</ele>
        <time>2021-11-12T21:52:49.903Z</time>
      </trkpt>
      <trkpt lat="47.506233" lon="7.982148">
        <ele>506.341214</ele>
        <time>2021-11-12T21:52:56.650Z</time>
      </trkpt>
      <trkpt lat="47.505601" lon="7.981812">
        <ele>500.829703</ele>
        <time>2021-11-12T21:53:05.064Z</time>
      </trkpt>
      <trkpt lat="47.505399" lon="7.981833">
        <ele>499.042993</ele>
        <time>2021-11-12T21:53:07.593Z</time>
      </trkpt>
      <trkpt lat="47.505275" lon="7.981948">
        <ele>497.569606</ele>
        <time>2021-11-12T21:53:09.433Z</time>
      </trkpt>
      <trkpt lat="47.505164" lon="7.982187">
        <ele>495.596768</ele>
        <time>2021-11-12T21:53:11.843Z</time>
      </trkpt>
      <trkpt lat="47.505153" lon="7.982527">
        <ele>493.281421</ele>
        <time>2021-11-12T21:53:14.680Z</time>
      </trkpt>
      <trkpt lat="47.505235" lon="7.983158">
        <ele>488.910635</ele>
        <time>2021-11-12T21:53:19.955Z</time>
      </trkpt>
      <trkpt lat="47.505180" lon="7.983525">
        <ele>486.353594</ele>
        <time>2021-11-12T21:53:23.019Z</time>
      </trkpt>
      <trkpt lat="47.505169" lon="7.983598">
        <ele>485.844841</ele>
        <time>2021-11-12T21:53:23.621Z</time>
      </trkpt>
      <trkpt lat="47.505014" lon="7.983996">
        <ele>482.719951</ele>
        <time>2021-11-12T21:53:27.368Z</time>
      </trkpt>
      <trkpt lat="47.504558" lon="7.985032">
        <ele>473.660124</ele>
        <time>2021-11-12T21:53:37.436Z</time>
      </trkpt>
      <trkpt lat="47.504408" lon="7.985264">
        <ele>471.281442</ele>
        <time>2021-11-12T21:53:40.042Z</time>
      </trkpt>
      <trkpt lat="47.503784" lon="7.986110">
        <ele>462.003442</ele>
        <time>2021-11-12T21:53:50.240Z</time>
      </trkpt>
      <trkpt lat="47.502975" lon="7.987226">
        <ele>450.886294</ele>
        <time>2021-11-12T21:54:03.704Z</time>
      </trkpt>
      <trkpt lat="47.502461" lon="7.987886">
        <ele>444.051864</ele>
        <time>2021-11-12T21:54:12.036Z</time>
      </trkpt>
      <trkpt lat="47.501201" lon="7.989503">
        <ele>429.006912</ele>
        <time>2021-11-12T21:54:32.637Z</time>
      </trkpt>
      <trkpt lat="47.498444" lon="7.993225">
        <ele>398.871558</ele>
        <time>2021-11-12T21:55:19.488Z</time>
      </trkpt>
      <trkpt lat="47.498171" lon="7.993563">
        <ele>396.709624</ele>
        <time>2021-11-12T21:55:24.030Z</time>
      </trkpt>
      <trkpt lat="47.497169" lon="7.994210">
        <ele>390.189167</ele>
        <time>2021-11-12T21:55:38.312Z</time>
      </trkpt>
      <trkpt lat="47.495891" lon="7.995038">
        <ele>384.346907</ele>
        <time>2021-11-12T21:55:58.015Z</time>
      </trkpt>
      <trkpt lat="47.495297" lon="7.995227">
        <ele>382.191571</ele>
        <time>2021-11-12T21:56:06.983Z</time>
      </trkpt>
      <trkpt lat="47.494770" lon="7.995288">
        <ele>380.808150</ele>
        <time>2021-11-12T21:56:14.722Z</time>
      </trkpt>
      <trkpt lat="47.494663" lon="7.995312">
        <ele>380.570838</ele>
        <time>2021-11-12T21:56:16.373Z</time>
      </trkpt>
      <trkpt lat="47.494655" lon="7.995343">
        <ele>380.521672</ele>
        <time>2021-11-12T21:56:16.624Z</time>
      </trkpt>
      <trkpt lat="47.494627" lon="7.995447">
        <ele>380.355803</ele>
        <time>2021-11-12T21:56:17.408Z</time>
      </trkpt>
      <trkpt lat="47.494368" lon="7.995845">
        <ele>379.537096</ele>
        <time>2021-11-12T21:56:21.459Z</time>
      </trkpt>
      <trkpt lat="47.494293" lon="7.995952">
        <ele>379.308665</ele>
        <time>2021-11-12T21:56:22.607Z</time>
      </trkpt>
      <trkpt lat="47.494203" lon="7.996025">
        <ele>379.083616</ele>
        <time>2021-11-12T21:56:23.699Z</time>
      </trkpt>
      <trkpt lat="47.493967" lon="7.996177">
        <ele>378.519230</ele>
        <time>2021-11-12T21:56:26.616Z</time>
      </trkpt>
      <trkpt lat="47.493868" lon="7.996295">
        <ele>378.240493</ele>
        <time>2021-11-12T21:56:28.018Z</time>
      </trkpt>
      <trkpt lat="47.493757" lon="7.996428">
        <ele>377.927321</ele>
        <time>2021-11-12T21:56:29.678Z</time>
      </trkpt>
      <trkpt lat="47.493684" lon="7.996562">
        <ele>377.672288</ele>
        <time>2021-11-12T21:56:30.970Z</time>
      </trkpt>
      <trkpt lat="47.493652" lon="7.996488">
        <ele>377.641042</ele>
        <time>2021-11-12T21:56:31.638Z</time>
      </trkpt>
      <trkpt lat="47.493567" lon="7.996156">
        <ele>377.555920</ele>
        <time>2021-11-12T21:56:34.429Z</time>
      </trkpt>
      <trkpt lat="47.493524" lon="7.995985">
        <ele>377.512174</ele>
        <time>2021-11-12T21:56:35.812Z</time>
      </trkpt>
      <trkpt lat="47.493430" lon="7.995894">
        <ele>377.472317</ele>
        <time>2021-11-12T21:56:37.261Z</time>
      </trkpt>
      <trkpt lat="47.492867" lon="7.995700">
        <ele>377.267197</ele>
        <time>2021-11-12T21:56:44.857Z</time>
      </trkpt>
      <trkpt lat="47.492390" lon="7.995213">
        <ele>377.061569</ele>
        <time>2021-11-12T21:56:54.795Z</time>
      </trkpt>
      <trkpt lat="47.492344" lon="7.995171">
        <ele>377.042390</ele>
        <time>2021-11-12T21:56:55.806Z</time>
      </trkpt>
      <trkpt lat="47.492271" lon="7.995104">
        <ele>377.050717</ele>
        <time>2021-11-12T21:56:57.421Z</time>
      </trkpt>
      <trkpt lat="47.492156" lon="7.994971">
        <ele>377.199990</ele>
        <time>2021-11-12T21:56:59.950Z</time>
      </trkpt>
      <trkpt lat="47.491996" lon="7.994807">
        <ele>377.399050</ele>
        <time>2021-11-12T21:57:04.630Z</time>
      </trkpt>
      <trkpt lat="47.491759" lon="7.994592">
        <ele>377.683363</ele>
        <time>2021-11-12T21:57:11.125Z</time>
      </trkpt>
      <trkpt lat="47.491577" lon="7.994479">
        <ele>377.885226</ele>
        <time>2021-11-12T21:57:15.882Z</time>
      </trkpt>
      <trkpt lat="47.491370" lon="7.994298">
        <ele>378.131133</ele>
        <time>2021-11-12T21:57:21.812Z</time>
      </trkpt>
      <trkpt lat="47.490495" lon="7.993473">
        <ele>379.278103</ele>
        <time>2021-11-12T21:57:48.042Z</time>
      </trkpt>
      <trkpt lat="47.489739" lon="7.992457">
        <ele>380.593680</ele>
        <time>2021-11-12T21:58:13.991Z</time>
      </trkpt>
      <trkpt lat="47.489640" lon="7.992334">
        <ele>380.760205</ele>
        <time>2021-11-12T21:58:17.259Z</time>
      </trkpt>
      <trkpt lat="47.489544" lon="7.992214">
        <ele>380.922091</ele>
        <time>2021-11-12T21:58:20.573Z</time>
      </trkpt>
      <trkpt lat="47.489090" lon="7.991643">
        <ele>381.772673</ele>
        <time>2021-11-12T21:58:35.597Z</time>
      </trkpt>
      <trkpt lat="47.488771" lon="7.991233">
        <ele>382.405414</ele>
        <time>2021-11-12T21:58:46.360Z</time>
      </trkpt>
      <trkpt lat="47.488698" lon="7.991149">
        <ele>382.543896</ele>
        <time>2021-11-12T21:58:48.843Z</time>
      </trkpt>
      <trkpt lat="47.487359" lon="7.989771">
        <ele>385.080091</ele>
        <time>2021-11-12T21:59:32.455Z</time>
      </trkpt>
      <trkpt lat="47.487298" lon="7.989709">
        <ele>385.200238</ele>
        <time>2021-11-12T21:59:34.766Z</time>
      </trkpt>
      <trkpt lat="47.487127" lon="7.989547">
        <ele>385.529886</ele>
        <time>2021-11-12T21:59:39.926Z</time>
      </trkpt>
      <trkpt lat="47.486511" lon="7.989012">
        <ele>386.689524</ele>
        <time>2021-11-12T21:59:59.134Z</time>
      </trkpt>
      <trkpt lat="47.486162" lon="7.988596">
        <ele>387.370645</ele>
        <time>2021-11-12T22:00:11.062Z</time>
      </trkpt>
      <trkpt lat="47.485848" lon="7.988106">
        <ele>388.056428</ele>
        <time>2021-11-12T22:00:23.215Z</time>
      </trkpt>
      <trkpt lat="47.485496" lon="7.987549">
        <ele>388.830901</ele>
        <time>2021-11-12T22:00:36.141Z</time>
      </trkpt>
      <trkpt lat="47.484679" lon="7.986270">
        <ele>390.945369</ele>
        <time>2021-11-12T22:01:07.573Z</time>
      </trkpt>
      <trkpt lat="47.484546" lon="7.985963">
        <ele>391.423610</ele>
        <time>2021-11-12T22:01:14.743Z</time>
      </trkpt>
      <trkpt lat="47.484451" lon="7.985647">
        <ele>391.877186</ele>
        <time>2021-11-12T22:01:21.373Z</time>
      </trkpt>
      <trkpt lat="47.484451" lon="7.985647">
        <ele>391.877186</ele>
        <time>2021-11-12T22:01:21.413Z</time>
      </trkpt>
      <trkpt lat="47.484219" lon="7.985842">
        <ele>392.394970</ele>
        <time>2021-11-12T22:01:29.234Z</time>
      </trkpt>
      <trkpt lat="47.484091" lon="7.985948">
        <ele>392.679623</ele>
        <time>2021-11-12T22:01:33.554Z</time>
      </trkpt>
      <trkpt lat="47.484049" lon="7.985980">
        <ele>392.771299</ele>
        <time>2021-11-12T22:01:34.966Z</time>
      </trkpt>
      <trkpt lat="47.483826" lon="7.986159">
        <ele>393.282429</ele>
        <time>2021-11-12T22:01:42.244Z</time>
      </trkpt>
      <trkpt lat="47.483550" lon="7.986378">
        <ele>393.931335</ele>
        <time>2021-11-12T22:01:51.455Z</time>
      </trkpt>
      <trkpt lat="47.483462" lon="7.986151">
        <ele>394.297780</ele>
        <time>2021-11-12T22:01:55.592Z</time>
      </trkpt>
      <trkpt lat="47.483382" lon="7.985915">
        <ele>394.667486</ele>
        <time>2021-11-12T22:01:59.685Z</time>
      </trkpt>
      <trkpt lat="47.483274" lon="7.985553">
        <ele>395.221582</ele>
        <time>2021-11-12T22:02:05.847Z</time>
      </trkpt>
      <trkpt lat="47.483173" lon="7.985106">
        <ele>395.881563</ele>
        <time>2021-11-12T22:02:13.085Z</time>
      </trkpt>
      <trkpt lat="47.483153" lon="7.984996">
        <ele>396.041070</ele>
        <time>2021-11-12T22:02:14.868Z</time>
      </trkpt>
      <trkpt lat="47.483130" lon="7.984873">
        <ele>396.219776</ele>
        <time>2021-11-12T22:02:16.789Z</time>
      </trkpt>
      <trkpt lat="47.483001" lon="7.984129">
        <ele>397.129449</ele>
        <time>2021-11-12T22:02:29.018Z</time>
      </trkpt>
      <trkpt lat="47.482897" lon="7.983529">
        <ele>397.749857</ele>
        <time>2021-11-12T22:02:37.761Z</time>
      </trkpt>
      <trkpt lat="47.482897" lon="7.983529">
        <ele>397.749857</ele>
        <time>2021-11-12T22:02:37.773Z</time>
      </trkpt>
      <trkpt lat="47.482840" lon="7.983205">
        <ele>398.085190</ele>
        <time>2021-11-12T22:02:42.438Z</time>
      </trkpt>
      <trkpt lat="47.482729" lon="7.982770">
        <ele>398.550908</ele>
        <time>2021-11-12T22:02:48.405Z</time>
      </trkpt>
      <trkpt lat="47.482704" lon="7.982687">
        <ele>398.641924</ele>
        <time>2021-11-12T22:02:49.742Z</time>
      </trkpt>
      <trkpt lat="47.482652" lon="7.982524">
        <ele>398.822461</ele>
        <time>2021-11-12T22:02:51.866Z</time>
      </trkpt>
      <trkpt lat="47.482594" lon="7.982339">
        <ele>399.026725</ele>
        <time>2021-11-12T22:02:54.644Z</time>
      </trkpt>
      <trkpt lat="47.482563" lon="7.982231">
        <ele>399.144250</ele>
        <time>2021-11-12T22:02:56.330Z</time>
      </trkpt>
      <trkpt lat="47.482472" lon="7.981944">
        <ele>399.462732</ele>
        <time>2021-11-12T22:03:00.254Z</time>
      </trkpt>
      <trkpt lat="47.482458" lon="7.981897">
        <ele>399.514768</ele>
        <time>2021-11-12T22:03:01.069Z</time>
      </trkpt>
      <trkpt lat="47.482159" lon="7.980898">
        <ele>400.621661</ele>
        <time>2021-11-12T22:03:16.351Z</time>
      </trkpt>
      <trkpt lat="47.482099" lon="7.980698">
        <ele>400.843347</ele>
        <time>2021-11-12T22:03:19.517Z</time>
      </trkpt>
      <trkpt lat="47.482025" lon="7.980480">
        <ele>401.090497</ele>
        <time>2021-11-12T22:03:22.910Z</time>
      </trkpt>
      <trkpt lat="47.481977" lon="7.980334">
        <ele>401.254983</ele>
        <time>2021-11-12T22:03:25.394Z</time>
      </trkpt>
      <trkpt lat="47.481757" lon="7.979824">
        <ele>401.867948</ele>
        <time>2021-11-12T22:03:34.020Z</time>
      </trkpt>
      <trkpt lat="47.481673" lon="7.979611">
        <ele>402.133517</ele>
        <time>2021-11-12T22:03:37.616Z</time>
      </trkpt>
      <trkpt lat="47.481627" lon="7.979494">
        <ele>402.320714</ele>
        <time>2021-11-12T22:03:39.602Z</time>
      </trkpt>
      <trkpt lat="47.481508" lon="7.979190">
        <ele>402.806571</ele>
        <time>2021-11-12T22:03:44.286Z</time>
      </trkpt>
      <trkpt lat="47.481417" lon="7.978989">
        <ele>403.141159</ele>
        <time>2021-11-12T22:03:48.038Z</time>
      </trkpt>
      <trkpt lat="47.481331" lon="7.978796">
        <ele>403.460869</ele>
        <time>2021-11-12T22:03:51.202Z</time>
      </trkpt>
      <trkpt lat="47.481075" lon="7.978353">
        <ele>404.266965</ele>
        <time>2021-11-12T22:04:00.167Z</time>
      </trkpt>
      <trkpt lat="47.481057" lon="7.978315">
        <ele>404.331142</ele>
        <time>2021-11-12T22:04:01.363Z</time>
      </trkpt>
      <trkpt lat="47.480540" lon="7.977249">
        <ele>406.288997</ele>
        <time>2021-11-12T22:04:22.819Z</time>
      </trkpt>
      <trkpt lat="47.480294" lon="7.976615">
        <ele>407.671089</ele>
        <time>2021-11-12T22:04:35.042Z</time>
      </trkpt>
      <trkpt lat="47.480258" lon="7.976521">
        <ele>407.875349</ele>
        <time>2021-11-12T22:04:37.304Z</time>
      </trkpt>
      <trkpt lat="47.480172" lon="7.976321">
        <ele>408.323501</ele>
        <time>2021-11-12T22:04:40.918Z</time>
      </trkpt>
      <trkpt lat="47.480019" lon="7.976061">
        <ele>408.975258</ele>
        <time>2021-11-12T22:04:46.500Z</time>
      </trkpt>
      <trkpt lat="47.479744" lon="7.975611">
        <ele>410.122227</ele>
        <time>2021-11-12T22:04:57.040Z</time>
      </trkpt>
      <trkpt lat="47.479662" lon="7.975458">
        <ele>410.491394</ele>
        <time>2021-11-12T22:05:00.961Z</time>
      </trkpt>
      <trkpt lat="47.479650" lon="7.975428">
        <ele>410.557300</ele>
        <time>2021-11-12T22:05:01.599Z</time>
      </trkpt>
      <trkpt lat="47.479548" lon="7.975187">
        <ele>411.257021</ele>
        <time>2021-11-12T22:05:07.346Z</time>
      </trkpt>
      <trkpt lat="47.479521" lon="7.975122">
        <ele>411.477149</ele>
        <time>2021-11-12T22:05:09.206Z</time>
      </trkpt>
      <trkpt lat="47.479256" lon="7.974388">
        <ele>413.878121</ele>
        <time>2021-11-12T22:05:27.376Z</time>
      </trkpt>
      <trkpt lat="47.479198" lon="7.974266">
        <ele>414.308480</ele>
        <time>2021-11-12T22:05:30.923Z</time>
      </trkpt>
      <trkpt lat="47.479172" lon="7.974215">
        <ele>414.492794</ele>
        <time>2021-11-12T22:05:32.874Z</time>
      </trkpt>
      <trkpt lat="47.479095" lon="7.974066">
        <ele>415.033964</ele>
        <time>2021-11-12T22:05:37.017Z</time>
      </trkpt>
      <trkpt lat="47.479061" lon="7.974014">
        <ele>415.242715</ele>
        <time>2021-11-12T22:05:38.283Z</time>
      </trkpt>
      <trkpt lat="47.478952" lon="7.973850">
        <ele>415.906358</ele>
        <time>2021-11-12T22:05:43.283Z</time>
      </trkpt>
      <trkpt lat="47.478606" lon="7.973396">
        <ele>417.880588</ele>
        <time>2021-11-12T22:05:58.814Z</time>
      </trkpt>
      <trkpt lat="47.478494" lon="7.973191">
        <ele>418.596899</ele>
        <time>2021-11-12T22:06:03.607Z</time>
      </trkpt>
      <trkpt lat="47.478424" lon="7.973015">
        <ele>419.037999</ele>
        <time>2021-11-12T22:06:09.016Z</time>
      </trkpt>
      <trkpt lat="47.478295" lon="7.972689">
        <ele>419.853971</ele>
        <time>2021-11-12T22:06:16.154Z</time>
      </trkpt>
      <trkpt lat="47.478213" lon="7.972508">
        <ele>420.324639</ele>
        <time>2021-11-12T22:06:21.322Z</time>
      </trkpt>
      <trkpt lat="47.478198" lon="7.972475">
        <ele>420.410540</ele>
        <time>2021-11-12T22:06:22.116Z</time>
      </trkpt>
      <trkpt lat="47.478083" lon="7.972275">
        <ele>420.977729</ele>
        <time>2021-11-12T22:06:26.424Z</time>
      </trkpt>
      <trkpt lat="47.477778" lon="7.971876">
        <ele>422.278851</ele>
        <time>2021-11-12T22:06:38.529Z</time>
      </trkpt>
      <trkpt lat="47.477698" lon="7.971759">
        <ele>422.638347</ele>
        <time>2021-11-12T22:06:42.024Z</time>
      </trkpt>
      <trkpt lat="47.477623" lon="7.971640">
        <ele>422.989807</ele>
        <time>2021-11-12T22:06:44.272Z</time>
      </trkpt>
      <trkpt lat="47.477553" lon="7.971461">
        <ele>423.436509</ele>
        <time>2021-11-12T22:06:47.932Z</time>
      </trkpt>
      <trkpt lat="47.477522" lon="7.971381">
        <ele>423.635699</ele>
        <time>2021-11-12T22:06:49.921Z</time>
      </trkpt>
      <trkpt lat="47.477370" lon="7.970827">
        <ele>424.392166</ele>
        <time>2021-11-12T22:06:58.302Z</time>
      </trkpt>
      <trkpt lat="47.477322" lon="7.970682">
        <ele>424.479513</ele>
        <time>2021-11-12T22:07:00.425Z</time>
      </trkpt>
      <trkpt lat="47.477284" lon="7.970600">
        <ele>424.533300</ele>
        <time>2021-11-12T22:07:01.363Z</time>
      </trkpt>
      <trkpt lat="47.477262" lon="7.970548">
        <ele>424.566489</ele>
        <time>2021-11-12T22:07:02.158Z</time>
      </trkpt>
      <trkpt lat="47.477203" lon="7.970445">
        <ele>424.639531</ele>
        <time>2021-11-12T22:07:03.971Z</time>
      </trkpt>
      <trkpt lat="47.477135" lon="7.970342">
        <ele>424.717425</ele>
        <time>2021-11-12T22:07:05.662Z</time>
      </trkpt>
      <trkpt lat="47.477029" lon="7.970212">
        <ele>424.827628</ele>
        <time>2021-11-12T22:07:07.424Z</time>
      </trkpt>
      <trkpt lat="47.476944" lon="7.970103">
        <ele>424.917662</ele>
        <time>2021-11-12T22:07:09.327Z</time>
      </trkpt>
      <trkpt lat="47.476670" lon="7.969631">
        <ele>425.254267</ele>
        <time>2021-11-12T22:07:15.056Z</time>
      </trkpt>
      <trkpt lat="47.476396" lon="7.969182">
        <ele>425.581534</ele>
        <time>2021-11-12T22:07:22.297Z</time>
      </trkpt>
      <trkpt lat="47.476327" lon="7.969094">
        <ele>425.658249</ele>
        <time>2021-11-12T22:07:23.850Z</time>
      </trkpt>
      <trkpt lat="47.476103" lon="7.968806">
        <ele>426.545965</ele>
        <time>2021-11-12T22:07:29.748Z</time>
      </trkpt>
      <trkpt lat="47.475871" lon="7.968576">
        <ele>427.381352</ele>
        <time>2021-11-12T22:07:36.386Z</time>
      </trkpt>
      <trkpt lat="47.475729" lon="7.968403">
        <ele>427.931603</ele>
        <time>2021-11-12T22:07:40.620Z</time>
      </trkpt>
      <trkpt lat="47.475684" lon="7.968334">
        <ele>428.125464</ele>
        <time>2021-11-12T22:07:42.074Z</time>
      </trkpt>
      <trkpt lat="47.475616" lon="7.968229">
        <ele>428.419480</ele>
        <time>2021-11-12T22:07:44.271Z</time>
      </trkpt>
      <trkpt lat="47.475312" lon="7.968548">
        <ele>429.534352</ele>
        <time>2021-11-12T22:07:54.393Z</time>
      </trkpt>
      <trkpt lat="47.474879" lon="7.968783">
        <ele>430.914001</ele>
        <time>2021-11-12T22:08:09.150Z</time>
      </trkpt>
      <trkpt lat="47.474555" lon="7.968862">
        <ele>433.174064</ele>
        <time>2021-11-12T22:08:22.053Z</time>
      </trkpt>
      <trkpt lat="47.474238" lon="7.968922">
        <ele>435.545752</ele>
        <time>2021-11-12T22:08:36.354Z</time>
      </trkpt>
      <trkpt lat="47.473628" lon="7.969058">
        <ele>440.123788</ele>
        <time>2021-11-12T22:09:06.464Z</time>
      </trkpt>
      <trkpt lat="47.472626" lon="7.969301">
        <ele>446.502039</ele>
        <time>2021-11-12T22:09:55.141Z</time>
      </trkpt>
      <trkpt lat="47.471877" lon="7.969497">
        <ele>450.154139</ele>
        <time>2021-11-12T22:10:23.144Z</time>
      </trkpt>
      <trkpt lat="47.471196" lon="7.969654">
        <ele>452.879908</ele>
        <time>2021-11-12T22:10:40.675Z</time>
      </trkpt>
      <trkpt lat="47.469542" lon="7.970235">
        <ele>450.360205</ele>
        <time>2021-11-12T22:10:59.000Z</time>
      </trkpt>
      <trkpt lat="47.469339" lon="7.970255">
        <ele>450.153321</ele>
        <time>2021-11-12T22:11:01.018Z</time>
      </trkpt>
      <trkpt lat="47.469022" lon="7.970240">
        <ele>449.835135</ele>
        <time>2021-11-12T22:11:04.351Z</time>
      </trkpt>
      <trkpt lat="47.468142" lon="7.970113">
        <ele>448.948103</ele>
        <time>2021-11-12T22:11:15.438Z</time>
      </trkpt>
      <trkpt lat="47.467469" lon="7.970226">
        <ele>449.000327</ele>
        <time>2021-11-12T22:11:25.965Z</time>
      </trkpt>
      <trkpt lat="47.467356" lon="7.970255">
        <ele>449.187502</ele>
        <time>2021-11-12T22:11:29.329Z</time>
      </trkpt>
      <trkpt lat="47.467243" lon="7.970284">
        <ele>449.374677</ele>
        <time>2021-11-12T22:11:31.564Z</time>
      </trkpt>
      <trkpt lat="47.466575" lon="7.970455">
        <ele>450.481083</ele>
        <time>2021-11-12T22:11:47.109Z</time>
      </trkpt>
      <trkpt lat="47.466209" lon="7.970465">
        <ele>451.078511</ele>
        <time>2021-11-12T22:11:55.786Z</time>
      </trkpt>
      <trkpt lat="47.465838" lon="7.970388">
        <ele>451.716210</ele>
        <time>2021-11-12T22:12:04.905Z</time>
      </trkpt>
      <trkpt lat="47.465273" lon="7.970155">
        <ele>452.794833</ele>
        <time>2021-11-12T22:12:17.059Z</time>
      </trkpt>
      <trkpt lat="47.464851" lon="7.969824">
        <ele>453.673216</ele>
        <time>2021-11-12T22:12:27.922Z</time>
      </trkpt>
      <trkpt lat="47.463869" lon="7.968734">
        <ele>455.946245</ele>
        <time>2021-11-12T22:12:54.752Z</time>
      </trkpt>
      <trkpt lat="47.463713" lon="7.968547">
        <ele>456.320447</ele>
        <time>2021-11-12T22:12:59.451Z</time>
      </trkpt>
      <trkpt lat="47.463389" lon="7.968088">
        <ele>457.156514</ele>
        <time>2021-11-12T22:13:09.239Z</time>
      </trkpt>
      <trkpt lat="47.463153" lon="7.967669">
        <ele>457.843619</ele>
        <time>2021-11-12T22:13:17.453Z</time>
      </trkpt>
      <trkpt lat="47.462955" lon="7.967287">
        <ele>458.489912</ele>
        <time>2021-11-12T22:13:24.980Z</time>
      </trkpt>
      <trkpt lat="47.462416" lon="7.966027">
        <ele>460.611538</ele>
        <time>2021-11-12T22:13:48.442Z</time>
      </trkpt>
      <trkpt lat="47.462208" lon="7.965649">
        <ele>461.305040</ele>
        <time>2021-11-12T22:13:56.523Z</time>
      </trkpt>
      <trkpt lat="47.461753" lon="7.965074">
        <ele>462.414473</ele>
        <time>2021-11-12T22:14:10.431Z</time>
      </trkpt>
      <trkpt lat="47.461085" lon="7.964391">
        <ele>463.720729</ele>
        <time>2021-11-12T22:14:27.861Z</time>
      </trkpt>
      <trkpt lat="47.460768" lon="7.963901">
        <ele>464.458282</ele>
        <time>2021-11-12T22:14:37.329Z</time>
      </trkpt>
      <trkpt lat="47.460551" lon="7.963411">
        <ele>465.088080</ele>
        <time>2021-11-12T22:14:44.847Z</time>
      </trkpt>
      <trkpt lat="47.460489" lon="7.963238">
        <ele>465.295403</ele>
        <time>2021-11-12T22:14:47.044Z</time>
      </trkpt>
      <trkpt lat="47.460405" lon="7.962956">
        <ele>465.621692</ele>
        <time>2021-11-12T22:14:51.164Z</time>
      </trkpt>
      <trkpt lat="47.460083" lon="7.961991">
        <ele>466.761145</ele>
        <time>2021-11-12T22:15:05.790Z</time>
      </trkpt>
      <trkpt lat="47.459581" lon="7.961147">
        <ele>468.240977</ele>
        <time>2021-11-12T22:15:23.795Z</time>
      </trkpt>
      <trkpt lat="47.459416" lon="7.960954">
        <ele>468.874632</ele>
        <time>2021-11-12T22:15:29.048Z</time>
      </trkpt>
      <trkpt lat="47.459280" lon="7.960788">
        <ele>469.405777</ele>
        <time>2021-11-12T22:15:33.655Z</time>
      </trkpt>
      <trkpt lat="47.459074" lon="7.960615">
        <ele>470.119342</ele>
        <time>2021-11-12T22:15:39.713Z</time>
      </trkpt>
      <trkpt lat="47.458898" lon="7.960485">
        <ele>470.711925</ele>
        <time>2021-11-12T22:15:45.329Z</time>
      </trkpt>
      <trkpt lat="47.457199" lon="7.959536">
        <ele>476.536038</ele>
        <time>2021-11-12T22:16:37.101Z</time>
      </trkpt>
      <trkpt lat="47.456734" lon="7.959350">
        <ele>478.151114</ele>
        <time>2021-11-12T22:16:49.856Z</time>
      </trkpt>
      <trkpt lat="47.455967" lon="7.959329">
        <ele>481.226440</ele>
        <time>2021-11-12T22:17:12.079Z</time>
      </trkpt>
      <trkpt lat="47.455234" lon="7.959555">
        <ele>484.508729</ele>
        <time>2021-11-12T22:17:36.442Z</time>
      </trkpt>
      <trkpt lat="47.455065" lon="7.959595">
        <ele>485.258991</ele>
        <time>2021-11-12T22:17:42.030Z</time>
      </trkpt>
      <trkpt lat="47.454959" lon="7.959615">
        <ele>485.727423</ele>
        <time>2021-11-12T22:17:45.941Z</time>
      </trkpt>
      <trkpt lat="47.454626" lon="7.959663">
        <ele>487.258206</ele>
        <time>2021-11-12T22:17:57.751Z</time>
      </trkpt>
      <trkpt lat="47.453337" lon="7.959692">
        <ele>494.532232</ele>
        <time>2021-11-12T22:18:47.547Z</time>
      </trkpt>
      <trkpt lat="47.450176" lon="7.960171">
        <ele>510.155008</ele>
        <time>2021-11-12T22:20:42.563Z</time>
      </trkpt>
      <trkpt lat="47.449207" lon="7.960269">
        <ele>513.362269</ele>
        <time>2021-11-12T22:21:06.758Z</time>
      </trkpt>
      <trkpt lat="47.449168" lon="7.960272">
        <ele>513.355016</ele>
        <time>2021-11-12T22:21:07.147Z</time>
      </trkpt>
      <trkpt lat="47.448152" lon="7.960399">
        <ele>513.165649</ele>
        <time>2021-11-12T22:21:22.554Z</time>
      </trkpt>
      <trkpt lat="47.446978" lon="7.960776">
        <ele>513.129016</ele>
        <time>2021-11-12T22:21:36.301Z</time>
      </trkpt>
      <trkpt lat="47.446588" lon="7.960943">
        <ele>513.190195</ele>
        <time>2021-11-12T22:21:42.066Z</time>
      </trkpt>
      <trkpt lat="47.446265" lon="7.961081">
        <ele>513.240855</ele>
        <time>2021-11-12T22:21:47.737Z</time>
      </trkpt>
      <trkpt lat="47.445731" lon="7.961482">
        <ele>513.636734</ele>
        <time>2021-11-12T22:22:00.248Z</time>
      </trkpt>
      <trkpt lat="47.445632" lon="7.961583">
        <ele>514.034339</ele>
        <time>2021-11-12T22:22:03.392Z</time>
      </trkpt>
      <trkpt lat="47.445405" lon="7.961813">
        <ele>514.944013</ele>
        <time>2021-11-12T22:22:10.455Z</time>
      </trkpt>
      <trkpt lat="47.445186" lon="7.962043">
        <ele>515.831998</ele>
        <time>2021-11-12T22:22:17.567Z</time>
      </trkpt>
      <trkpt lat="47.444993" lon="7.962238">
        <ele>516.604728</ele>
        <time>2021-11-12T22:22:24.234Z</time>
      </trkpt>
      <trkpt lat="47.444976" lon="7.962255">
        <ele>516.672571</ele>
        <time>2021-11-12T22:22:24.804Z</time>
      </trkpt>
      <trkpt lat="47.444826" lon="7.962406">
        <ele>517.272440</ele>
        <time>2021-11-12T22:22:29.917Z</time>
      </trkpt>
      <trkpt lat="47.444267" lon="7.962981">
        <ele>519.653160</ele>
        <time>2021-11-12T22:22:51.862Z</time>
      </trkpt>
      <trkpt lat="47.443323" lon="7.963902">
        <ele>525.247908</ele>
        <time>2021-11-12T22:23:30.575Z</time>
      </trkpt>
      <trkpt lat="47.443282" lon="7.963930">
        <ele>525.471316</ele>
        <time>2021-11-12T22:23:32.816Z</time>
      </trkpt>
      <trkpt lat="47.443155" lon="7.964015">
        <ele>526.160926</ele>
        <time>2021-11-12T22:23:37.171Z</time>
      </trkpt>
      <trkpt lat="47.443115" lon="7.964042">
        <ele>526.378442</ele>
        <time>2021-11-12T22:23:38.853Z</time>
      </trkpt>
      <trkpt lat="47.442282" lon="7.964392">
        <ele>531.672770</ele>
        <time>2021-11-12T22:24:09.966Z</time>
      </trkpt>
      <trkpt lat="47.441371" lon="7.965446">
        <ele>539.705743</ele>
        <time>2021-11-12T22:24:59.200Z</time>
      </trkpt>
      <trkpt lat="47.441328" lon="7.965473">
        <ele>540.030163</ele>
        <time>2021-11-12T22:25:03.345Z</time>
      </trkpt>
      <trkpt lat="47.441204" lon="7.965554">
        <ele>541.130187</ele>
        <time>2021-11-12T22:25:09.310Z</time>
      </trkpt>
      <trkpt lat="47.440933" lon="7.965666">
        <ele>544.049232</ele>
        <time>2021-11-12T22:25:24.656Z</time>
      </trkpt>
      <trkpt lat="47.440543" lon="7.965818">
        <ele>548.233194</ele>
        <time>2021-11-12T22:25:47.066Z</time>
      </trkpt>
      <trkpt lat="47.440012" lon="7.966095">
        <ele>554.074461</ele>
        <time>2021-11-12T22:26:15.462Z</time>
      </trkpt>
      <trkpt lat="47.439942" lon="7.966121">
        <ele>554.823186</ele>
        <time>2021-11-12T22:26:22.482Z</time>
      </trkpt>
      <trkpt lat="47.439807" lon="7.966143">
        <ele>556.232122</ele>
        <time>2021-11-12T22:26:32.206Z</time>
      </trkpt>
      <trkpt lat="47.439737" lon="7.966170">
        <ele>556.982589</ele>
        <time>2021-11-12T22:26:35.650Z</time>
      </trkpt>
      <trkpt lat="47.439678" lon="7.966197">
        <ele>557.623287</ele>
        <time>2021-11-12T22:26:38.819Z</time>
      </trkpt>
      <trkpt lat="47.439608" lon="7.966261">
        <ele>558.477078</ele>
        <time>2021-11-12T22:26:44.371Z</time>
      </trkpt>
      <trkpt lat="47.439547" lon="7.966322">
        <ele>559.241029</ele>
        <time>2021-11-12T22:26:50.843Z</time>
      </trkpt>
      <trkpt lat="47.439287" lon="7.966643">
        <ele>563.089215</ele>
        <time>2021-11-12T22:27:11.492Z</time>
      </trkpt>
      <trkpt lat="47.438790" lon="7.967000">
        <ele>569.377299</ele>
        <time>2021-11-12T22:27:46.114Z</time>
      </trkpt>
      <trkpt lat="47.438609" lon="7.967099">
        <ele>571.573528</ele>
        <time>2021-11-12T22:28:01.426Z</time>
      </trkpt>
      <trkpt lat="47.438462" lon="7.967152">
        <ele>573.295421</ele>
        <time>2021-11-12T22:28:09.421Z</time>
      </trkpt>
      <trkpt lat="47.438044" lon="7.967266">
        <ele>578.132544</ele>
        <time>2021-11-12T22:28:34.202Z</time>
      </trkpt>
      <trkpt lat="47.437738" lon="7.967468">
        <ele>580.980991</ele>
        <time>2021-11-12T22:28:50.630Z</time>
      </trkpt>
      <trkpt lat="47.437561" lon="7.967616">
        <ele>582.265089</ele>
        <time>2021-11-12T22:29:00.519Z</time>
      </trkpt>
      <trkpt lat="47.437098" lon="7.968128">
        <ele>585.916235</ele>
        <time>2021-11-12T22:29:22.788Z</time>
      </trkpt>
      <trkpt lat="47.437006" lon="7.968207">
        <ele>586.588082</ele>
        <time>2021-11-12T22:29:27.517Z</time>
      </trkpt>
      <trkpt lat="47.436936" lon="7.968257">
        <ele>587.079005</ele>
        <time>2021-11-12T22:29:28.337Z</time>
      </trkpt>
      <trkpt lat="47.436435" lon="7.968422">
        <ele>590.320267</ele>
        <time>2021-11-12T22:29:46.548Z</time>
      </trkpt>
      <trkpt lat="47.436240" lon="7.968528">
        <ele>591.870574</ele>
        <time>2021-11-12T22:29:52.485Z</time>
      </trkpt>
      <trkpt lat="47.436210" lon="7.968545">
        <ele>592.170839</ele>
        <time>2021-11-12T22:29:53.719Z</time>
      </trkpt>
      <trkpt lat="47.436171" lon="7.968569">
        <ele>592.565641</ele>
        <time>2021-11-12T22:29:55.545Z</time>
      </trkpt>
      <trkpt lat="47.435945" lon="7.968713">
        <ele>594.865611</ele>
        <time>2021-11-12T22:30:04.820Z</time>
      </trkpt>
      <trkpt lat="47.435622" lon="7.969103">
        <ele>598.763167</ele>
        <time>2021-11-12T22:30:22.520Z</time>
      </trkpt>
      <trkpt lat="47.435592" lon="7.969165">
        <ele>599.245070</ele>
        <time>2021-11-12T22:30:24.827Z</time>
      </trkpt>
      <trkpt lat="47.435499" lon="7.969359">
        <ele>600.748237</ele>
        <time>2021-11-12T22:30:31.125Z</time>
      </trkpt>
      <trkpt lat="47.435217" lon="7.969930">
        <ele>605.217672</ele>
        <time>2021-11-12T22:31:01.338Z</time>
      </trkpt>
      <trkpt lat="47.435033" lon="7.970303">
        <ele>608.307353</ele>
        <time>2021-11-12T22:31:25.106Z</time>
      </trkpt>
      <trkpt lat="47.434854" lon="7.970659">
        <ele>613.630759</ele>
        <time>2021-11-12T22:31:45.773Z</time>
      </trkpt>
      <trkpt lat="47.434835" lon="7.970711">
        <ele>614.340038</ele>
        <time>2021-11-12T22:31:50.092Z</time>
      </trkpt>
      <trkpt lat="47.434817" lon="7.970756">
        <ele>614.967442</ele>
        <time>2021-11-12T22:31:53.887Z</time>
      </trkpt>
      <trkpt lat="47.434760" lon="7.971172">
        <ele>620.061275</ele>
        <time>2021-11-12T22:32:14.371Z</time>
      </trkpt>
      <trkpt lat="47.434732" lon="7.971724">
        <ele>626.704463</ele>
        <time>2021-11-12T22:32:52.334Z</time>
      </trkpt>
      <trkpt lat="47.434713" lon="7.971956">
        <ele>629.509043</ele>
        <time>2021-11-12T22:33:08.650Z</time>
      </trkpt>
      <trkpt lat="47.434644" lon="7.972421">
        <ele>635.222240</ele>
        <time>2021-11-12T22:33:39.517Z</time>
      </trkpt>
      <trkpt lat="47.434376" lon="7.973524">
        <ele>646.079226</ele>
        <time>2021-11-12T22:34:42.207Z</time>
      </trkpt>
      <trkpt lat="47.434340" lon="7.973566">
        <ele>646.616072</ele>
        <time>2021-11-12T22:34:47.229Z</time>
      </trkpt>
      <trkpt lat="47.434299" lon="7.973598">
        <ele>647.158807</ele>
        <time>2021-11-12T22:34:49.350Z</time>
      </trkpt>
      <trkpt lat="47.434264" lon="7.973594">
        <ele>647.569746</ele>
        <time>2021-11-12T22:34:51.047Z</time>
      </trkpt>
      <trkpt lat="47.434245" lon="7.973591">
        <ele>647.793429</ele>
        <time>2021-11-12T22:34:52.010Z</time>
      </trkpt>
      <trkpt lat="47.434197" lon="7.973559">
        <ele>648.409817</ele>
        <time>2021-11-12T22:34:55.143Z</time>
      </trkpt>
      <trkpt lat="47.434160" lon="7.973499">
        <ele>649.052724</ele>
        <time>2021-11-12T22:34:59.148Z</time>
      </trkpt>
      <trkpt lat="47.434124" lon="7.973362">
        <ele>650.216538</ele>
        <time>2021-11-12T22:35:04.850Z</time>
      </trkpt>
      <trkpt lat="47.434139" lon="7.972983">
        <ele>653.222781</ele>
        <time>2021-11-12T22:35:19.971Z</time>
      </trkpt>
      <trkpt lat="47.434066" lon="7.972679">
        <ele>655.777186</ele>
        <time>2021-11-12T22:35:32.386Z</time>
      </trkpt>
      <trkpt lat="47.433999" lon="7.972513">
        <ele>657.307869</ele>
        <time>2021-11-12T22:35:36.560Z</time>
      </trkpt>
      <trkpt lat="47.433985" lon="7.972481">
        <ele>657.609641</ele>
        <time>2021-11-12T22:35:37.885Z</time>
      </trkpt>
      <trkpt lat="47.433652" lon="7.971751">
        <ele>661.742553</ele>
        <time>2021-11-12T22:36:03.346Z</time>
      </trkpt>
      <trkpt lat="47.433359" lon="7.971344">
        <ele>662.807860</ele>
        <time>2021-11-12T22:36:10.290Z</time>
      </trkpt>
      <trkpt lat="47.432959" lon="7.971039">
        <ele>664.000409</ele>
        <time>2021-11-12T22:36:18.685Z</time>
      </trkpt>
      <trkpt lat="47.432214" lon="7.970755">
        <ele>666.388800</ele>
        <time>2021-11-12T22:36:33.827Z</time>
      </trkpt>
      <trkpt lat="47.431927" lon="7.970836">
        <ele>667.912582</ele>
        <time>2021-11-12T22:36:41.630Z</time>
      </trkpt>
      <trkpt lat="47.431712" lon="7.971054">
        <ele>669.272249</ele>
        <time>2021-11-12T22:36:50.756Z</time>
      </trkpt>
      <trkpt lat="47.431585" lon="7.971539">
        <ele>671.106992</ele>
        <time>2021-11-12T22:37:03.489Z</time>
      </trkpt>
      <trkpt lat="47.431594" lon="7.972217">
        <ele>673.499363</ele>
        <time>2021-11-12T22:37:20.197Z</time>
      </trkpt>
      <trkpt lat="47.431599" lon="7.972246">
        <ele>673.604942</ele>
        <time>2021-11-12T22:37:22.337Z</time>
      </trkpt>
      <trkpt lat="47.431630" lon="7.972434">
        <ele>674.287605</ele>
        <time>2021-11-12T22:37:28.477Z</time>
      </trkpt>
      <trkpt lat="47.432052" lon="7.973957">
        <ele>684.866319</ele>
        <time>2021-11-12T22:38:23.542Z</time>
      </trkpt>
      <trkpt lat="47.432363" lon="7.974532">
        <ele>689.924866</ele>
        <time>2021-11-12T22:38:56.471Z</time>
      </trkpt>
      <trkpt lat="47.432488" lon="7.974763">
        <ele>691.957452</ele>
        <time>2021-11-12T22:39:06.277Z</time>
      </trkpt>
      <trkpt lat="47.432533" lon="7.974869">
        <ele>692.817339</ele>
        <time>2021-11-12T22:39:14.323Z</time>
      </trkpt>
      <trkpt lat="47.432566" lon="7.974989">
        <ele>693.841113</ele>
        <time>2021-11-12T22:39:18.619Z</time>
      </trkpt>
      <trkpt lat="47.432621" lon="7.975362">
        <ele>697.387678</ele>
        <time>2021-11-12T22:39:35.654Z</time>
      </trkpt>
      <trkpt lat="47.432600" lon="7.975672">
        <ele>700.282003</ele>
        <time>2021-11-12T22:39:46.718Z</time>
      </trkpt>
      <trkpt lat="47.432583" lon="7.975764">
        <ele>701.168003</ele>
        <time>2021-11-12T22:39:50.746Z</time>
      </trkpt>
      <trkpt lat="47.432536" lon="7.975879">
        <ele>702.416211</ele>
        <time>2021-11-12T22:40:00.350Z</time>
      </trkpt>
      <trkpt lat="47.432376" lon="7.976074">
        <ele>705.264038</ele>
        <time>2021-11-12T22:40:11.902Z</time>
      </trkpt>
      <trkpt lat="47.432203" lon="7.976081">
        <ele>707.640809</ele>
        <time>2021-11-12T22:40:27.295Z</time>
      </trkpt>
      <trkpt lat="47.432143" lon="7.976038">
        <ele>708.556542</ele>
        <time>2021-11-12T22:40:31.475Z</time>
      </trkpt>
      <trkpt lat="47.432098" lon="7.976005">
        <ele>709.246409</ele>
        <time>2021-11-12T22:40:34.460Z</time>
      </trkpt>
      <trkpt lat="47.431773" lon="7.975449">
        <ele>716.073003</ele>
        <time>2021-11-12T22:41:11.087Z</time>
      </trkpt>
      <trkpt lat="47.431648" lon="7.975443">
        <ele>717.790585</ele>
        <time>2021-11-12T22:41:22.466Z</time>
      </trkpt>
      <trkpt lat="47.431567" lon="7.975556">
        <ele>719.232972</ele>
        <time>2021-11-12T22:41:29.372Z</time>
      </trkpt>
      <trkpt lat="47.431696" lon="7.976161">
        <ele>724.728280</ele>
        <time>2021-11-12T22:42:02.107Z</time>
      </trkpt>
      <trkpt lat="47.431738" lon="7.976680">
        <ele>729.256429</ele>
        <time>2021-11-12T22:42:25.628Z</time>
      </trkpt>
      <trkpt lat="47.431600" lon="7.977440">
        <ele>736.073367</ele>
        <time>2021-11-12T22:42:59.611Z</time>
      </trkpt>
      <trkpt lat="47.431606" lon="7.978215">
        <ele>742.083861</ele>
        <time>2021-11-12T22:43:31.238Z</time>
      </trkpt>
      <trkpt lat="47.431692" lon="7.978805">
        <ele>745.178858</ele>
        <time>2021-11-12T22:43:53.028Z</time>
      </trkpt>
      <trkpt lat="47.432006" lon="7.980108">
        <ele>752.272014</ele>
        <time>2021-11-12T22:44:31.242Z</time>
      </trkpt>
      <trkpt lat="47.432096" lon="7.980282">
        <ele>753.395237</ele>
        <time>2021-11-12T22:44:38.523Z</time>
      </trkpt>
      <trkpt lat="47.432171" lon="7.980388">
        <ele>754.181820</ele>
        <time>2021-11-12T22:44:41.459Z</time>
      </trkpt>
      <trkpt lat="47.432724" lon="7.981066">
        <ele>757.647065</ele>
        <time>2021-11-12T22:45:05.904Z</time>
      </trkpt>
      <trkpt lat="47.433139" lon="7.981160">
        <ele>759.550943</ele>
        <time>2021-11-12T22:45:18.568Z</time>
      </trkpt>
      <trkpt lat="47.433235" lon="7.981249">
        <ele>760.064801</ele>
        <time>2021-11-12T22:45:21.676Z</time>
      </trkpt>
      <trkpt lat="47.433244" lon="7.981277">
        <ele>760.159895</ele>
        <time>2021-11-12T22:45:22.788Z</time>
      </trkpt>
      <trkpt lat="47.433251" lon="7.981321">
        <ele>760.298548</ele>
        <time>2021-11-12T22:45:24.683Z</time>
      </trkpt>
      <trkpt lat="47.433227" lon="7.981456">
        <ele>760.726725</ele>
        <time>2021-11-12T22:45:28.646Z</time>
      </trkpt>
      <trkpt lat="47.433123" lon="7.981545">
        <ele>761.271659</ele>
        <time>2021-11-12T22:45:31.193Z</time>
      </trkpt>
      <trkpt lat="47.432188" lon="7.981293">
        <ele>765.146368</ele>
        <time>2021-11-12T22:46:00.918Z</time>
      </trkpt>
      <trkpt lat="47.432020" lon="7.981325">
        <ele>765.791945</ele>
        <time>2021-11-12T22:46:04.427Z</time>
      </trkpt>
      <trkpt lat="47.431915" lon="7.981428">
        <ele>766.272214</ele>
        <time>2021-11-12T22:46:08.948Z</time>
      </trkpt>
      <trkpt lat="47.431876" lon="7.981495">
        <ele>766.500098</ele>
        <time>2021-11-12T22:46:11.902Z</time>
      </trkpt>
      <trkpt lat="47.431857" lon="7.981543">
        <ele>766.643479</ele>
        <time>2021-11-12T22:46:12.960Z</time>
      </trkpt>
      <trkpt lat="47.431828" lon="7.981811">
        <ele>767.343209</ele>
        <time>2021-11-12T22:46:17.051Z</time>
      </trkpt>
      <trkpt lat="47.431888" lon="7.982446">
        <ele>768.996233</ele>
        <time>2021-11-12T22:46:29.128Z</time>
      </trkpt>
      <trkpt lat="47.431877" lon="7.982519">
        <ele>769.189051</ele>
        <time>2021-11-12T22:46:31.476Z</time>
      </trkpt>
      <trkpt lat="47.431868" lon="7.982566">
        <ele>769.314986</ele>
        <time>2021-11-12T22:46:32.684Z</time>
      </trkpt>
      <trkpt lat="47.431846" lon="7.982640">
        <ele>769.523382</ele>
        <time>2021-11-12T22:46:34.007Z</time>
      </trkpt>
      <trkpt lat="47.431777" lon="7.982815">
        <ele>770.308784</ele>
        <time>2021-11-12T22:46:37.090Z</time>
      </trkpt>
      <trkpt lat="47.431599" lon="7.983256">
        <ele>772.668350</ele>
        <time>2021-11-12T22:46:48.100Z</time>
      </trkpt>
      <trkpt lat="47.431475" lon="7.983571">
        <ele>774.342921</ele>
        <time>2021-11-12T22:46:58.051Z</time>
      </trkpt>
      <trkpt lat="47.431322" lon="7.983937">
        <ele>776.319796</ele>
        <time>2021-11-12T22:47:11.410Z</time>
      </trkpt>
      <trkpt lat="47.431170" lon="7.984115">
        <ele>777.636918</ele>
        <time>2021-11-12T22:47:22.457Z</time>
      </trkpt>
      <trkpt lat="47.430499" lon="7.984297">
        <ele>782.093785</ele>
        <time>2021-11-12T22:47:54.055Z</time>
      </trkpt>
      <trkpt lat="47.430461" lon="7.984320">
        <ele>782.229593</ele>
        <time>2021-11-12T22:47:57.751Z</time>
      </trkpt>
      <trkpt lat="47.430267" lon="7.984456">
        <ele>782.939723</ele>
        <time>2021-11-12T22:48:05.146Z</time>
      </trkpt>
      <trkpt lat="47.430233" lon="7.984472">
        <ele>783.057735</ele>
        <time>2021-11-12T22:48:07.256Z</time>
      </trkpt>
      <trkpt lat="47.430199" lon="7.984483">
        <ele>783.172848</ele>
        <time>2021-11-12T22:48:11.004Z</time>
      </trkpt>
      <trkpt lat="47.429895" lon="7.984539">
        <ele>784.186071</ele>
        <time>2021-11-12T22:48:21.240Z</time>
      </trkpt>
      <trkpt lat="47.429731" lon="7.984658">
        <ele>784.790308</ele>
        <time>2021-11-12T22:48:32.038Z</time>
      </trkpt>
      <trkpt lat="47.429305" lon="7.985346">
        <ele>786.877113</ele>
        <time>2021-11-12T22:48:45.212Z</time>
      </trkpt>
      <trkpt lat="47.429235" lon="7.985450">
        <ele>787.205361</ele>
        <time>2021-11-12T22:48:48.571Z</time>
      </trkpt>
      <trkpt lat="47.429168" lon="7.985548">
        <ele>787.517105</ele>
        <time>2021-11-12T22:48:49.399Z</time>
      </trkpt>
      <trkpt lat="47.429061" lon="7.985728">
        <ele>787.372492</ele>
        <time>2021-11-12T22:48:51.776Z</time>
      </trkpt>
      <trkpt lat="47.428926" lon="7.985968">
        <ele>785.406788</ele>
        <time>2021-11-12T22:48:53.668Z</time>
      </trkpt>
      <trkpt lat="47.428874" lon="7.986072">
        <ele>784.592339</ele>
        <time>2021-11-12T22:48:54.416Z</time>
      </trkpt>
      <trkpt lat="47.428790" lon="7.986347">
        <ele>782.692083</ele>
        <time>2021-11-12T22:48:56.272Z</time>
      </trkpt>
      <trkpt lat="47.428769" lon="7.986424">
        <ele>782.169227</ele>
        <time>2021-11-12T22:48:56.738Z</time>
      </trkpt>
      <trkpt lat="47.428725" lon="7.986611">
        <ele>780.922334</ele>
        <time>2021-11-12T22:48:57.882Z</time>
      </trkpt>
      <trkpt lat="47.428672" lon="7.986831">
        <ele>779.451582</ele>
        <time>2021-11-12T22:48:59.293Z</time>
      </trkpt>
      <trkpt lat="47.428661" lon="7.986875">
        <ele>779.156161</ele>
        <time>2021-11-12T22:48:59.557Z</time>
      </trkpt>
      <trkpt lat="47.428625" lon="7.987034">
        <ele>778.100211</ele>
        <time>2021-11-12T22:49:00.506Z</time>
      </trkpt>
      <trkpt lat="47.428588" lon="7.987191">
        <ele>777.053172</ele>
        <time>2021-11-12T22:49:01.479Z</time>
      </trkpt>
      <trkpt lat="47.428505" lon="7.987540">
        <ele>774.723363</ele>
        <time>2021-11-12T22:49:03.586Z</time>
      </trkpt>
      <trkpt lat="47.428340" lon="7.988229">
        <ele>770.288065</ele>
        <time>2021-11-12T22:49:07.737Z</time>
      </trkpt>
      <trkpt lat="47.428196" lon="7.988995">
        <ele>766.112572</ele>
        <time>2021-11-12T22:49:12.289Z</time>
      </trkpt>
      <trkpt lat="47.428133" lon="7.989996">
        <ele>760.832576</ele>
        <time>2021-11-12T22:49:18.274Z</time>
      </trkpt>
      <trkpt lat="47.428136" lon="7.990193">
        <ele>759.797661</ele>
        <time>2021-11-12T22:49:19.503Z</time>
      </trkpt>
      <trkpt lat="47.428160" lon="7.991096">
        <ele>758.156509</ele>
        <time>2021-11-12T22:49:26.584Z</time>
      </trkpt>
      <trkpt lat="47.428177" lon="7.991445">
        <ele>759.015985</ele>
        <time>2021-11-12T22:49:32.457Z</time>
      </trkpt>
      <trkpt lat="47.428179" lon="7.991656">
        <ele>759.534319</ele>
        <time>2021-11-12T22:49:35.055Z</time>
      </trkpt>
      <trkpt lat="47.428254" lon="7.991766">
        <ele>759.917934</ele>
        <time>2021-11-12T22:49:39.880Z</time>
      </trkpt>
      <trkpt lat="47.428414" lon="7.992310">
        <ele>761.374989</ele>
        <time>2021-11-12T22:49:55.682Z</time>
      </trkpt>
      <trkpt lat="47.428545" lon="7.992620">
        <ele>762.272792</ele>
        <time>2021-11-12T22:50:06.219Z</time>
      </trkpt>
      <trkpt lat="47.428609" lon="7.992725">
        <ele>762.619946</ele>
        <time>2021-11-12T22:50:12.161Z</time>
      </trkpt>
      <trkpt lat="47.428872" lon="7.993171">
        <ele>764.224006</ele>
        <time>2021-11-12T22:50:31.450Z</time>
      </trkpt>
      <trkpt lat="47.428914" lon="7.993346">
        <ele>764.863229</ele>
        <time>2021-11-12T22:50:37.599Z</time>
      </trkpt>
      <trkpt lat="47.428982" lon="7.993609">
        <ele>765.832474</ele>
        <time>2021-11-12T22:50:59.094Z</time>
      </trkpt>
      <trkpt lat="47.429023" lon="7.993750">
        <ele>766.360803</ele>
        <time>2021-11-12T22:51:10.425Z</time>
      </trkpt>
      <trkpt lat="47.429200" lon="7.994283">
        <ele>768.404787</ele>
        <time>2021-11-12T22:51:29.705Z</time>
      </trkpt>
      <trkpt lat="47.429436" lon="7.994888">
        <ele>770.808907</ele>
        <time>2021-11-12T22:51:48.898Z</time>
      </trkpt>
      <trkpt lat="47.430262" lon="7.996571">
        <ele>769.871180</ele>
        <time>2021-11-12T22:52:22.121Z</time>
      </trkpt>
      <trkpt lat="47.430351" lon="7.996950">
        <ele>769.067033</ele>
        <time>2021-11-12T22:52:25.631Z</time>
      </trkpt>
      <trkpt lat="47.430695" lon="7.997762">
        <ele>765.553051</ele>
        <time>2021-11-12T22:52:34.017Z</time>
      </trkpt>
      <trkpt lat="47.430754" lon="7.998487">
        <ele>757.857702</ele>
        <time>2021-11-12T22:52:39.825Z</time>
      </trkpt>
      <trkpt lat="47.430837" lon="7.998796">
        <ele>754.354063</ele>
        <time>2021-11-12T22:52:42.565Z</time>
      </trkpt>
      <trkpt lat="47.430871" lon="7.998792">
        <ele>753.822733</ele>
        <time>2021-11-12T22:52:42.989Z</time>
      </trkpt>
      <trkpt lat="47.431729" lon="7.999779">
        <ele>737.265239</ele>
        <time>2021-11-12T22:52:55.454Z</time>
      </trkpt>
      <trkpt lat="47.432207" lon="7.999836">
        <ele>730.876640</ele>
        <time>2021-11-12T22:53:00.989Z</time>
      </trkpt>
      <trkpt lat="47.432590" lon="8.000023">
        <ele>725.503221</ele>
        <time>2021-11-12T22:53:05.741Z</time>
      </trkpt>
      <trkpt lat="47.432723" lon="7.999986">
        <ele>723.700295</ele>
        <time>2021-11-12T22:53:07.405Z</time>
      </trkpt>
      <trkpt lat="47.432779" lon="7.999924">
        <ele>722.768233</ele>
        <time>2021-11-12T22:53:08.205Z</time>
      </trkpt>
      <trkpt lat="47.432795" lon="7.999877">
        <ele>722.294071</ele>
        <time>2021-11-12T22:53:09.708Z</time>
      </trkpt>
      <trkpt lat="47.432800" lon="7.999710">
        <ele>720.787640</ele>
        <time>2021-11-12T22:53:11.142Z</time>
      </trkpt>
      <trkpt lat="47.432711" lon="7.999579">
        <ele>719.114484</ele>
        <time>2021-11-12T22:53:12.736Z</time>
      </trkpt>
      <trkpt lat="47.432038" lon="7.999152">
        <ele>713.758489</ele>
        <time>2021-11-12T22:53:22.092Z</time>
      </trkpt>
      <trkpt lat="47.431832" lon="7.998870">
        <ele>712.680664</ele>
        <time>2021-11-12T22:53:25.889Z</time>
      </trkpt>
      <trkpt lat="47.431532" lon="7.997555">
        <ele>709.076734</ele>
        <time>2021-11-12T22:53:41.468Z</time>
      </trkpt>
      <trkpt lat="47.431597" lon="7.997001">
        <ele>707.666530</ele>
        <time>2021-11-12T22:53:47.563Z</time>
      </trkpt>
      <trkpt lat="47.431548" lon="7.996186">
        <ele>705.645950</ele>
        <time>2021-11-12T22:53:55.731Z</time>
      </trkpt>
      <trkpt lat="47.431867" lon="7.995322">
        <ele>703.215190</ele>
        <time>2021-11-12T22:54:05.081Z</time>
      </trkpt>
      <trkpt lat="47.431896" lon="7.995243">
        <ele>702.993227</ele>
        <time>2021-11-12T22:54:05.865Z</time>
      </trkpt>
      <trkpt lat="47.431883" lon="7.995109">
        <ele>702.658929</ele>
        <time>2021-11-12T22:54:07.130Z</time>
      </trkpt>
      <trkpt lat="47.431675" lon="7.994712">
        <ele>700.590502</ele>
        <time>2021-11-12T22:54:11.677Z</time>
      </trkpt>
      <trkpt lat="47.431693" lon="7.994331">
        <ele>698.445513</ele>
        <time>2021-11-12T22:54:15.075Z</time>
      </trkpt>
      <trkpt lat="47.431545" lon="7.993723">
        <ele>694.816505</ele>
        <time>2021-11-12T22:54:20.670Z</time>
      </trkpt>
      <trkpt lat="47.431646" lon="7.993435">
        <ele>692.994599</ele>
        <time>2021-11-12T22:54:23.450Z</time>
      </trkpt>
      <trkpt lat="47.431636" lon="7.993008">
        <ele>690.595037</ele>
        <time>2021-11-12T22:54:27.021Z</time>
      </trkpt>
      <trkpt lat="47.431745" lon="7.992462">
        <ele>687.397843</ele>
        <time>2021-11-12T22:54:31.693Z</time>
      </trkpt>
      <trkpt lat="47.431715" lon="7.991907">
        <ele>681.927449</ele>
        <time>2021-11-12T22:54:36.157Z</time>
      </trkpt>
      <trkpt lat="47.431781" lon="7.991624">
        <ele>678.871243</ele>
        <time>2021-11-12T22:54:38.497Z</time>
      </trkpt>
      <trkpt lat="47.431807" lon="7.991195">
        <ele>674.473782</ele>
        <time>2021-11-12T22:54:41.909Z</time>
      </trkpt>
      <trkpt lat="47.431849" lon="7.991042">
        <ele>672.787999</ele>
        <time>2021-11-12T22:54:43.204Z</time>
      </trkpt>
      <trkpt lat="47.432014" lon="7.990930">
        <ele>670.047752</ele>
        <time>2021-11-12T22:54:45.331Z</time>
      </trkpt>
      <trkpt lat="47.432730" lon="7.990940">
        <ele>659.212243</ele>
        <time>2021-11-12T22:54:53.634Z</time>
      </trkpt>
      <trkpt lat="47.432862" lon="7.990958">
        <ele>657.134705</ele>
        <time>2021-11-12T22:54:55.142Z</time>
      </trkpt>
      <trkpt lat="47.433093" lon="7.991063">
        <ele>653.347110</ele>
        <time>2021-11-12T22:54:57.944Z</time>
      </trkpt>
      <trkpt lat="47.433486" lon="7.991450">
        <ele>645.946479</ele>
        <time>2021-11-12T22:55:03.388Z</time>
      </trkpt>
      <trkpt lat="47.433577" lon="7.991627">
        <ele>643.589545</ele>
        <time>2021-11-12T22:55:05.161Z</time>
      </trkpt>
      <trkpt lat="47.433697" lon="7.992106">
        <ele>638.174361</ele>
        <time>2021-11-12T22:55:09.170Z</time>
      </trkpt>
      <trkpt lat="47.433800" lon="7.992349">
        <ele>635.134229</ele>
        <time>2021-11-12T22:55:11.400Z</time>
      </trkpt>
      <trkpt lat="47.433893" lon="7.992538">
        <ele>632.656507</ele>
        <time>2021-11-12T22:55:13.341Z</time>
      </trkpt>
      <trkpt lat="47.434475" lon="7.993337">
        <ele>625.347486</ele>
        <time>2021-11-12T22:55:22.998Z</time>
      </trkpt>
      <trkpt lat="47.434498" lon="7.993384">
        <ele>625.005120</ele>
        <time>2021-11-12T22:55:23.444Z</time>
      </trkpt>
      <trkpt lat="47.434517" lon="7.993423">
        <ele>624.721464</ele>
        <time>2021-11-12T22:55:23.828Z</time>
      </trkpt>
      <trkpt lat="47.434778" lon="7.994164">
        <ele>619.790826</ele>
        <time>2021-11-12T22:55:30.985Z</time>
      </trkpt>
      <trkpt lat="47.435007" lon="7.994534">
        <ele>616.831010</ele>
        <time>2021-11-12T22:55:35.649Z</time>
      </trkpt>
      <trkpt lat="47.435087" lon="7.994626">
        <ele>616.034140</ele>
        <time>2021-11-12T22:55:37.099Z</time>
      </trkpt>
      <trkpt lat="47.435148" lon="7.994665">
        <ele>615.768693</ele>
        <time>2021-11-12T22:55:37.901Z</time>
      </trkpt>
      <trkpt lat="47.435761" lon="7.994738">
        <ele>613.312382</ele>
        <time>2021-11-12T22:55:46.736Z</time>
      </trkpt>
      <trkpt lat="47.436819" lon="7.994505">
        <ele>609.040002</ele>
        <time>2021-11-12T22:56:02.225Z</time>
      </trkpt>
      <trkpt lat="47.437035" lon="7.994598">
        <ele>607.799090</ele>
        <time>2021-11-12T22:56:05.329Z</time>
      </trkpt>
      <trkpt lat="47.437262" lon="7.995105">
        <ele>605.437917</ele>
        <time>2021-11-12T22:56:10.875Z</time>
      </trkpt>
      <trkpt lat="47.437678" lon="7.996368">
        <ele>599.982545</ele>
        <time>2021-11-12T22:56:23.224Z</time>
      </trkpt>
      <trkpt lat="47.438510" lon="7.997500">
        <ele>592.537622</ele>
        <time>2021-11-12T22:56:37.775Z</time>
      </trkpt>
      <trkpt lat="47.439124" lon="7.998093">
        <ele>587.540958</ele>
        <time>2021-11-12T22:56:47.355Z</time>
      </trkpt>
      <trkpt lat="47.439778" lon="7.999051">
        <ele>580.394623</ele>
        <time>2021-11-12T22:56:58.919Z</time>
      </trkpt>
      <trkpt lat="47.439884" lon="7.999206">
        <ele>579.203950</ele>
        <time>2021-11-12T22:57:00.868Z</time>
      </trkpt>
      <trkpt lat="47.440106" lon="7.999618">
        <ele>576.358520</ele>
        <time>2021-11-12T22:57:05.368Z</time>
      </trkpt>
      <trkpt lat="47.440162" lon="7.999686">
        <ele>575.779772</ele>
        <time>2021-11-12T22:57:06.244Z</time>
      </trkpt>
      <trkpt lat="47.440170" lon="7.999793">
        <ele>575.198266</ele>
        <time>2021-11-12T22:57:07.114Z</time>
      </trkpt>
      <trkpt lat="47.440161" lon="8.000045">
        <ele>573.835133</ele>
        <time>2021-11-12T22:57:09.405Z</time>
      </trkpt>
      <trkpt lat="47.440055" lon="8.000261">
        <ele>572.393592</ele>
        <time>2021-11-12T22:57:11.581Z</time>
      </trkpt>
      <trkpt lat="47.439709" lon="8.000501">
        <ele>569.144268</ele>
        <time>2021-11-12T22:57:16.327Z</time>
      </trkpt>
      <trkpt lat="47.439615" lon="8.000630">
        <ele>568.043460</ele>
        <time>2021-11-12T22:57:18.004Z</time>
      </trkpt>
      <trkpt lat="47.439579" lon="8.000910">
        <ele>566.388857</ele>
        <time>2021-11-12T22:57:20.318Z</time>
      </trkpt>
      <trkpt lat="47.439651" lon="8.001095">
        <ele>565.149764</ele>
        <time>2021-11-12T22:57:22.173Z</time>
      </trkpt>
      <trkpt lat="47.439763" lon="8.001184">
        <ele>564.058403</ele>
        <time>2021-11-12T22:57:23.759Z</time>
      </trkpt>
      <trkpt lat="47.439885" lon="8.001187">
        <ele>563.011118</ele>
        <time>2021-11-12T22:57:25.178Z</time>
      </trkpt>
      <trkpt lat="47.440779" lon="8.000622">
        <ele>555.536975</ele>
        <time>2021-11-12T22:57:37.526Z</time>
      </trkpt>
      <trkpt lat="47.440928" lon="8.000707">
        <ele>554.803099</ele>
        <time>2021-11-12T22:57:39.572Z</time>
      </trkpt>
      <trkpt lat="47.440983" lon="8.000989">
        <ele>553.890948</ele>
        <time>2021-11-12T22:57:42.224Z</time>
      </trkpt>
      <trkpt lat="47.440973" lon="8.001046">
        <ele>553.707933</ele>
        <time>2021-11-12T22:57:42.687Z</time>
      </trkpt>
      <trkpt lat="47.440934" lon="8.001116">
        <ele>553.426069</ele>
        <time>2021-11-12T22:57:43.568Z</time>
      </trkpt>
      <trkpt lat="47.440889" lon="8.001173">
        <ele>553.153778</ele>
        <time>2021-11-12T22:57:44.468Z</time>
      </trkpt>
      <trkpt lat="47.440817" lon="8.001236">
        <ele>552.769330</ele>
        <time>2021-11-12T22:57:45.712Z</time>
      </trkpt>
      <trkpt lat="47.440724" lon="8.001286">
        <ele>552.314603</ele>
        <time>2021-11-12T22:57:47.030Z</time>
      </trkpt>
      <trkpt lat="47.440611" lon="8.001421">
        <ele>551.647020</ele>
        <time>2021-11-12T22:57:48.961Z</time>
      </trkpt>
      <trkpt lat="47.440357" lon="8.001986">
        <ele>549.538506</ele>
        <time>2021-11-12T22:57:55.925Z</time>
      </trkpt>
      <trkpt lat="47.440103" lon="8.002791">
        <ele>547.636294</ele>
        <time>2021-11-12T22:58:04.975Z</time>
      </trkpt>
      <trkpt lat="47.440170" lon="8.003186">
        <ele>547.096247</ele>
        <time>2021-11-12T22:58:09.981Z</time>
      </trkpt>
      <trkpt lat="47.440324" lon="8.003509">
        <ele>546.572177</ele>
        <time>2021-11-12T22:58:14.168Z</time>
      </trkpt>
      <trkpt lat="47.440347" lon="8.003607">
        <ele>546.434613</ele>
        <time>2021-11-12T22:58:17.279Z</time>
      </trkpt>
      <trkpt lat="47.440672" lon="8.003743">
        <ele>545.772354</ele>
        <time>2021-11-12T22:58:21.182Z</time>
      </trkpt>
      <trkpt lat="47.440795" lon="8.003822">
        <ele>545.509416</ele>
        <time>2021-11-12T22:58:22.691Z</time>
      </trkpt>
      <trkpt lat="47.441014" lon="8.004119">
        <ele>544.926747</ele>
        <time>2021-11-12T22:58:25.834Z</time>
      </trkpt>
      <trkpt lat="47.442153" lon="8.004775">
        <ele>539.447984</ele>
        <time>2021-11-12T22:58:37.712Z</time>
      </trkpt>
      <trkpt lat="47.442229" lon="8.004822">
        <ele>539.062077</ele>
        <time>2021-11-12T22:58:38.450Z</time>
      </trkpt>
      <trkpt lat="47.442402" lon="8.004930">
        <ele>538.182389</ele>
        <time>2021-11-12T22:58:40.188Z</time>
      </trkpt>
      <trkpt lat="47.443232" lon="8.005444">
        <ele>532.929446</ele>
        <time>2021-11-12T22:58:48.448Z</time>
      </trkpt>
      <trkpt lat="47.443294" lon="8.005455">
        <ele>532.508098</ele>
        <time>2021-11-12T22:58:48.992Z</time>
      </trkpt>
      <trkpt lat="47.443419" lon="8.005513">
        <ele>531.624102</ele>
        <time>2021-11-12T22:58:50.174Z</time>
      </trkpt>
      <trkpt lat="47.443766" lon="8.005803">
        <ele>528.934584</ele>
        <time>2021-11-12T22:58:53.753Z</time>
      </trkpt>
      <trkpt lat="47.444148" lon="8.005966">
        <ele>526.251845</ele>
        <time>2021-11-12T22:58:57.358Z</time>
      </trkpt>
      <trkpt lat="47.444306" lon="8.005966">
        <ele>525.185736</ele>
        <time>2021-11-12T22:58:58.756Z</time>
      </trkpt>
      <trkpt lat="47.444551" lon="8.005966">
        <ele>523.405023</ele>
        <time>2021-11-12T22:59:00.959Z</time>
      </trkpt>
      <trkpt lat="47.445643" lon="8.006150">
        <ele>514.542494</ele>
        <time>2021-11-12T22:59:10.756Z</time>
      </trkpt>
      <trkpt lat="47.446457" lon="8.006422">
        <ele>507.290682</ele>
        <time>2021-11-12T22:59:18.005Z</time>
      </trkpt>
      <trkpt lat="47.446848" lon="8.006659">
        <ele>502.931020</ele>
        <time>2021-11-12T22:59:21.643Z</time>
      </trkpt>
      <trkpt lat="47.447095" lon="8.006732">
        <ele>500.332349</ele>
        <time>2021-11-12T22:59:23.807Z</time>
      </trkpt>
      <trkpt lat="47.447140" lon="8.006763">
        <ele>499.820180</ele>
        <time>2021-11-12T22:59:24.217Z</time>
      </trkpt>
      <trkpt lat="47.447193" lon="8.006801">
        <ele>499.212498</ele>
        <time>2021-11-12T22:59:24.731Z</time>
      </trkpt>
      <trkpt lat="47.447295" lon="8.006889">
        <ele>497.994160</ele>
        <time>2021-11-12T22:59:25.722Z</time>
      </trkpt>
      <trkpt lat="47.447384" lon="8.006945">
        <ele>496.996287</ele>
        <time>2021-11-12T22:59:26.588Z</time>
      </trkpt>
      <trkpt lat="47.447518" lon="8.006960">
        <ele>495.609869</ele>
        <time>2021-11-12T22:59:28.201Z</time>
      </trkpt>
      <trkpt lat="47.447595" lon="8.006957">
        <ele>494.815193</ele>
        <time>2021-11-12T22:59:29.132Z</time>
      </trkpt>
      <trkpt lat="47.447673" lon="8.006915">
        <ele>493.958783</ele>
        <time>2021-11-12T22:59:30.107Z</time>
      </trkpt>
      <trkpt lat="47.447905" lon="8.006767">
        <ele>491.352031</ele>
        <time>2021-11-12T22:59:33.242Z</time>
      </trkpt>
      <trkpt lat="47.447934" lon="8.006735">
        <ele>491.004038</ele>
        <time>2021-11-12T22:59:33.649Z</time>
      </trkpt>
      <trkpt lat="47.447950" lon="8.006701">
        <ele>490.764545</ele>
        <time>2021-11-12T22:59:33.979Z</time>
      </trkpt>
      <trkpt lat="47.448016" lon="8.006516">
        <ele>489.555198</ele>
        <time>2021-11-12T22:59:35.799Z</time>
      </trkpt>
      <trkpt lat="47.448123" lon="8.006272">
        <ele>487.873795</ele>
        <time>2021-11-12T22:59:38.132Z</time>
      </trkpt>
      <trkpt lat="47.448259" lon="8.006303">
        <ele>486.697307</ele>
        <time>2021-11-12T22:59:39.839Z</time>
      </trkpt>
      <trkpt lat="47.448363" lon="8.006302">
        <ele>485.808123</ele>
        <time>2021-11-12T22:59:41.080Z</time>
      </trkpt>
      <trkpt lat="47.448721" lon="8.006306">
        <ele>482.747254</ele>
        <time>2021-11-12T22:59:45.490Z</time>
      </trkpt>
      <trkpt lat="47.448780" lon="8.006310">
        <ele>482.242294</ele>
        <time>2021-11-12T22:59:46.241Z</time>
      </trkpt>
      <trkpt lat="47.448906" lon="8.006317">
        <ele>481.164276</ele>
        <time>2021-11-12T22:59:47.738Z</time>
      </trkpt>
      <trkpt lat="47.449537" lon="8.006184">
        <ele>475.737175</ele>
        <time>2021-11-12T22:59:56.104Z</time>
      </trkpt>
      <trkpt lat="47.449781" lon="8.006118">
        <ele>475.013356</ele>
        <time>2021-11-12T22:59:59.455Z</time>
      </trkpt>
      <trkpt lat="47.449830" lon="8.006105">
        <ele>474.868088</ele>
        <time>2021-11-12T23:00:00.147Z</time>
      </trkpt>
      <trkpt lat="47.450083" lon="8.005922">
        <ele>474.046235</ele>
        <time>2021-11-12T23:00:04.120Z</time>
      </trkpt>
      <trkpt lat="47.450192" lon="8.005840">
        <ele>473.689374</ele>
        <time>2021-11-12T23:00:05.927Z</time>
      </trkpt>
      <trkpt lat="47.450283" lon="8.005770">
        <ele>473.390054</ele>
        <time>2021-11-12T23:00:07.499Z</time>
      </trkpt>
      <trkpt lat="47.450309" lon="8.005751">
        <ele>473.305426</ele>
        <time>2021-11-12T23:00:07.880Z</time>
      </trkpt>
      <trkpt lat="47.450828" lon="8.005583">
        <ele>471.755096</ele>
        <time>2021-11-12T23:00:16.385Z</time>
      </trkpt>
      <trkpt lat="47.451038" lon="8.005524">
        <ele>471.131342</ele>
        <time>2021-11-12T23:00:19.838Z</time>
      </trkpt>
      <trkpt lat="47.451389" lon="8.005475">
        <ele>470.299501</ele>
        <time>2021-11-12T23:00:26.137Z</time>
      </trkpt>
      <trkpt lat="47.451483" lon="8.005518">
        <ele>470.154599</ele>
        <time>2021-11-12T23:00:28.255Z</time>
      </trkpt>
      <trkpt lat="47.451552" lon="8.005574">
        <ele>470.038688</ele>
        <time>2021-11-12T23:00:29.617Z</time>
      </trkpt>
      <trkpt lat="47.451617" lon="8.005651">
        <ele>469.916039</ele>
        <time>2021-11-12T23:00:31.184Z</time>
      </trkpt>
      <trkpt lat="47.451680" lon="8.005745">
        <ele>469.784243</ele>
        <time>2021-11-12T23:00:32.504Z</time>
      </trkpt>
      <trkpt lat="47.451777" lon="8.005920">
        <ele>469.558907</ele>
        <time>2021-11-12T23:00:35.104Z</time>
      </trkpt>
      <trkpt lat="47.451940" lon="8.005767">
        <ele>469.274591</ele>
        <time>2021-11-12T23:00:37.393Z</time>
      </trkpt>
      <trkpt lat="47.452304" lon="8.005472">
        <ele>468.663322</ele>
        <time>2021-11-12T23:00:42.191Z</time>
      </trkpt>
      <trkpt lat="47.452429" lon="8.005350">
        <ele>468.442763</ele>
        <time>2021-11-12T23:00:43.903Z</time>
      </trkpt>
      <trkpt lat="47.452544" lon="8.005204">
        <ele>468.219559</ele>
        <time>2021-11-12T23:00:45.739Z</time>
      </trkpt>
      <trkpt lat="47.452632" lon="8.005093">
        <ele>468.049227</ele>
        <time>2021-11-12T23:00:47.038Z</time>
      </trkpt>
      <trkpt lat="47.452707" lon="8.004978">
        <ele>467.890124</ele>
        <time>2021-11-12T23:00:48.275Z</time>
      </trkpt>
      <trkpt lat="47.452809" lon="8.004791">
        <ele>467.395660</ele>
        <time>2021-11-12T23:00:50.153Z</time>
      </trkpt>
      <trkpt lat="47.452892" lon="8.004632">
        <ele>466.941014</ele>
        <time>2021-11-12T23:00:51.650Z</time>
      </trkpt>
      <trkpt lat="47.453556" lon="8.003416">
        <ele>463.403347</ele>
        <time>2021-11-12T23:01:02.092Z</time>
      </trkpt>
      <trkpt lat="47.453815" lon="8.002812">
        <ele>461.790031</ele>
        <time>2021-11-12T23:01:06.765Z</time>
      </trkpt>
      <trkpt lat="47.453903" lon="8.002487">
        <ele>461.091597</ele>
        <time>2021-11-12T23:01:09.106Z</time>
      </trkpt>
      <trkpt lat="47.453932" lon="8.002372">
        <ele>460.846734</ele>
        <time>2021-11-12T23:01:09.913Z</time>
      </trkpt>
      <trkpt lat="47.453983" lon="8.002195">
        <ele>460.462893</ele>
        <time>2021-11-12T23:01:11.245Z</time>
      </trkpt>
      <trkpt lat="47.454027" lon="8.002090">
        <ele>460.216452</ele>
        <time>2021-11-12T23:01:12.083Z</time>
      </trkpt>
      <trkpt lat="47.454148" lon="8.001857">
        <ele>459.630344</ele>
        <time>2021-11-12T23:01:14.078Z</time>
      </trkpt>
      <trkpt lat="47.454570" lon="8.001381">
        <ele>458.064461</ele>
        <time>2021-11-12T23:01:19.672Z</time>
      </trkpt>
      <trkpt lat="47.455049" lon="8.001106">
        <ele>456.548461</ele>
        <time>2021-11-12T23:01:25.066Z</time>
      </trkpt>
      <trkpt lat="47.455740" lon="8.000709">
        <ele>454.686344</ele>
        <time>2021-11-12T23:01:33.252Z</time>
      </trkpt>
      <trkpt lat="47.456267" lon="8.000301">
        <ele>453.195091</ele>
        <time>2021-11-12T23:01:39.511Z</time>
      </trkpt>
      <trkpt lat="47.456363" lon="8.000219">
        <ele>452.917165</ele>
        <time>2021-11-12T23:01:40.560Z</time>
      </trkpt>
      <trkpt lat="47.457107" lon="7.999528">
        <ele>450.168604</ele>
        <time>2021-11-12T23:01:49.972Z</time>
      </trkpt>
      <trkpt lat="47.457133" lon="7.999505">
        <ele>450.060754</ele>
        <time>2021-11-12T23:01:50.226Z</time>
      </trkpt>
      <trkpt lat="47.457243" lon="7.999411">
        <ele>449.608498</ele>
        <time>2021-11-12T23:01:51.419Z</time>
      </trkpt>
      <trkpt lat="47.458410" lon="7.998658">
        <ele>445.232782</ele>
        <time>2021-11-12T23:02:03.970Z</time>
      </trkpt>
      <trkpt lat="47.458509" lon="7.998633">
        <ele>444.979880</ele>
        <time>2021-11-12T23:02:04.866Z</time>
      </trkpt>
      <trkpt lat="47.458630" lon="7.998609">
        <ele>444.672460</ele>
        <time>2021-11-12T23:02:06.142Z</time>
      </trkpt>
      <trkpt lat="47.459032" lon="7.998632">
        <ele>443.659417</ele>
        <time>2021-11-12T23:02:10.507Z</time>
      </trkpt>
      <trkpt lat="47.459150" lon="7.998657">
        <ele>443.359246</ele>
        <time>2021-11-12T23:02:11.804Z</time>
      </trkpt>
      <trkpt lat="47.459205" lon="7.998672">
        <ele>443.218414</ele>
        <time>2021-11-12T23:02:12.369Z</time>
      </trkpt>
      <trkpt lat="47.459283" lon="7.998698">
        <ele>443.017074</ele>
        <time>2021-11-12T23:02:13.218Z</time>
      </trkpt>
      <trkpt lat="47.459773" lon="7.998935">
        <ele>441.718894</ele>
        <time>2021-11-12T23:02:18.976Z</time>
      </trkpt>
      <trkpt lat="47.459866" lon="7.998934">
        <ele>441.484703</ele>
        <time>2021-11-12T23:02:19.983Z</time>
      </trkpt>
      <trkpt lat="47.459934" lon="7.998910">
        <ele>441.308663</ele>
        <time>2021-11-12T23:02:20.703Z</time>
      </trkpt>
      <trkpt lat="47.460218" lon="7.998745">
        <ele>440.772373</ele>
        <time>2021-11-12T23:02:24.202Z</time>
      </trkpt>
      <trkpt lat="47.460488" lon="7.998555">
        <ele>440.341588</ele>
        <time>2021-11-12T23:02:27.649Z</time>
      </trkpt>
      <trkpt lat="47.460660" lon="7.998379">
        <ele>440.040257</ele>
        <time>2021-11-12T23:02:29.989Z</time>
      </trkpt>
      <trkpt lat="47.460836" lon="7.998161">
        <ele>439.709515</ele>
        <time>2021-11-12T23:02:32.648Z</time>
      </trkpt>
      <trkpt lat="47.460857" lon="7.998139">
        <ele>439.672439</ele>
        <time>2021-11-12T23:02:32.902Z</time>
      </trkpt>
      <trkpt lat="47.460924" lon="7.998094">
        <ele>439.566423</ele>
        <time>2021-11-12T23:02:33.835Z</time>
      </trkpt>
      <trkpt lat="47.460942" lon="7.998082">
        <ele>439.537977</ele>
        <time>2021-11-12T23:02:34.090Z</time>
      </trkpt>
      <trkpt lat="47.460985" lon="7.998062">
        <ele>439.473034</ele>
        <time>2021-11-12T23:02:34.640Z</time>
      </trkpt>
      <trkpt lat="47.461062" lon="7.998039">
        <ele>439.359857</ele>
        <time>2021-11-12T23:02:35.484Z</time>
      </trkpt>
      <trkpt lat="47.461149" lon="7.998038">
        <ele>439.234508</ele>
        <time>2021-11-12T23:02:36.553Z</time>
      </trkpt>
      <trkpt lat="47.461284" lon="7.998059">
        <ele>439.038935</ele>
        <time>2021-11-12T23:02:38.058Z</time>
      </trkpt>
      <trkpt lat="47.461438" lon="7.998032">
        <ele>438.815507</ele>
        <time>2021-11-12T23:02:39.906Z</time>
      </trkpt>
      <trkpt lat="47.461502" lon="7.997997">
        <ele>438.717198</ele>
        <time>2021-11-12T23:02:40.752Z</time>
      </trkpt>
      <trkpt lat="47.461552" lon="7.997973">
        <ele>438.641463</ele>
        <time>2021-11-12T23:02:41.291Z</time>
      </trkpt>
      <trkpt lat="47.461927" lon="7.997527">
        <ele>438.317799</ele>
        <time>2021-11-12T23:02:47.599Z</time>
      </trkpt>
      <trkpt lat="47.462299" lon="7.997298">
        <ele>438.132347</ele>
        <time>2021-11-12T23:02:52.895Z</time>
      </trkpt>
      <trkpt lat="47.462350" lon="7.997293">
        <ele>438.108823</ele>
        <time>2021-11-12T23:02:53.491Z</time>
      </trkpt>
      <trkpt lat="47.462598" lon="7.997285">
        <ele>437.994652</ele>
        <time>2021-11-12T23:02:56.730Z</time>
      </trkpt>
      <trkpt lat="47.462705" lon="7.997285">
        <ele>437.945404</ele>
        <time>2021-11-12T23:02:58.132Z</time>
      </trkpt>
      <trkpt lat="47.463019" lon="7.997210">
        <ele>437.799012</ele>
        <time>2021-11-12T23:03:02.460Z</time>
      </trkpt>
      <trkpt lat="47.463107" lon="7.997172">
        <ele>437.756819</ele>
        <time>2021-11-12T23:03:03.777Z</time>
      </trkpt>
      <trkpt lat="47.463326" lon="7.997031">
        <ele>437.664767</ele>
        <time>2021-11-12T23:03:07.645Z</time>
      </trkpt>
      <trkpt lat="47.463691" lon="7.996686">
        <ele>437.680434</ele>
        <time>2021-11-12T23:03:14.493Z</time>
      </trkpt>
      <trkpt lat="47.464131" lon="7.996368">
        <ele>437.698147</ele>
        <time>2021-11-12T23:03:23.016Z</time>
      </trkpt>
      <trkpt lat="47.464249" lon="7.996297">
        <ele>437.702755</ele>
        <time>2021-11-12T23:03:25.110Z</time>
      </trkpt>
      <trkpt lat="47.465105" lon="7.995610">
        <ele>437.476034</ele>
        <time>2021-11-12T23:03:38.515Z</time>
      </trkpt>
      <trkpt lat="47.465119" lon="7.995595">
        <ele>437.459344</ele>
        <time>2021-11-12T23:03:39.015Z</time>
      </trkpt>
      <trkpt lat="47.465230" lon="7.995479">
        <ele>437.328127</ele>
        <time>2021-11-12T23:03:40.597Z</time>
      </trkpt>
      <trkpt lat="47.465613" lon="7.995104">
        <ele>436.884676</ele>
        <time>2021-11-12T23:03:46.328Z</time>
      </trkpt>
      <trkpt lat="47.465772" lon="7.994973">
        <ele>436.708957</ele>
        <time>2021-11-12T23:03:48.601Z</time>
      </trkpt>
      <trkpt lat="47.465905" lon="7.994879">
        <ele>436.566642</ele>
        <time>2021-11-12T23:03:50.281Z</time>
      </trkpt>
      <trkpt lat="47.466146" lon="7.994726">
        <ele>436.313435</ele>
        <time>2021-11-12T23:03:53.318Z</time>
      </trkpt>
      <trkpt lat="47.467154" lon="7.994150">
        <ele>435.147842</ele>
        <time>2021-11-12T23:04:05.986Z</time>
      </trkpt>
      <trkpt lat="47.467579" lon="7.993896">
        <ele>434.630308</ele>
        <time>2021-11-12T23:04:11.392Z</time>
      </trkpt>
      <trkpt lat="47.467721" lon="7.993817">
        <ele>434.459018</ele>
        <time>2021-11-12T23:04:13.368Z</time>
      </trkpt>
      <trkpt lat="47.468089" lon="7.993593">
        <ele>434.009723</ele>
        <time>2021-11-12T23:04:18.395Z</time>
      </trkpt>
      <trkpt lat="47.468375" lon="7.993424">
        <ele>433.784258</ele>
        <time>2021-11-12T23:04:22.208Z</time>
      </trkpt>
      <trkpt lat="47.469362" lon="7.992773">
        <ele>433.062732</ele>
        <time>2021-11-12T23:04:36.058Z</time>
      </trkpt>
      <trkpt lat="47.469747" lon="7.992506">
        <ele>432.778834</ele>
        <time>2021-11-12T23:04:41.514Z</time>
      </trkpt>
      <trkpt lat="47.470033" lon="7.992305">
        <ele>432.611939</ele>
        <time>2021-11-12T23:04:45.724Z</time>
      </trkpt>
      <trkpt lat="47.470749" lon="7.991887">
        <ele>432.216633</ele>
        <time>2021-11-12T23:04:56.906Z</time>
      </trkpt>
      <trkpt lat="47.471617" lon="7.991535">
        <ele>431.258445</ele>
        <time>2021-11-12T23:05:08.803Z</time>
      </trkpt>
      <trkpt lat="47.471790" lon="7.991484">
        <ele>430.620852</ele>
        <time>2021-11-12T23:05:10.861Z</time>
      </trkpt>
      <trkpt lat="47.472461" lon="7.991354">
        <ele>428.174851</ele>
        <time>2021-11-12T23:05:17.809Z</time>
      </trkpt>
      <trkpt lat="47.472796" lon="7.991311">
        <ele>426.959463</ele>
        <time>2021-11-12T23:05:21.044Z</time>
      </trkpt>
      <trkpt lat="47.473097" lon="7.991272">
        <ele>425.867351</ele>
        <time>2021-11-12T23:05:23.845Z</time>
      </trkpt>
      <trkpt lat="47.473566" lon="7.991189">
        <ele>422.983929</ele>
        <time>2021-11-12T23:05:28.148Z</time>
      </trkpt>
      <trkpt lat="47.474869" lon="7.990750">
        <ele>413.320289</ele>
        <time>2021-11-12T23:05:39.966Z</time>
      </trkpt>
      <trkpt lat="47.475384" lon="7.990744">
        <ele>410.411599</ele>
        <time>2021-11-12T23:05:44.607Z</time>
      </trkpt>
      <trkpt lat="47.475752" lon="7.990844">
        <ele>408.513391</ele>
        <time>2021-11-12T23:05:48.057Z</time>
      </trkpt>
      <trkpt lat="47.476495" lon="7.991119">
        <ele>404.627759</ele>
        <time>2021-11-12T23:05:55.379Z</time>
      </trkpt>
      <trkpt lat="47.476858" lon="7.991285">
        <ele>402.996739</ele>
        <time>2021-11-12T23:05:59.228Z</time>
      </trkpt>
      <trkpt lat="47.477212" lon="7.991382">
        <ele>402.245716</ele>
        <time>2021-11-12T23:06:03.036Z</time>
      </trkpt>
      <trkpt lat="47.477593" lon="7.991455">
        <ele>401.444291</ele>
        <time>2021-11-12T23:06:07.274Z</time>
      </trkpt>
      <trkpt lat="47.478975" lon="7.991551">
        <ele>398.817497</ele>
        <time>2021-11-12T23:06:23.051Z</time>
      </trkpt>
      <trkpt lat="47.479142" lon="7.991563">
        <ele>398.569932</ele>
        <time>2021-11-12T23:06:25.004Z</time>
      </trkpt>
      <trkpt lat="47.479179" lon="7.991567">
        <ele>398.515000</ele>
        <time>2021-11-12T23:06:25.454Z</time>
      </trkpt>
      <trkpt lat="47.479254" lon="7.991575">
        <ele>398.403661</ele>
        <time>2021-11-12T23:06:26.304Z</time>
      </trkpt>
      <trkpt lat="47.480402" lon="7.991988">
        <ele>396.648150</ele>
        <time>2021-11-12T23:06:40.053Z</time>
      </trkpt>
      <trkpt lat="47.480657" lon="7.991988">
        <ele>396.253229</ele>
        <time>2021-11-12T23:06:42.891Z</time>
      </trkpt>
      <trkpt lat="47.481096" lon="7.991850">
        <ele>395.558172</ele>
        <time>2021-11-12T23:06:48.086Z</time>
      </trkpt>
      <trkpt lat="47.481496" lon="7.991617">
        <ele>394.892414</ele>
        <time>2021-11-12T23:06:53.052Z</time>
      </trkpt>
      <trkpt lat="47.481732" lon="7.991480">
        <ele>394.499796</ele>
        <time>2021-11-12T23:06:55.901Z</time>
      </trkpt>
      <trkpt lat="47.482259" lon="7.991194">
        <ele>393.642878</ele>
        <time>2021-11-12T23:07:02.255Z</time>
      </trkpt>
      <trkpt lat="47.482872" lon="7.991012">
        <ele>392.706866</ele>
        <time>2021-11-12T23:07:09.443Z</time>
      </trkpt>
      <trkpt lat="47.482902" lon="7.991008">
        <ele>392.661771</ele>
        <time>2021-11-12T23:07:09.756Z</time>
      </trkpt>
      <trkpt lat="47.483009" lon="7.990995">
        <ele>392.501043</ele>
        <time>2021-11-12T23:07:10.974Z</time>
      </trkpt>
      <trkpt lat="47.483302" lon="7.991001">
        <ele>392.062351</ele>
        <time>2021-11-12T23:07:14.369Z</time>
      </trkpt>
      <trkpt lat="47.483794" lon="7.991174">
        <ele>391.306183</ele>
        <time>2021-11-12T23:07:20.327Z</time>
      </trkpt>
      <trkpt lat="47.484004" lon="7.991285">
        <ele>391.033989</ele>
        <time>2021-11-12T23:07:22.992Z</time>
      </trkpt>
      <trkpt lat="47.484196" lon="7.991380">
        <ele>390.786874</ele>
        <time>2021-11-12T23:07:25.338Z</time>
      </trkpt>
      <trkpt lat="47.484597" lon="7.991511">
        <ele>390.285618</ele>
        <time>2021-11-12T23:07:30.156Z</time>
      </trkpt>
      <trkpt lat="47.485528" lon="7.991512">
        <ele>389.149216</ele>
        <time>2021-11-12T23:07:41.318Z</time>
      </trkpt>
      <trkpt lat="47.485635" lon="7.991515">
        <ele>389.041101</ele>
        <time>2021-11-12T23:07:42.534Z</time>
      </trkpt>
      <trkpt lat="47.485898" lon="7.991482">
        <ele>388.794357</ele>
        <time>2021-11-12T23:07:45.858Z</time>
      </trkpt>
      <trkpt lat="47.485991" lon="7.991440">
        <ele>388.703458</ele>
        <time>2021-11-12T23:07:47.012Z</time>
      </trkpt>
      <trkpt lat="47.486063" lon="7.991399">
        <ele>388.631339</ele>
        <time>2021-11-12T23:07:47.969Z</time>
      </trkpt>
      <trkpt lat="47.486129" lon="7.991440">
        <ele>388.564423</ele>
        <time>2021-11-12T23:07:49.243Z</time>
      </trkpt>
      <trkpt lat="47.486260" lon="7.991591">
        <ele>388.409192</ele>
        <time>2021-11-12T23:07:52.221Z</time>
      </trkpt>
      <trkpt lat="47.486334" lon="7.991668">
        <ele>388.324624</ele>
        <time>2021-11-12T23:07:53.756Z</time>
      </trkpt>
      <trkpt lat="47.486383" lon="7.991737">
        <ele>388.261391</ele>
        <time>2021-11-12T23:07:54.969Z</time>
      </trkpt>
      <trkpt lat="47.486464" lon="7.991861">
        <ele>388.152441</ele>
        <time>2021-11-12T23:07:57.112Z</time>
      </trkpt>
      <trkpt lat="47.487213" lon="7.993014">
        <ele>387.039218</ele>
        <time>2021-11-12T23:08:16.098Z</time>
      </trkpt>
      <trkpt lat="47.487633" lon="7.993524">
        <ele>386.351908</ele>
        <time>2021-11-12T23:08:25.442Z</time>
      </trkpt>
      <trkpt lat="47.488246" lon="7.994102">
        <ele>385.432382</ele>
        <time>2021-11-12T23:08:37.502Z</time>
      </trkpt>
      <trkpt lat="47.488959" lon="7.994757">
        <ele>384.042064</ele>
        <time>2021-11-12T23:08:51.040Z</time>
      </trkpt>
      <trkpt lat="47.489284" lon="7.995053">
        <ele>383.357726</ele>
        <time>2021-11-12T23:08:57.165Z</time>
      </trkpt>
      <trkpt lat="47.490780" lon="7.996642">
        <ele>379.836803</ele>
        <time>2021-11-12T23:09:26.484Z</time>
      </trkpt>
      <trkpt lat="47.491680" lon="7.997343">
        <ele>377.772128</ele>
        <time>2021-11-12T23:09:42.294Z</time>
      </trkpt>
      <trkpt lat="47.491748" lon="7.997367">
        <ele>377.624691</ele>
        <time>2021-11-12T23:09:43.257Z</time>
      </trkpt>
      <trkpt lat="47.491854" lon="7.997405">
        <ele>377.394666</ele>
        <time>2021-11-12T23:09:44.983Z</time>
      </trkpt>
      <trkpt lat="47.491886" lon="7.997365">
        <ele>377.306325</ele>
        <time>2021-11-12T23:09:45.613Z</time>
      </trkpt>
      <trkpt lat="47.492317" lon="7.997637">
        <ele>376.318130</ele>
        <time>2021-11-12T23:09:50.688Z</time>
      </trkpt>
      <trkpt lat="47.492477" lon="7.997747">
        <ele>375.946050</ele>
        <time>2021-11-12T23:09:52.565Z</time>
      </trkpt>
      <trkpt lat="47.492617" lon="7.997908">
        <ele>375.572121</ele>
        <time>2021-11-12T23:09:54.524Z</time>
      </trkpt>
      <trkpt lat="47.492722" lon="7.998050">
        <ele>375.272140</ele>
        <time>2021-11-12T23:09:56.035Z</time>
      </trkpt>
      <trkpt lat="47.492747" lon="7.998084">
        <ele>375.200532</ele>
        <time>2021-11-12T23:09:56.424Z</time>
      </trkpt>
      <trkpt lat="47.492877" lon="7.998257">
        <ele>374.831817</ele>
        <time>2021-11-12T23:09:58.364Z</time>
      </trkpt>
      <trkpt lat="47.493144" lon="7.998645">
        <ele>374.358048</ele>
        <time>2021-11-12T23:10:02.494Z</time>
      </trkpt>
      <trkpt lat="47.493296" lon="7.998833">
        <ele>374.206451</ele>
        <time>2021-11-12T23:10:04.959Z</time>
      </trkpt>
      <trkpt lat="47.493358" lon="7.998911">
        <ele>374.144176</ele>
        <time>2021-11-12T23:10:05.919Z</time>
      </trkpt>
      <trkpt lat="47.493433" lon="7.998996">
        <ele>374.071884</ele>
        <time>2021-11-12T23:10:07.119Z</time>
      </trkpt>
      <trkpt lat="47.493502" lon="7.999071">
        <ele>374.006367</ele>
        <time>2021-11-12T23:10:08.236Z</time>
      </trkpt>
      <trkpt lat="47.493603" lon="7.999152">
        <ele>373.918454</ele>
        <time>2021-11-12T23:10:09.676Z</time>
      </trkpt>
      <trkpt lat="47.493742" lon="7.999216">
        <ele>373.807050</ele>
        <time>2021-11-12T23:10:11.520Z</time>
      </trkpt>
      <trkpt lat="47.493937" lon="7.999285">
        <ele>373.653612</ele>
        <time>2021-11-12T23:10:14.153Z</time>
      </trkpt>
      <trkpt lat="47.493961" lon="7.999292">
        <ele>373.634891</ele>
        <time>2021-11-12T23:10:14.458Z</time>
      </trkpt>
      <trkpt lat="47.494272" lon="7.999381">
        <ele>373.392477</ele>
        <time>2021-11-12T23:10:18.890Z</time>
      </trkpt>
      <trkpt lat="47.494489" lon="7.999417">
        <ele>373.225368</ele>
        <time>2021-11-12T23:10:22.229Z</time>
      </trkpt>
      <trkpt lat="47.494643" lon="7.999430">
        <ele>373.126168</ele>
        <time>2021-11-12T23:10:24.579Z</time>
      </trkpt>
      <trkpt lat="47.494812" lon="7.999457">
        <ele>373.041588</ele>
        <time>2021-11-12T23:10:27.070Z</time>
      </trkpt>
      <trkpt lat="47.495197" lon="7.999589">
        <ele>372.844947</ele>
        <time>2021-11-12T23:10:32.615Z</time>
      </trkpt>
      <trkpt lat="47.495430" lon="7.999752">
        <ele>372.716713</ele>
        <time>2021-11-12T23:10:36.112Z</time>
      </trkpt>
      <trkpt lat="47.495718" lon="8.000005">
        <ele>372.550069</ele>
        <time>2021-11-12T23:10:40.531Z</time>
      </trkpt>
      <trkpt lat="47.496011" lon="8.000286">
        <ele>372.376347</ele>
        <time>2021-11-12T23:10:44.992Z</time>
      </trkpt>
      <trkpt lat="47.496234" lon="8.000584">
        <ele>372.142141</ele>
        <time>2021-11-12T23:10:48.659Z</time>
      </trkpt>
      <trkpt lat="47.496272" lon="8.000651">
        <ele>372.049465</ele>
        <time>2021-11-12T23:10:49.511Z</time>
      </trkpt>
      <trkpt lat="47.496280" lon="8.000664">
        <ele>372.030836</ele>
        <time>2021-11-12T23:10:49.646Z</time>
      </trkpt>
      <trkpt lat="47.496429" lon="8.000925">
        <ele>371.668836</ele>
        <time>2021-11-12T23:10:52.317Z</time>
      </trkpt>
      <trkpt lat="47.496517" lon="8.001077">
        <ele>371.456770</ele>
        <time>2021-11-12T23:10:54.024Z</time>
      </trkpt>
      <trkpt lat="47.496533" lon="8.001104">
        <ele>371.418722</ele>
        <time>2021-11-12T23:10:54.276Z</time>
      </trkpt>
      <trkpt lat="47.496535" lon="8.001108">
        <ele>371.413450</ele>
        <time>2021-11-12T23:10:54.316Z</time>
      </trkpt>
      <trkpt lat="47.496585" lon="8.001187">
        <ele>371.298770</ele>
        <time>2021-11-12T23:10:55.113Z</time>
      </trkpt>
      <trkpt lat="47.496820" lon="8.001547">
        <ele>370.768447</ele>
        <time>2021-11-12T23:10:59.006Z</time>
      </trkpt>
      <trkpt lat="47.496861" lon="8.001608">
        <ele>370.677290</ele>
        <time>2021-11-12T23:10:59.639Z</time>
      </trkpt>
      <trkpt lat="47.496908" lon="8.001680">
        <ele>370.571226</ele>
        <time>2021-11-12T23:11:00.403Z</time>
      </trkpt>
      <trkpt lat="47.496932" lon="8.001715">
        <ele>370.518395</ele>
        <time>2021-11-12T23:11:00.769Z</time>
      </trkpt>
      <trkpt lat="47.497207" lon="8.002132">
        <ele>369.901056</ele>
        <time>2021-11-12T23:11:05.069Z</time>
      </trkpt>
      <trkpt lat="47.497264" lon="8.002219">
        <ele>369.772668</ele>
        <time>2021-11-12T23:11:06.011Z</time>
      </trkpt>
      <trkpt lat="47.497307" lon="8.002279">
        <ele>369.680004</ele>
        <time>2021-11-12T23:11:06.644Z</time>
      </trkpt>
      <trkpt lat="47.497390" lon="8.002409">
        <ele>369.490516</ele>
        <time>2021-11-12T23:11:08.006Z</time>
      </trkpt>
      <trkpt lat="47.497540" lon="8.002634">
        <ele>369.106251</ele>
        <time>2021-11-12T23:11:10.405Z</time>
      </trkpt>
      <trkpt lat="47.497607" lon="8.002710">
        <ele>368.951364</ele>
        <time>2021-11-12T23:11:11.324Z</time>
      </trkpt>
      <trkpt lat="47.497951" lon="8.003094">
        <ele>368.160780</ele>
        <time>2021-11-12T23:11:16.196Z</time>
      </trkpt>
      <trkpt lat="47.498072" lon="8.003250">
        <ele>367.866345</ele>
        <time>2021-11-12T23:11:17.927Z</time>
      </trkpt>
      <trkpt lat="47.498166" lon="8.003383">
        <ele>367.627738</ele>
        <time>2021-11-12T23:11:19.406Z</time>
      </trkpt>
      <trkpt lat="47.498213" lon="8.003454">
        <ele>367.504514</ele>
        <time>2021-11-12T23:11:20.172Z</time>
      </trkpt>
      <trkpt lat="47.498450" lon="8.003874">
        <ele>366.826138</ele>
        <time>2021-11-12T23:11:24.260Z</time>
      </trkpt>
      <trkpt lat="47.498698" lon="8.004313">
        <ele>366.125818</ele>
        <time>2021-11-12T23:11:28.503Z</time>
      </trkpt>
      <trkpt lat="47.498753" lon="8.004410">
        <ele>366.018201</ele>
        <time>2021-11-12T23:11:29.413Z</time>
      </trkpt>
      <trkpt lat="47.498898" lon="8.004636">
        <ele>365.753336</ele>
        <time>2021-11-12T23:11:31.906Z</time>
      </trkpt>
      <trkpt lat="47.498965" lon="8.004710">
        <ele>365.648181</ele>
        <time>2021-11-12T23:11:32.848Z</time>
      </trkpt>
      <trkpt lat="47.499012" lon="8.004762">
        <ele>365.574371</ele>
        <time>2021-11-12T23:11:33.500Z</time>
      </trkpt>
      <trkpt lat="47.499183" lon="8.004875">
        <ele>365.338812</ele>
        <time>2021-11-12T23:11:35.777Z</time>
      </trkpt>
      <trkpt lat="47.499409" lon="8.005000">
        <ele>365.035335</ele>
        <time>2021-11-12T23:11:38.626Z</time>
      </trkpt>
      <trkpt lat="47.499496" lon="8.005059">
        <ele>364.914961</ele>
        <time>2021-11-12T23:11:39.796Z</time>
      </trkpt>
      <trkpt lat="47.499523" lon="8.005078">
        <ele>364.877356</ele>
        <time>2021-11-12T23:11:40.138Z</time>
      </trkpt>
      <trkpt lat="47.499770" lon="8.005268">
        <ele>364.527211</ele>
        <time>2021-11-12T23:11:43.461Z</time>
      </trkpt>
      <trkpt lat="47.499856" lon="8.005338">
        <ele>364.403757</ele>
        <time>2021-11-12T23:11:44.623Z</time>
      </trkpt>
      <trkpt lat="47.499880" lon="8.005358">
        <ele>364.369113</ele>
        <time>2021-11-12T23:11:44.937Z</time>
      </trkpt>
      <trkpt lat="47.499991" lon="8.005468">
        <ele>364.201086</ele>
        <time>2021-11-12T23:11:46.512Z</time>
      </trkpt>
      <trkpt lat="47.500009" lon="8.005488">
        <ele>364.172775</ele>
        <time>2021-11-12T23:11:46.803Z</time>
      </trkpt>
      <trkpt lat="47.500207" lon="8.005727">
        <ele>363.870388</ele>
        <time>2021-11-12T23:11:49.964Z</time>
      </trkpt>
      <trkpt lat="47.500252" lon="8.005784">
        <ele>363.840462</ele>
        <time>2021-11-12T23:11:50.749Z</time>
      </trkpt>
      <trkpt lat="47.500310" lon="8.005852">
        <ele>363.803077</ele>
        <time>2021-11-12T23:11:51.677Z</time>
      </trkpt>
      <trkpt lat="47.500540" lon="8.006079">
        <ele>363.663400</ele>
        <time>2021-11-12T23:11:55.243Z</time>
      </trkpt>
      <trkpt lat="47.500647" lon="8.006180">
        <ele>363.599279</ele>
        <time>2021-11-12T23:11:56.950Z</time>
      </trkpt>
      <trkpt lat="47.500764" lon="8.006290">
        <ele>363.529245</ele>
        <time>2021-11-12T23:11:58.714Z</time>
      </trkpt>
      <trkpt lat="47.500997" lon="8.006551">
        <ele>363.381605</ele>
        <time>2021-11-12T23:12:02.832Z</time>
      </trkpt>
      <trkpt lat="47.501276" lon="8.006911">
        <ele>363.194593</ele>
        <time>2021-11-12T23:12:08.260Z</time>
      </trkpt>
      <trkpt lat="47.501293" lon="8.006936">
        <ele>363.182485</ele>
        <time>2021-11-12T23:12:08.585Z</time>
      </trkpt>
      <trkpt lat="47.501496" lon="8.007247">
        <ele>363.034869</ele>
        <time>2021-11-12T23:12:12.539Z</time>
      </trkpt>
      <trkpt lat="47.501537" lon="8.007308">
        <ele>363.005497</ele>
        <time>2021-11-12T23:12:13.283Z</time>
      </trkpt>
      <trkpt lat="47.501943" lon="8.008353">
        <ele>362.094326</ele>
        <time>2021-11-12T23:12:23.756Z</time>
      </trkpt>
      <trkpt lat="47.502062" lon="8.008650">
        <ele>361.821596</ele>
        <time>2021-11-12T23:12:26.695Z</time>
      </trkpt>
      <trkpt lat="47.502158" lon="8.008808">
        <ele>361.653758</ele>
        <time>2021-11-12T23:12:28.403Z</time>
      </trkpt>
      <trkpt lat="47.502267" lon="8.008979">
        <ele>361.468070</ele>
        <time>2021-11-12T23:12:30.235Z</time>
      </trkpt>
      <trkpt lat="47.502773" lon="8.009928">
        <ele>360.248860</ele>
        <time>2021-11-12T23:12:39.196Z</time>
      </trkpt>
      <trkpt lat="47.502959" lon="8.010415">
        <ele>359.481004</ele>
        <time>2021-11-12T23:12:43.264Z</time>
      </trkpt>
      <trkpt lat="47.503207" lon="8.011279">
        <ele>358.192530</ele>
        <time>2021-11-12T23:12:50.185Z</time>
      </trkpt>
      <trkpt lat="47.503268" lon="8.011479">
        <ele>357.891344</ele>
        <time>2021-11-12T23:12:51.862Z</time>
      </trkpt>
      <trkpt lat="47.503325" lon="8.011662">
        <ele>357.614759</ele>
        <time>2021-11-12T23:12:53.344Z</time>
      </trkpt>
      <trkpt lat="47.503561" lon="8.012433">
        <ele>356.691503</ele>
        <time>2021-11-12T23:12:59.616Z</time>
      </trkpt>
      <trkpt lat="47.503675" lon="8.012805">
        <ele>356.305845</ele>
        <time>2021-11-12T23:13:02.625Z</time>
      </trkpt>
      <trkpt lat="47.503759" lon="8.013139">
        <ele>355.969368</ele>
        <time>2021-11-12T23:13:05.335Z</time>
      </trkpt>
      <trkpt lat="47.503818" lon="8.013443">
        <ele>355.670749</ele>
        <time>2021-11-12T23:13:07.867Z</time>
      </trkpt>
      <trkpt lat="47.503854" lon="8.013721">
        <ele>355.403508</ele>
        <time>2021-11-12T23:13:10.273Z</time>
      </trkpt>
      <trkpt lat="47.503922" lon="8.014235">
        <ele>354.909018</ele>
        <time>2021-11-12T23:13:14.938Z</time>
      </trkpt>
      <trkpt lat="47.504106" lon="8.015484">
        <ele>354.302457</ele>
        <time>2021-11-12T23:13:25.744Z</time>
      </trkpt>
      <trkpt lat="47.504246" lon="8.016448">
        <ele>353.929672</ele>
        <time>2021-11-12T23:13:34.362Z</time>
      </trkpt>
      <trkpt lat="47.504281" lon="8.016674">
        <ele>353.842012</ele>
        <time>2021-11-12T23:13:36.408Z</time>
      </trkpt>
      <trkpt lat="47.504393" lon="8.017182">
        <ele>353.699330</ele>
        <time>2021-11-12T23:13:41.733Z</time>
      </trkpt>
      <trkpt lat="47.504413" lon="8.017267">
        <ele>353.700834</ele>
        <time>2021-11-12T23:13:42.729Z</time>
      </trkpt>
      <trkpt lat="47.504588" lon="8.017986">
        <ele>353.713610</ele>
        <time>2021-11-12T23:13:50.775Z</time>
      </trkpt>
      <trkpt lat="47.504626" lon="8.018141">
        <ele>353.716367</ele>
        <time>2021-11-12T23:13:52.406Z</time>
      </trkpt>
      <trkpt lat="47.504819" lon="8.018974">
        <ele>353.731088</ele>
        <time>2021-11-12T23:14:01.207Z</time>
      </trkpt>
      <trkpt lat="47.504877" lon="8.019222">
        <ele>353.735476</ele>
        <time>2021-11-12T23:14:04.056Z</time>
      </trkpt>
      <trkpt lat="47.504998" lon="8.019743">
        <ele>353.604075</ele>
        <time>2021-11-12T23:14:09.994Z</time>
      </trkpt>
      <trkpt lat="47.505207" lon="8.020615">
        <ele>352.971987</ele>
        <time>2021-11-12T23:14:18.431Z</time>
      </trkpt>
      <trkpt lat="47.505291" lon="8.020961">
        <ele>352.720818</ele>
        <time>2021-11-12T23:14:21.509Z</time>
      </trkpt>
      <trkpt lat="47.505467" lon="8.021389">
        <ele>352.378519</ele>
        <time>2021-11-12T23:14:25.364Z</time>
      </trkpt>
      <trkpt lat="47.505529" lon="8.021539">
        <ele>352.258388</ele>
        <time>2021-11-12T23:14:26.733Z</time>
      </trkpt>
      <trkpt lat="47.505600" lon="8.021664">
        <ele>352.146820</ele>
        <time>2021-11-12T23:14:27.869Z</time>
      </trkpt>
      <trkpt lat="47.505653" lon="8.021731">
        <ele>352.076339</ele>
        <time>2021-11-12T23:14:28.688Z</time>
      </trkpt>
      <trkpt lat="47.506220" lon="8.022129">
        <ele>350.654799</ele>
        <time>2021-11-12T23:14:35.517Z</time>
      </trkpt>
      <trkpt lat="47.506503" lon="8.022393">
        <ele>349.762668</ele>
        <time>2021-11-12T23:14:39.120Z</time>
      </trkpt>
      <trkpt lat="47.506535" lon="8.022414">
        <ele>349.669313</ele>
        <time>2021-11-12T23:14:39.440Z</time>
      </trkpt>
      <trkpt lat="47.506621" lon="8.022234">
        <ele>349.272109</ele>
        <time>2021-11-12T23:14:41.029Z</time>
      </trkpt>
      <trkpt lat="47.506655" lon="8.022123">
        <ele>349.052533</ele>
        <time>2021-11-12T23:14:41.896Z</time>
      </trkpt>
      <trkpt lat="47.506678" lon="8.022015">
        <ele>348.848521</ele>
        <time>2021-11-12T23:14:42.694Z</time>
      </trkpt>
      <trkpt lat="47.506735" lon="8.021861">
        <ele>348.532156</ele>
        <time>2021-11-12T23:14:43.861Z</time>
      </trkpt>
      <trkpt lat="47.506867" lon="8.021604">
        <ele>347.950508</ele>
        <time>2021-11-12T23:14:46.091Z</time>
      </trkpt>
      <trkpt lat="47.506910" lon="8.021529">
        <ele>347.773281</ele>
        <time>2021-11-12T23:14:46.722Z</time>
      </trkpt>
      <trkpt lat="47.506949" lon="8.021459">
        <ele>347.609809</ele>
        <time>2021-11-12T23:14:47.365Z</time>
      </trkpt>
      <trkpt lat="47.507007" lon="8.021362">
        <ele>347.376427</ele>
        <time>2021-11-12T23:14:48.243Z</time>
      </trkpt>
      <trkpt lat="47.507213" lon="8.021061">
        <ele>346.715077</ele>
        <time>2021-11-12T23:14:51.210Z</time>
      </trkpt>
      <trkpt lat="47.507466" lon="8.020697">
        <ele>345.973953</ele>
        <time>2021-11-12T23:14:54.845Z</time>
      </trkpt>
      <trkpt lat="47.507609" lon="8.020484">
        <ele>345.547813</ele>
        <time>2021-11-12T23:14:56.986Z</time>
      </trkpt>
      <trkpt lat="47.507666" lon="8.020400">
        <ele>345.378859</ele>
        <time>2021-11-12T23:14:57.848Z</time>
      </trkpt>
      <trkpt lat="47.507863" lon="8.020075">
        <ele>344.759225</ele>
        <time>2021-11-12T23:15:01.043Z</time>
      </trkpt>
      <trkpt lat="47.507895" lon="8.020117">
        <ele>344.669387</ele>
        <time>2021-11-12T23:15:01.505Z</time>
      </trkpt>
      <trkpt lat="47.507995" lon="8.020296">
        <ele>344.339772</ele>
        <time>2021-11-12T23:15:03.286Z</time>
      </trkpt>
      <trkpt lat="47.508000" lon="8.020315">
        <ele>344.310838</ele>
        <time>2021-11-12T23:15:03.417Z</time>
      </trkpt>
      <trkpt lat="47.508000" lon="8.020315">
        <ele>344.310838</ele>
        <time>2021-11-12T23:15:03.419Z</time>
      </trkpt>
      <trkpt lat="47.508039" lon="8.020467">
        <ele>344.080114</ele>
        <time>2021-11-12T23:15:04.646Z</time>
      </trkpt>
      <trkpt lat="47.508194" lon="8.021281">
        <ele>343.683110</ele>
        <time>2021-11-12T23:15:11.375Z</time>
      </trkpt>
      <trkpt lat="47.508213" lon="8.021364">
        <ele>343.772653</ele>
        <time>2021-11-12T23:15:12.141Z</time>
      </trkpt>
      <trkpt lat="47.508331" lon="8.021703">
        <ele>344.162308</ele>
        <time>2021-11-12T23:15:17.276Z</time>
      </trkpt>
      <trkpt lat="47.508453" lon="8.021990">
        <ele>344.508783</ele>
        <time>2021-11-12T23:15:21.491Z</time>
      </trkpt>
      <trkpt lat="47.508643" lon="8.022392">
        <ele>345.010085</ele>
        <time>2021-11-12T23:15:28.985Z</time>
      </trkpt>
      <trkpt lat="47.508786" lon="8.022604">
        <ele>345.316200</ele>
        <time>2021-11-12T23:15:34.659Z</time>
      </trkpt>
      <trkpt lat="47.508863" lon="8.022719">
        <ele>345.481644</ele>
        <time>2021-11-12T23:15:37.411Z</time>
      </trkpt>
      <trkpt lat="47.508958" lon="8.022838">
        <ele>345.669879</ele>
        <time>2021-11-12T23:15:41.360Z</time>
      </trkpt>
      <trkpt lat="47.509187" lon="8.023037">
        <ele>346.071646</ele>
        <time>2021-11-12T23:15:48.924Z</time>
      </trkpt>
      <trkpt lat="47.509313" lon="8.023129">
        <ele>346.290267</ele>
        <time>2021-11-12T23:15:52.966Z</time>
      </trkpt>
      <trkpt lat="47.509881" lon="8.023632">
        <ele>347.320203</ele>
        <time>2021-11-12T23:16:09.000Z</time>
      </trkpt>
      <trkpt lat="47.510365" lon="8.024216">
        <ele>348.291826</ele>
        <time>2021-11-12T23:16:22.539Z</time>
      </trkpt>
      <trkpt lat="47.510388" lon="8.024167">
        <ele>348.354544</ele>
        <time>2021-11-12T23:16:23.062Z</time>
      </trkpt>
      <trkpt lat="47.510638" lon="8.023374">
        <ele>348.337468</ele>
        <time>2021-11-12T23:16:35.222Z</time>
      </trkpt>
      <trkpt lat="47.510740" lon="8.023224">
        <ele>348.047318</ele>
        <time>2021-11-12T23:16:37.271Z</time>
      </trkpt>
      <trkpt lat="47.510935" lon="8.022959">
        <ele>347.513114</ele>
        <time>2021-11-12T23:16:42.062Z</time>
      </trkpt>
      <trkpt lat="47.512343" lon="8.021241">
        <ele>343.637911</ele>
        <time>2021-11-12T23:17:09.145Z</time>
      </trkpt>
      <trkpt lat="47.512778" lon="8.020828">
        <ele>342.451866</ele>
        <time>2021-11-12T23:17:17.347Z</time>
      </trkpt>
      <trkpt lat="47.513167" lon="8.020663">
        <ele>341.523129</ele>
        <time>2021-11-12T23:17:23.670Z</time>
      </trkpt>
      <trkpt lat="47.513370" lon="8.020582">
        <ele>341.066275</ele>
        <time>2021-11-12T23:17:26.927Z</time>
      </trkpt>
      <trkpt lat="47.513856" lon="8.020390">
        <ele>340.349671</ele>
        <time>2021-11-12T23:17:35.049Z</time>
      </trkpt>
      <trkpt lat="47.514214" lon="8.020312">
        <ele>339.834153</ele>
        <time>2021-11-12T23:17:41.036Z</time>
      </trkpt>
      <trkpt lat="47.514447" lon="8.020326">
        <ele>339.501937</ele>
        <time>2021-11-12T23:17:44.872Z</time>
      </trkpt>
      <trkpt lat="47.514678" lon="8.020338">
        <ele>339.172640</ele>
        <time>2021-11-12T23:17:48.841Z</time>
      </trkpt>
      <trkpt lat="47.514794" lon="8.020346">
        <ele>339.007201</ele>
        <time>2021-11-12T23:17:50.794Z</time>
      </trkpt>
      <trkpt lat="47.515011" lon="8.020364">
        <ele>338.697568</ele>
        <time>2021-11-12T23:17:54.597Z</time>
      </trkpt>
      <trkpt lat="47.515050" lon="8.020367">
        <ele>338.641931</ele>
        <time>2021-11-12T23:17:55.272Z</time>
      </trkpt>
      <trkpt lat="47.515452" lon="8.020407">
        <ele>338.354080</ele>
        <time>2021-11-12T23:18:02.313Z</time>
      </trkpt>
      <trkpt lat="47.515648" lon="8.020395">
        <ele>338.241931</ele>
        <time>2021-11-12T23:18:05.831Z</time>
      </trkpt>
      <trkpt lat="47.515685" lon="8.020393">
        <ele>338.220763</ele>
        <time>2021-11-12T23:18:06.482Z</time>
      </trkpt>
      <trkpt lat="47.516146" lon="8.020218">
        <ele>337.948684</ele>
        <time>2021-11-12T23:18:15.161Z</time>
      </trkpt>
      <trkpt lat="47.516172" lon="8.020201">
        <ele>337.932435</ele>
        <time>2021-11-12T23:18:15.659Z</time>
      </trkpt>
      <trkpt lat="47.516265" lon="8.020138">
        <ele>337.873966</ele>
        <time>2021-11-12T23:18:17.508Z</time>
      </trkpt>
      <trkpt lat="47.516418" lon="8.020012">
        <ele>337.773876</ele>
        <time>2021-11-12T23:18:20.929Z</time>
      </trkpt>
      <trkpt lat="47.516592" lon="8.019879">
        <ele>337.661927</ele>
        <time>2021-11-12T23:18:24.605Z</time>
      </trkpt>
      <trkpt lat="47.516606" lon="8.019868">
        <ele>337.652866</ele>
        <time>2021-11-12T23:18:24.993Z</time>
      </trkpt>
      <trkpt lat="47.516775" lon="8.019794">
        <ele>337.552112</ele>
        <time>2021-11-12T23:18:28.508Z</time>
      </trkpt>
      <trkpt lat="47.516798" lon="8.019784">
        <ele>337.538407</ele>
        <time>2021-11-12T23:18:29.024Z</time>
      </trkpt>
      <trkpt lat="47.517087" lon="8.019737">
        <ele>337.527006</ele>
        <time>2021-11-12T23:18:34.745Z</time>
      </trkpt>
      <trkpt lat="47.517205" lon="8.019691">
        <ele>337.531526</ele>
        <time>2021-11-12T23:18:36.999Z</time>
      </trkpt>
      <trkpt lat="47.517322" lon="8.019626">
        <ele>337.536154</ele>
        <time>2021-11-12T23:18:39.619Z</time>
      </trkpt>
      <trkpt lat="47.517543" lon="8.019449">
        <ele>337.545460</ele>
        <time>2021-11-12T23:18:44.774Z</time>
      </trkpt>
      <trkpt lat="47.517699" lon="8.019320">
        <ele>337.552077</ele>
        <time>2021-11-12T23:18:47.627Z</time>
      </trkpt>
      <trkpt lat="47.517787" lon="8.019247">
        <ele>337.555813</ele>
        <time>2021-11-12T23:18:49.356Z</time>
      </trkpt>
      <trkpt lat="47.517873" lon="8.019154">
        <ele>337.559758</ele>
        <time>2021-11-12T23:18:50.844Z</time>
      </trkpt>
      <trkpt lat="47.517945" lon="8.019080">
        <ele>337.563004</ele>
        <time>2021-11-12T23:18:52.501Z</time>
      </trkpt>
      <trkpt lat="47.518228" lon="8.018741">
        <ele>337.576485</ele>
        <time>2021-11-12T23:18:58.613Z</time>
      </trkpt>
      <trkpt lat="47.518485" lon="8.018258">
        <ele>337.407340</ele>
        <time>2021-11-12T23:19:04.425Z</time>
      </trkpt>
      <trkpt lat="47.518569" lon="8.018073">
        <ele>337.278642</ele>
        <time>2021-11-12T23:19:06.330Z</time>
      </trkpt>
      <trkpt lat="47.518733" lon="8.017694">
        <ele>337.018778</ele>
        <time>2021-11-12T23:19:10.256Z</time>
      </trkpt>
      <trkpt lat="47.518855" lon="8.017453">
        <ele>336.844898</ele>
        <time>2021-11-12T23:19:12.798Z</time>
      </trkpt>
      <trkpt lat="47.519079" lon="8.017167">
        <ele>336.592057</ele>
        <time>2021-11-12T23:19:16.305Z</time>
      </trkpt>
      <trkpt lat="47.519096" lon="8.017126">
        <ele>336.564283</ele>
        <time>2021-11-12T23:19:16.675Z</time>
      </trkpt>
      <trkpt lat="47.519107" lon="8.017079">
        <ele>336.535566</ele>
        <time>2021-11-12T23:19:17.089Z</time>
      </trkpt>
      <trkpt lat="47.519117" lon="8.017042">
        <ele>336.512558</ele>
        <time>2021-11-12T23:19:17.429Z</time>
      </trkpt>
      <trkpt lat="47.519123" lon="8.016537">
        <ele>336.220971</ele>
        <time>2021-11-12T23:19:21.468Z</time>
      </trkpt>
      <trkpt lat="47.519126" lon="8.016373">
        <ele>336.126257</ele>
        <time>2021-11-12T23:19:22.956Z</time>
      </trkpt>
      <trkpt lat="47.519171" lon="8.016191">
        <ele>336.014382</ele>
        <time>2021-11-12T23:19:24.389Z</time>
      </trkpt>
      <trkpt lat="47.519228" lon="8.016109">
        <ele>335.946481</ele>
        <time>2021-11-12T23:19:25.334Z</time>
      </trkpt>
      <trkpt lat="47.519330" lon="8.015986">
        <ele>335.834089</ele>
        <time>2021-11-12T23:19:27.003Z</time>
      </trkpt>
      <trkpt lat="47.519346" lon="8.015845">
        <ele>335.751589</ele>
        <time>2021-11-12T23:19:28.043Z</time>
      </trkpt>
      <trkpt lat="47.519424" lon="8.015360">
        <ele>335.463912</ele>
        <time>2021-11-12T23:19:32.051Z</time>
      </trkpt>
      <trkpt lat="47.519518" lon="8.015145">
        <ele>335.316126</ele>
        <time>2021-11-12T23:19:34.067Z</time>
      </trkpt>
      <trkpt lat="47.519564" lon="8.015041">
        <ele>335.244392</ele>
        <time>2021-11-12T23:19:35.241Z</time>
      </trkpt>
      <trkpt lat="47.519666" lon="8.015011">
        <ele>335.155540</ele>
        <time>2021-11-12T23:19:36.489Z</time>
      </trkpt>
      <trkpt lat="47.520115" lon="8.014648">
        <ele>334.718458</ele>
        <time>2021-11-12T23:19:43.070Z</time>
      </trkpt>
      <trkpt lat="47.520539" lon="8.014558">
        <ele>334.482065</ele>
        <time>2021-11-12T23:19:49.391Z</time>
      </trkpt>
      <trkpt lat="47.520848" lon="8.014542">
        <ele>334.435376</ele>
        <time>2021-11-12T23:19:53.836Z</time>
      </trkpt>
      <trkpt lat="47.520953" lon="8.014530">
        <ele>334.419474</ele>
        <time>2021-11-12T23:19:55.171Z</time>
      </trkpt>
      <trkpt lat="47.521150" lon="8.014447">
        <ele>334.388545</ele>
        <time>2021-11-12T23:19:58.381Z</time>
      </trkpt>
      <trkpt lat="47.521292" lon="8.014319">
        <ele>334.363442</ele>
        <time>2021-11-12T23:20:00.582Z</time>
      </trkpt>
      <trkpt lat="47.521454" lon="8.014134">
        <ele>334.332550</ele>
        <time>2021-11-12T23:20:03.778Z</time>
      </trkpt>
      <trkpt lat="47.521508" lon="8.014076">
        <ele>334.322476</ele>
        <time>2021-11-12T23:20:04.719Z</time>
      </trkpt>
      <trkpt lat="47.521532" lon="8.014046">
        <ele>334.317734</ele>
        <time>2021-11-12T23:20:05.171Z</time>
      </trkpt>
      <trkpt lat="47.521611" lon="8.013949">
        <ele>334.302237</ele>
        <time>2021-11-12T23:20:06.433Z</time>
      </trkpt>
      <trkpt lat="47.521782" lon="8.013652">
        <ele>334.262437</ele>
        <time>2021-11-12T23:20:10.668Z</time>
      </trkpt>
      <trkpt lat="47.521857" lon="8.013314">
        <ele>334.251211</ele>
        <time>2021-11-12T23:20:14.320Z</time>
      </trkpt>
      <trkpt lat="47.521867" lon="8.013168">
        <ele>334.267175</ele>
        <time>2021-11-12T23:20:15.746Z</time>
      </trkpt>
      <trkpt lat="47.521884" lon="8.013019">
        <ele>334.283612</ele>
        <time>2021-11-12T23:20:17.487Z</time>
      </trkpt>
      <trkpt lat="47.521999" lon="8.011997">
        <ele>334.396317</ele>
        <time>2021-11-12T23:20:31.122Z</time>
      </trkpt>
      <trkpt lat="47.522135" lon="8.011541">
        <ele>334.450542</ele>
        <time>2021-11-12T23:20:38.167Z</time>
      </trkpt>
      <trkpt lat="47.522752" lon="8.010942">
        <ele>334.694391</ele>
        <time>2021-11-12T23:20:55.223Z</time>
      </trkpt>
      <trkpt lat="47.523475" lon="8.009886">
        <ele>335.352160</ele>
        <time>2021-11-12T23:21:19.288Z</time>
      </trkpt>
      <trkpt lat="47.523750" lon="8.009595">
        <ele>335.571087</ele>
        <time>2021-11-12T23:21:26.929Z</time>
      </trkpt>
      <trkpt lat="47.525125" lon="8.008474">
        <ele>335.659275</ele>
        <time>2021-11-12T23:22:00.011Z</time>
      </trkpt>
      <trkpt lat="47.525704" lon="8.008036">
        <ele>335.315971</ele>
        <time>2021-11-12T23:22:11.719Z</time>
      </trkpt>
      <trkpt lat="47.526398" lon="8.007517">
        <ele>334.203815</ele>
        <time>2021-11-12T23:22:24.696Z</time>
      </trkpt>
      <trkpt lat="47.527466" lon="8.006442">
        <ele>332.146765</ele>
        <time>2021-11-12T23:22:45.251Z</time>
      </trkpt>
      <trkpt lat="47.528852" lon="8.005150">
        <ele>329.070216</ele>
        <time>2021-11-12T23:23:11.343Z</time>
      </trkpt>
      <trkpt lat="47.529337" lon="8.004498">
        <ele>327.762904</ele>
        <time>2021-11-12T23:23:22.097Z</time>
      </trkpt>
      <trkpt lat="47.529391" lon="8.004422">
        <ele>327.614224</ele>
        <time>2021-11-12T23:23:23.284Z</time>
      </trkpt>
      <trkpt lat="47.530077" lon="8.003471">
        <ele>325.667116</ele>
        <time>2021-11-12T23:23:37.584Z</time>
      </trkpt>
      <trkpt lat="47.531127" lon="8.002157">
        <ele>322.459744</ele>
        <time>2021-11-12T23:23:58.645Z</time>
      </trkpt>
      <trkpt lat="47.531407" lon="8.001793">
        <ele>321.796490</ele>
        <time>2021-11-12T23:24:04.382Z</time>
      </trkpt>
      <trkpt lat="47.531789" lon="8.001140">
        <ele>321.181243</ele>
        <time>2021-11-12T23:24:13.627Z</time>
      </trkpt>
      <trkpt lat="47.532176" lon="8.000088">
        <ele>320.328158</ele>
        <time>2021-11-12T23:24:28.366Z</time>
      </trkpt>
      <trkpt lat="47.532283" lon="7.999633">
        <ele>320.086544</ele>
        <time>2021-11-12T23:24:35.296Z</time>
      </trkpt>
      <trkpt lat="47.532321" lon="7.999312">
        <ele>320.133460</ele>
        <time>2021-11-12T23:24:40.054Z</time>
      </trkpt>
      <trkpt lat="47.532314" lon="7.998991">
        <ele>320.179696</ele>
        <time>2021-11-12T23:24:44.499Z</time>
      </trkpt>
      <trkpt lat="47.532616" lon="7.998942">
        <ele>320.244473</ele>
        <time>2021-11-12T23:24:51.078Z</time>
      </trkpt>
      <trkpt lat="47.532745" lon="7.998891">
        <ele>320.272941</ele>
        <time>2021-11-12T23:24:54.114Z</time>
      </trkpt>
      <trkpt lat="47.532880" lon="7.998728">
        <ele>320.310078</ele>
        <time>2021-11-12T23:24:57.854Z</time>
      </trkpt>
      <trkpt lat="47.534115" lon="7.996823">
        <ele>320.196900</ele>
        <time>2021-11-12T23:25:35.389Z</time>
      </trkpt>
      <trkpt lat="47.535091" lon="7.993681">
        <ele>318.422951</ele>
        <time>2021-11-12T23:26:16.181Z</time>
      </trkpt>
      <trkpt lat="47.535530" lon="7.992828">
        <ele>318.224658</ele>
        <time>2021-11-12T23:26:28.339Z</time>
      </trkpt>
      <trkpt lat="47.535601" lon="7.992617">
        <ele>318.210274</ele>
        <time>2021-11-12T23:26:31.956Z</time>
      </trkpt>
      <trkpt lat="47.535603" lon="7.992576">
        <ele>318.207766</ele>
        <time>2021-11-12T23:26:32.976Z</time>
      </trkpt>
      <trkpt lat="47.535497" lon="7.992318">
        <ele>318.189338</ele>
        <time>2021-11-12T23:26:36.660Z</time>
      </trkpt>
      <trkpt lat="47.535110" lon="7.991631">
        <ele>318.134746</ele>
        <time>2021-11-12T23:26:50.472Z</time>
      </trkpt>
      <trkpt lat="47.534860" lon="7.991148">
        <ele>318.425669</ele>
        <time>2021-11-12T23:26:59.939Z</time>
      </trkpt>
      <trkpt lat="47.534644" lon="7.990797">
        <ele>318.974887</ele>
        <time>2021-11-12T23:27:07.704Z</time>
      </trkpt>
      <trkpt lat="47.534606" lon="7.990590">
        <ele>319.222957</ele>
        <time>2021-11-12T23:27:11.051Z</time>
      </trkpt>
      <trkpt lat="47.534609" lon="7.990394">
        <ele>319.449674</ele>
        <time>2021-11-12T23:27:14.661Z</time>
      </trkpt>
      <trkpt lat="47.534723" lon="7.989575">
        <ele>320.416703</ele>
        <time>2021-11-12T23:27:31.329Z</time>
      </trkpt>
      <trkpt lat="47.534771" lon="7.988562">
        <ele>321.485459</ele>
        <time>2021-11-12T23:27:52.013Z</time>
      </trkpt>
      <trkpt lat="47.534795" lon="7.988078">
        <ele>321.897112</ele>
        <time>2021-11-12T23:28:00.779Z</time>
      </trkpt>
      <trkpt lat="47.534363" lon="7.987895">
        <ele>322.461632</ele>
        <time>2021-11-12T23:28:09.661Z</time>
      </trkpt>
      <trkpt lat="47.534466" lon="7.987626">
        <ele>322.723951</ele>
        <time>2021-11-12T23:28:13.555Z</time>
      </trkpt>
      <trkpt lat="47.534590" lon="7.987330">
        <ele>323.019437</ele>
        <time>2021-11-12T23:28:17.879Z</time>
      </trkpt>
      <trkpt lat="47.534974" lon="7.986602">
        <ele>323.495213</ele>
        <time>2021-11-12T23:28:28.467Z</time>
      </trkpt>
      <trkpt lat="47.535270" lon="7.985985">
        <ele>323.569958</ele>
        <time>2021-11-12T23:28:36.135Z</time>
      </trkpt>
      <trkpt lat="47.535614" lon="7.985212">
        <ele>323.661382</ele>
        <time>2021-11-12T23:28:44.616Z</time>
      </trkpt>
      <trkpt lat="47.536026" lon="7.984206">
        <ele>324.464207</ele>
        <time>2021-11-12T23:28:57.357Z</time>
      </trkpt>
      <trkpt lat="47.536199" lon="7.983737">
        <ele>325.122534</ele>
        <time>2021-11-12T23:29:04.459Z</time>
      </trkpt>
      <trkpt lat="47.536410" lon="7.983244">
        <ele>325.841562</ele>
        <time>2021-11-12T23:29:13.615Z</time>
      </trkpt>
      <trkpt lat="47.536530" lon="7.982859">
        <ele>326.363908</ele>
        <time>2021-11-12T23:29:20.953Z</time>
      </trkpt>
      <trkpt lat="47.536764" lon="7.982225">
        <ele>327.371525</ele>
        <time>2021-11-12T23:29:34.623Z</time>
      </trkpt>
      <trkpt lat="47.536775" lon="7.982096">
        <ele>327.605685</ele>
        <time>2021-11-12T23:29:37.036Z</time>
      </trkpt>
      <trkpt lat="47.536842" lon="7.981878">
        <ele>328.037045</ele>
        <time>2021-11-12T23:29:41.777Z</time>
      </trkpt>
      <trkpt lat="47.536896" lon="7.981697">
        <ele>328.393414</ele>
        <time>2021-11-12T23:29:45.614Z</time>
      </trkpt>
      <trkpt lat="47.536959" lon="7.981602">
        <ele>328.633229</ele>
        <time>2021-11-12T23:29:47.988Z</time>
      </trkpt>
      <trkpt lat="47.537107" lon="7.981082">
        <ele>329.649502</ele>
        <time>2021-11-12T23:29:58.710Z</time>
      </trkpt>
      <trkpt lat="47.537461" lon="7.980118">
        <ele>331.625741</ele>
        <time>2021-11-12T23:30:17.264Z</time>
      </trkpt>
      <trkpt lat="47.537583" lon="7.979760">
        <ele>331.756696</ele>
        <time>2021-11-12T23:30:23.267Z</time>
      </trkpt>
      <trkpt lat="47.537955" lon="7.978125">
        <ele>331.527079</ele>
        <time>2021-11-12T23:30:39.610Z</time>
      </trkpt>
      <trkpt lat="47.538107" lon="7.977240">
        <ele>331.091469</ele>
        <time>2021-11-12T23:30:46.516Z</time>
      </trkpt>
      <trkpt lat="47.538242" lon="7.976347">
        <ele>329.943243</ele>
        <time>2021-11-12T23:30:53.393Z</time>
      </trkpt>
      <trkpt lat="47.538706" lon="7.974459">
        <ele>327.282845</ele>
        <time>2021-11-12T23:31:08.322Z</time>
      </trkpt>
      <trkpt lat="47.539262" lon="7.971768">
        <ele>322.957750</ele>
        <time>2021-11-12T23:31:28.666Z</time>
      </trkpt>
      <trkpt lat="47.539783" lon="7.969587">
        <ele>319.394960</ele>
        <time>2021-11-12T23:31:45.146Z</time>
      </trkpt>
      <trkpt lat="47.540214" lon="7.967628">
        <ele>317.073433</ele>
        <time>2021-11-12T23:32:00.946Z</time>
      </trkpt>
      <trkpt lat="47.540896" lon="7.964711">
        <ele>315.084976</ele>
        <time>2021-11-12T23:32:27.052Z</time>
      </trkpt>
      <trkpt lat="47.541095" lon="7.964204">
        <ele>314.738143</ele>
        <time>2021-11-12T23:32:32.088Z</time>
      </trkpt>
      <trkpt lat="47.541169" lon="7.964123">
        <ele>314.657537</ele>
        <time>2021-11-12T23:32:33.046Z</time>
      </trkpt>
      <trkpt lat="47.541129" lon="7.964008">
        <ele>314.581030</ele>
        <time>2021-11-12T23:32:34.489Z</time>
      </trkpt>
      <trkpt lat="47.541019" lon="7.963815">
        <ele>314.431652</ele>
        <time>2021-11-12T23:32:36.839Z</time>
      </trkpt>
      <trkpt lat="47.541123" lon="7.963520">
        <ele>314.234834</ele>
        <time>2021-11-12T23:32:39.572Z</time>
      </trkpt>
      <trkpt lat="47.541217" lon="7.963187">
        <ele>314.021378</ele>
        <time>2021-11-12T23:32:42.474Z</time>
      </trkpt>
      <trkpt lat="47.541258" lon="7.962975">
        <ele>313.890960</ele>
        <time>2021-11-12T23:32:44.869Z</time>
      </trkpt>
      <trkpt lat="47.541293" lon="7.962730">
        <ele>313.742861</ele>
        <time>2021-11-12T23:32:46.853Z</time>
      </trkpt>
      <trkpt lat="47.541308" lon="7.962513">
        <ele>313.613859</ele>
        <time>2021-11-12T23:32:48.878Z</time>
      </trkpt>
      <trkpt lat="47.541314" lon="7.962377">
        <ele>313.420341</ele>
        <time>2021-11-12T23:32:50.231Z</time>
      </trkpt>
      <trkpt lat="47.541316" lon="7.962197">
        <ele>313.140532</ele>
        <time>2021-11-12T23:32:51.575Z</time>
      </trkpt>
      <trkpt lat="47.541242" lon="7.961294">
        <ele>311.726709</ele>
        <time>2021-11-12T23:32:58.599Z</time>
      </trkpt>
      <trkpt lat="47.541153" lon="7.960814">
        <ele>310.953021</ele>
        <time>2021-11-12T23:33:02.129Z</time>
      </trkpt>
      <trkpt lat="47.541060" lon="7.960321">
        <ele>310.157400</ele>
        <time>2021-11-12T23:33:05.719Z</time>
      </trkpt>
      <trkpt lat="47.541027" lon="7.959944">
        <ele>309.566526</ele>
        <time>2021-11-12T23:33:08.222Z</time>
      </trkpt>
      <trkpt lat="47.541019" lon="7.959792">
        <ele>309.258001</ele>
        <time>2021-11-12T23:33:09.266Z</time>
      </trkpt>
      <trkpt lat="47.541012" lon="7.959578">
        <ele>308.744168</ele>
        <time>2021-11-12T23:33:10.741Z</time>
      </trkpt>
      <trkpt lat="47.541016" lon="7.959388">
        <ele>308.288274</ele>
        <time>2021-11-12T23:33:11.943Z</time>
      </trkpt>
      <trkpt lat="47.541081" lon="7.958828">
        <ele>306.925533</ele>
        <time>2021-11-12T23:33:15.712Z</time>
      </trkpt>
      <trkpt lat="47.541226" lon="7.958150">
        <ele>305.219858</ele>
        <time>2021-11-12T23:33:20.473Z</time>
      </trkpt>
      <trkpt lat="47.541305" lon="7.957787">
        <ele>304.305166</ele>
        <time>2021-11-12T23:33:22.957Z</time>
      </trkpt>
      <trkpt lat="47.541355" lon="7.957559">
        <ele>303.730233</ele>
        <time>2021-11-12T23:33:24.659Z</time>
      </trkpt>
      <trkpt lat="47.541450" lon="7.956897">
        <ele>302.640962</ele>
        <time>2021-11-12T23:33:29.293Z</time>
      </trkpt>
      <trkpt lat="47.541464" lon="7.956698">
        <ele>302.426788</ele>
        <time>2021-11-12T23:33:30.698Z</time>
      </trkpt>
      <trkpt lat="47.541533" lon="7.955526">
        <ele>301.167453</ele>
        <time>2021-11-12T23:33:39.532Z</time>
      </trkpt>
      <trkpt lat="47.541554" lon="7.955311">
        <ele>300.934908</ele>
        <time>2021-11-12T23:33:41.570Z</time>
      </trkpt>
      <trkpt lat="47.541735" lon="7.953892">
        <ele>300.315736</ele>
        <time>2021-11-12T23:33:55.779Z</time>
      </trkpt>
      <trkpt lat="47.541773" lon="7.953695">
        <ele>300.341243</ele>
        <time>2021-11-12T23:33:58.026Z</time>
      </trkpt>
      <trkpt lat="47.541791" lon="7.953601">
        <ele>300.353408</ele>
        <time>2021-11-12T23:33:59.061Z</time>
      </trkpt>
      <trkpt lat="47.541991" lon="7.952667">
        <ele>300.475397</ele>
        <time>2021-11-12T23:34:09.917Z</time>
      </trkpt>
      <trkpt lat="47.542169" lon="7.951815">
        <ele>300.592902</ele>
        <time>2021-11-12T23:34:19.655Z</time>
      </trkpt>
      <trkpt lat="47.542192" lon="7.951713">
        <ele>300.608729</ele>
        <time>2021-11-12T23:34:20.918Z</time>
      </trkpt>
      <trkpt lat="47.542357" lon="7.951037">
        <ele>300.714521</ele>
        <time>2021-11-12T23:34:28.382Z</time>
      </trkpt>
      <trkpt lat="47.542444" lon="7.950687">
        <ele>300.769412</ele>
        <time>2021-11-12T23:34:32.213Z</time>
      </trkpt>
      <trkpt lat="47.542546" lon="7.950274">
        <ele>300.834135</ele>
        <time>2021-11-12T23:34:36.560Z</time>
      </trkpt>
      <trkpt lat="47.542554" lon="7.950231">
        <ele>300.840699</ele>
        <time>2021-11-12T23:34:37.046Z</time>
      </trkpt>
      <trkpt lat="47.542560" lon="7.950202">
        <ele>300.845163</ele>
        <time>2021-11-12T23:34:37.380Z</time>
      </trkpt>
      <trkpt lat="47.542609" lon="7.949914">
        <ele>300.888874</ele>
        <time>2021-11-12T23:34:40.379Z</time>
      </trkpt>
      <trkpt lat="47.542719" lon="7.949175">
        <ele>301.202204</ele>
        <time>2021-11-12T23:34:48.282Z</time>
      </trkpt>
      <trkpt lat="47.542826" lon="7.948298">
        <ele>301.796403</ele>
        <time>2021-11-12T23:34:59.225Z</time>
      </trkpt>
      <trkpt lat="47.542838" lon="7.948225">
        <ele>301.846497</ele>
        <time>2021-11-12T23:35:00.052Z</time>
      </trkpt>
      <trkpt lat="47.542875" lon="7.948001">
        <ele>302.000252</ele>
        <time>2021-11-12T23:35:02.936Z</time>
      </trkpt>
      <trkpt lat="47.542928" lon="7.947798">
        <ele>302.145369</ele>
        <time>2021-11-12T23:35:05.859Z</time>
      </trkpt>
      <trkpt lat="47.542957" lon="7.947651">
        <ele>302.247478</ele>
        <time>2021-11-12T23:35:07.567Z</time>
      </trkpt>
      <trkpt lat="47.543050" lon="7.947411">
        <ele>302.431984</ele>
        <time>2021-11-12T23:35:11.931Z</time>
      </trkpt>
      <trkpt lat="47.543087" lon="7.947317">
        <ele>302.504533</ele>
        <time>2021-11-12T23:35:13.210Z</time>
      </trkpt>
      <trkpt lat="47.543092" lon="7.947257">
        <ele>302.544841</ele>
        <time>2021-11-12T23:35:13.999Z</time>
      </trkpt>
      <trkpt lat="47.543097" lon="7.947186">
        <ele>302.592435</ele>
        <time>2021-11-12T23:35:14.849Z</time>
      </trkpt>
      <trkpt lat="47.543086" lon="7.947052">
        <ele>302.682436</ele>
        <time>2021-11-12T23:35:16.679Z</time>
      </trkpt>
      <trkpt lat="47.543056" lon="7.946935">
        <ele>302.807918</ele>
        <time>2021-11-12T23:35:19.046Z</time>
      </trkpt>
      <trkpt lat="47.543045" lon="7.946881">
        <ele>302.879649</ele>
        <time>2021-11-12T23:35:20.158Z</time>
      </trkpt>
      <trkpt lat="47.542982" lon="7.946547">
        <ele>303.320670</ele>
        <time>2021-11-12T23:35:24.757Z</time>
      </trkpt>
      <trkpt lat="47.542974" lon="7.946495">
        <ele>303.388495</ele>
        <time>2021-11-12T23:35:25.970Z</time>
      </trkpt>
      <trkpt lat="47.542960" lon="7.946400">
        <ele>303.512153</ele>
        <time>2021-11-12T23:35:27.807Z</time>
      </trkpt>
      <trkpt lat="47.542916" lon="7.945730">
        <ele>304.368221</ele>
        <time>2021-11-12T23:35:38.383Z</time>
      </trkpt>
      <trkpt lat="47.542913" lon="7.945267">
        <ele>304.957050</ele>
        <time>2021-11-12T23:35:45.870Z</time>
      </trkpt>
      <trkpt lat="47.543007" lon="7.943867">
        <ele>306.228606</ele>
        <time>2021-11-12T23:36:06.609Z</time>
      </trkpt>
      <trkpt lat="47.543161" lon="7.942213">
        <ele>306.629752</ele>
        <time>2021-11-12T23:36:25.015Z</time>
      </trkpt>
      <trkpt lat="47.543435" lon="7.940670">
        <ele>305.693682</ele>
        <time>2021-11-12T23:36:37.963Z</time>
      </trkpt>
      <trkpt lat="47.543826" lon="7.939433">
        <ele>304.387206</ele>
        <time>2021-11-12T23:36:48.364Z</time>
      </trkpt>
      <trkpt lat="47.544472" lon="7.937932">
        <ele>302.269978</ele>
        <time>2021-11-12T23:37:01.688Z</time>
      </trkpt>
      <trkpt lat="47.544705" lon="7.937395">
        <ele>301.492318</ele>
        <time>2021-11-12T23:37:06.528Z</time>
      </trkpt>
      <trkpt lat="47.544903" lon="7.936917">
        <ele>300.839467</ele>
        <time>2021-11-12T23:37:10.788Z</time>
      </trkpt>
      <trkpt lat="47.545074" lon="7.936484">
        <ele>300.356712</ele>
        <time>2021-11-12T23:37:14.619Z</time>
      </trkpt>
      <trkpt lat="47.545457" lon="7.935110">
        <ele>298.926199</ele>
        <time>2021-11-12T23:37:25.988Z</time>
      </trkpt>
      <trkpt lat="47.545674" lon="7.933625">
        <ele>298.600266</ele>
        <time>2021-11-12T23:37:39.068Z</time>
      </trkpt>
      <trkpt lat="47.545702" lon="7.933290">
        <ele>298.674293</ele>
        <time>2021-11-12T23:37:42.648Z</time>
      </trkpt>
      <trkpt lat="47.545724" lon="7.932758">
        <ele>298.791180</ele>
        <time>2021-11-12T23:37:48.915Z</time>
      </trkpt>
      <trkpt lat="47.545721" lon="7.931992">
        <ele>298.959167</ele>
        <time>2021-11-12T23:37:58.954Z</time>
      </trkpt>
      <trkpt lat="47.545696" lon="7.931497">
        <ele>299.538732</ele>
        <time>2021-11-12T23:38:06.160Z</time>
      </trkpt>
      <trkpt lat="47.545661" lon="7.930955">
        <ele>300.254337</ele>
        <time>2021-11-12T23:38:14.855Z</time>
      </trkpt>
      <trkpt lat="47.545563" lon="7.929641">
        <ele>301.991843</ele>
        <time>2021-11-12T23:38:37.195Z</time>
      </trkpt>
      <trkpt lat="47.545475" lon="7.928419">
        <ele>302.035284</ele>
        <time>2021-11-12T23:38:53.497Z</time>
      </trkpt>
      <trkpt lat="47.545421" lon="7.927686">
        <ele>301.657773</ele>
        <time>2021-11-12T23:38:59.601Z</time>
      </trkpt>
      <trkpt lat="47.545406" lon="7.927306">
        <ele>301.462888</ele>
        <time>2021-11-12T23:39:02.504Z</time>
      </trkpt>
      <trkpt lat="47.545407" lon="7.927001">
        <ele>301.306732</ele>
        <time>2021-11-12T23:39:04.791Z</time>
      </trkpt>
      <trkpt lat="47.545409" lon="7.926773">
        <ele>301.189990</ele>
        <time>2021-11-12T23:39:06.420Z</time>
      </trkpt>
      <trkpt lat="47.545417" lon="7.925848">
        <ele>299.159826</ele>
        <time>2021-11-12T23:39:12.755Z</time>
      </trkpt>
      <trkpt lat="47.545446" lon="7.925350">
        <ele>297.896215</ele>
        <time>2021-11-12T23:39:16.047Z</time>
      </trkpt>
      <trkpt lat="47.545466" lon="7.924880">
        <ele>296.705705</ele>
        <time>2021-11-12T23:39:19.101Z</time>
      </trkpt>
      <trkpt lat="47.545481" lon="7.924396">
        <ele>295.480873</ele>
        <time>2021-11-12T23:39:22.184Z</time>
      </trkpt>
      <trkpt lat="47.545521" lon="7.923709">
        <ele>294.009764</ele>
        <time>2021-11-12T23:39:26.709Z</time>
      </trkpt>
      <trkpt lat="47.545536" lon="7.923407">
        <ele>293.570783</ele>
        <time>2021-11-12T23:39:28.857Z</time>
      </trkpt>
      <trkpt lat="47.545553" lon="7.923142">
        <ele>293.184893</ele>
        <time>2021-11-12T23:39:30.688Z</time>
      </trkpt>
      <trkpt lat="47.545587" lon="7.922895">
        <ele>292.819458</ele>
        <time>2021-11-12T23:39:32.622Z</time>
      </trkpt>
      <trkpt lat="47.545641" lon="7.922610">
        <ele>292.390338</ele>
        <time>2021-11-12T23:39:34.767Z</time>
      </trkpt>
      <trkpt lat="47.545690" lon="7.922369">
        <ele>292.025466</ele>
        <time>2021-11-12T23:39:36.774Z</time>
      </trkpt>
      <trkpt lat="47.545699" lon="7.922325">
        <ele>291.958817</ele>
        <time>2021-11-12T23:39:37.068Z</time>
      </trkpt>
      <trkpt lat="47.545714" lon="7.922249">
        <ele>291.844030</ele>
        <time>2021-11-12T23:39:37.658Z</time>
      </trkpt>
      <trkpt lat="47.545778" lon="7.921947">
        <ele>291.385166</ele>
        <time>2021-11-12T23:39:40.361Z</time>
      </trkpt>
      <trkpt lat="47.545810" lon="7.921755">
        <ele>291.098474</ele>
        <time>2021-11-12T23:39:41.841Z</time>
      </trkpt>
      <trkpt lat="47.545881" lon="7.921096">
        <ele>290.448216</ele>
        <time>2021-11-12T23:39:47.303Z</time>
      </trkpt>
      <trkpt lat="47.545913" lon="7.920765">
        <ele>290.366317</ele>
        <time>2021-11-12T23:39:50.196Z</time>
      </trkpt>
      <trkpt lat="47.545973" lon="7.920313">
        <ele>290.253488</ele>
        <time>2021-11-12T23:39:54.666Z</time>
      </trkpt>
      <trkpt lat="47.546128" lon="7.919617">
        <ele>290.073979</ele>
        <time>2021-11-12T23:40:01.907Z</time>
      </trkpt>
      <trkpt lat="47.546262" lon="7.919081">
        <ele>289.933982</ele>
        <time>2021-11-12T23:40:07.955Z</time>
      </trkpt>
      <trkpt lat="47.546821" lon="7.916867">
        <ele>289.080474</ele>
        <time>2021-11-12T23:40:28.623Z</time>
      </trkpt>
      <trkpt lat="47.547032" lon="7.916218">
        <ele>288.848604</ele>
        <time>2021-11-12T23:40:34.931Z</time>
      </trkpt>
      <trkpt lat="47.547091" lon="7.916039">
        <ele>288.841861</ele>
        <time>2021-11-12T23:40:36.705Z</time>
      </trkpt>
      <trkpt lat="47.547113" lon="7.915971">
        <ele>288.839309</ele>
        <time>2021-11-12T23:40:37.295Z</time>
      </trkpt>
      <trkpt lat="47.547423" lon="7.915080">
        <ele>288.805378</ele>
        <time>2021-11-12T23:40:46.782Z</time>
      </trkpt>
      <trkpt lat="47.547994" lon="7.913433">
        <ele>289.097922</ele>
        <time>2021-11-12T23:41:06.647Z</time>
      </trkpt>
      <trkpt lat="47.548027" lon="7.913334">
        <ele>289.161641</ele>
        <time>2021-11-12T23:41:08.023Z</time>
      </trkpt>
      <trkpt lat="47.548412" lon="7.912168">
        <ele>289.910729</ele>
        <time>2021-11-12T23:41:24.500Z</time>
      </trkpt>
      <trkpt lat="47.548572" lon="7.911681">
        <ele>290.223297</ele>
        <time>2021-11-12T23:41:31.777Z</time>
      </trkpt>
      <trkpt lat="47.549012" lon="7.910340">
        <ele>291.379883</ele>
        <time>2021-11-12T23:41:51.448Z</time>
      </trkpt>
      <trkpt lat="47.549102" lon="7.910058">
        <ele>291.627926</ele>
        <time>2021-11-12T23:41:55.564Z</time>
      </trkpt>
      <trkpt lat="47.549195" lon="7.909756">
        <ele>291.891881</ele>
        <time>2021-11-12T23:41:59.887Z</time>
      </trkpt>
      <trkpt lat="47.549317" lon="7.909352">
        <ele>292.243816</ele>
        <time>2021-11-12T23:42:05.463Z</time>
      </trkpt>
      <trkpt lat="47.549520" lon="7.908678">
        <ele>293.109477</ele>
        <time>2021-11-12T23:42:14.942Z</time>
      </trkpt>
      <trkpt lat="47.549539" lon="7.908625">
        <ele>293.189525</ele>
        <time>2021-11-12T23:42:15.671Z</time>
      </trkpt>
      <trkpt lat="47.550497" lon="7.905558">
        <ele>298.697339</ele>
        <time>2021-11-12T23:43:10.546Z</time>
      </trkpt>
      <trkpt lat="47.550283" lon="7.905413">
        <ele>299.432205</ele>
        <time>2021-11-12T23:43:18.712Z</time>
      </trkpt>
      <trkpt lat="47.550067" lon="7.905245">
        <ele>300.194044</ele>
        <time>2021-11-12T23:43:27.398Z</time>
      </trkpt>
      <trkpt lat="47.549867" lon="7.905155">
        <ele>300.846794</ele>
        <time>2021-11-12T23:43:35.027Z</time>
      </trkpt>
      <trkpt lat="47.549868" lon="7.905010">
        <ele>301.152438</ele>
        <time>2021-11-12T23:43:38.432Z</time>
      </trkpt>
      <trkpt lat="47.550025" lon="7.904774">
        <ele>301.906122</ele>
        <time>2021-11-12T23:43:46.583Z</time>
      </trkpt>
      <trkpt lat="47.550302" lon="7.904164">
        <ele>303.784743</ele>
        <time>2021-11-12T23:44:04.882Z</time>
      </trkpt>
      <trkpt lat="47.550498" lon="7.903445">
        <ele>305.766129</ele>
        <time>2021-11-12T23:44:24.454Z</time>
      </trkpt>
      <trkpt lat="47.550688" lon="7.902451">
        <ele>308.406269</ele>
        <time>2021-11-12T23:44:47.002Z</time>
      </trkpt>
      <trkpt lat="47.550757" lon="7.901591">
        <ele>310.762251</ele>
        <time>2021-11-12T23:45:06.799Z</time>
      </trkpt>
      <trkpt lat="47.550769" lon="7.901362">
        <ele>311.387088</ele>
        <time>2021-11-12T23:45:12.706Z</time>
      </trkpt>
      <trkpt lat="47.550801" lon="7.900244">
        <ele>314.431181</ele>
        <time>2021-11-12T23:45:37.104Z</time>
      </trkpt>
      <trkpt lat="47.550819" lon="7.898109">
        <ele>319.833306</ele>
        <time>2021-11-12T23:46:24.144Z</time>
      </trkpt>
      <trkpt lat="47.550648" lon="7.896481">
        <ele>322.893942</ele>
        <time>2021-11-12T23:46:51.799Z</time>
      </trkpt>
      <trkpt lat="47.550639" lon="7.896345">
        <ele>323.023781</ele>
        <time>2021-11-12T23:46:54.174Z</time>
      </trkpt>
      <trkpt lat="47.550660" lon="7.896255">
        <ele>323.114260</ele>
        <time>2021-11-12T23:46:54.975Z</time>
      </trkpt>
      <trkpt lat="47.550838" lon="7.895509">
        <ele>323.866058</ele>
        <time>2021-11-12T23:47:05.143Z</time>
      </trkpt>
      <trkpt lat="47.550878" lon="7.895158">
        <ele>324.204279</ele>
        <time>2021-11-12T23:47:09.205Z</time>
      </trkpt>
      <trkpt lat="47.550908" lon="7.894308">
        <ele>325.199628</ele>
        <time>2021-11-12T23:47:19.677Z</time>
      </trkpt>
      <trkpt lat="47.550892" lon="7.893176">
        <ele>327.173328</ele>
        <time>2021-11-12T23:47:34.395Z</time>
      </trkpt>
      <trkpt lat="47.550904" lon="7.891725">
        <ele>330.043638</ele>
        <time>2021-11-12T23:48:04.157Z</time>
      </trkpt>
      <trkpt lat="47.550915" lon="7.890600">
        <ele>334.498284</ele>
        <time>2021-11-12T23:48:32.997Z</time>
      </trkpt>
      <trkpt lat="47.550833" lon="7.889069">
        <ele>340.595827</ele>
        <time>2021-11-12T23:49:15.631Z</time>
      </trkpt>
      <trkpt lat="47.550831" lon="7.888611">
        <ele>342.460702</ele>
        <time>2021-11-12T23:49:28.201Z</time>
      </trkpt>
      <trkpt lat="47.550789" lon="7.887816">
        <ele>345.707602</ele>
        <time>2021-11-12T23:49:48.813Z</time>
      </trkpt>
      <trkpt lat="47.550758" lon="7.887295">
        <ele>347.837185</ele>
        <time>2021-11-12T23:50:02.634Z</time>
      </trkpt>
      <trkpt lat="47.550677" lon="7.886476">
        <ele>351.141689</ele>
        <time>2021-11-12T23:50:24.123Z</time>
      </trkpt>
      <trkpt lat="47.550548" lon="7.885799">
        <ele>353.497602</ele>
        <time>2021-11-12T23:50:41.326Z</time>
      </trkpt>
      <trkpt lat="47.550391" lon="7.885109">
        <ele>355.936217</ele>
        <time>2021-11-12T23:50:58.963Z</time>
      </trkpt>
      <trkpt lat="47.550332" lon="7.884727">
        <ele>357.248620</ele>
        <time>2021-11-12T23:51:07.654Z</time>
      </trkpt>
      <trkpt lat="47.550234" lon="7.883221">
        <ele>361.588214</ele>
        <time>2021-11-12T23:51:40.485Z</time>
      </trkpt>
      <trkpt lat="47.549927" lon="7.881490">
        <ele>365.875119</ele>
        <time>2021-11-12T23:52:12.749Z</time>
      </trkpt>
      <trkpt lat="47.549726" lon="7.880786">
        <ele>367.985253</ele>
        <time>2021-11-12T23:52:28.726Z</time>
      </trkpt>
      <trkpt lat="47.549327" lon="7.879547">
        <ele>371.861404</ele>
        <time>2021-11-12T23:52:58.510Z</time>
      </trkpt>
      <trkpt lat="47.549318" lon="7.879398">
        <ele>372.283794</ele>
        <time>2021-11-12T23:53:01.698Z</time>
      </trkpt>
      <trkpt lat="47.549140" lon="7.879391">
        <ele>373.028685</ele>
        <time>2021-11-12T23:53:08.568Z</time>
      </trkpt>
      <trkpt lat="47.548718" lon="7.879258">
        <ele>374.424073</ele>
        <time>2021-11-12T23:53:22.239Z</time>
      </trkpt>
      <trkpt lat="47.548422" lon="7.878959">
        <ele>375.395933</ele>
        <time>2021-11-12T23:53:32.886Z</time>
      </trkpt>
      <trkpt lat="47.548234" lon="7.878638">
        <ele>376.174115</ele>
        <time>2021-11-12T23:53:41.318Z</time>
      </trkpt>
      <trkpt lat="47.547992" lon="7.877974">
        <ele>377.555847</ele>
        <time>2021-11-12T23:53:54.415Z</time>
      </trkpt>
      <trkpt lat="47.547574" lon="7.876801">
        <ele>377.483953</ele>
        <time>2021-11-12T23:54:08.178Z</time>
      </trkpt>
      <trkpt lat="47.547126" lon="7.875801">
        <ele>375.856173</ele>
        <time>2021-11-12T23:54:16.961Z</time>
      </trkpt>
      <trkpt lat="47.546309" lon="7.874154">
        <ele>369.733091</ele>
        <time>2021-11-12T23:54:30.150Z</time>
      </trkpt>
      <trkpt lat="47.546135" lon="7.873859">
        <ele>368.239302</ele>
        <time>2021-11-12T23:54:32.532Z</time>
      </trkpt>
      <trkpt lat="47.546077" lon="7.873763">
        <ele>367.748036</ele>
        <time>2021-11-12T23:54:33.343Z</time>
      </trkpt>
      <trkpt lat="47.545934" lon="7.873549">
        <ele>366.599825</ele>
        <time>2021-11-12T23:54:35.147Z</time>
      </trkpt>
      <trkpt lat="47.545746" lon="7.873302">
        <ele>365.180355</ele>
        <time>2021-11-12T23:54:37.435Z</time>
      </trkpt>
      <trkpt lat="47.545515" lon="7.873015">
        <ele>363.200932</ele>
        <time>2021-11-12T23:54:40.134Z</time>
      </trkpt>
      <trkpt lat="47.545478" lon="7.872968">
        <ele>362.866905</ele>
        <time>2021-11-12T23:54:40.576Z</time>
      </trkpt>
      <trkpt lat="47.545375" lon="7.872836">
        <ele>361.933539</ele>
        <time>2021-11-12T23:54:41.769Z</time>
      </trkpt>
      <trkpt lat="47.545131" lon="7.872664">
        <ele>360.081662</ele>
        <time>2021-11-12T23:54:44.228Z</time>
      </trkpt>
      <trkpt lat="47.544883" lon="7.872555">
        <ele>358.308802</ele>
        <time>2021-11-12T23:54:46.551Z</time>
      </trkpt>
      <trkpt lat="47.544390" lon="7.872423">
        <ele>354.875348</ele>
        <time>2021-11-12T23:54:51.015Z</time>
      </trkpt>
      <trkpt lat="47.543332" lon="7.872237">
        <ele>348.766782</ele>
        <time>2021-11-12T23:55:00.782Z</time>
      </trkpt>
      <trkpt lat="47.543251" lon="7.872152">
        <ele>348.253061</ele>
        <time>2021-11-12T23:55:01.724Z</time>
      </trkpt>
      <trkpt lat="47.543233" lon="7.872082">
        <ele>347.991372</ele>
        <time>2021-11-12T23:55:02.144Z</time>
      </trkpt>
      <trkpt lat="47.543013" lon="7.872182">
        <ele>346.800406</ele>
        <time>2021-11-12T23:55:04.385Z</time>
      </trkpt>
      <trkpt lat="47.542919" lon="7.872226">
        <ele>346.290217</ele>
        <time>2021-11-12T23:55:05.306Z</time>
      </trkpt>
      <trkpt lat="47.542814" lon="7.872280">
        <ele>345.714992</ele>
        <time>2021-11-12T23:55:06.359Z</time>
      </trkpt>
      <trkpt lat="47.542714" lon="7.872334">
        <ele>345.164146</ele>
        <time>2021-11-12T23:55:07.447Z</time>
      </trkpt>
      <trkpt lat="47.542537" lon="7.872430">
        <ele>344.188646</ele>
        <time>2021-11-12T23:55:09.180Z</time>
      </trkpt>
      <trkpt lat="47.542436" lon="7.872494">
        <ele>343.620124</ele>
        <time>2021-11-12T23:55:10.514Z</time>
      </trkpt>
      <trkpt lat="47.542394" lon="7.872341">
        <ele>343.138166</ele>
        <time>2021-11-12T23:55:11.600Z</time>
      </trkpt>
      <trkpt lat="47.542218" lon="7.871866">
        <ele>343.138166</ele>
        <time>2021-11-12T23:55:15.269Z</time>
      </trkpt>
      <trkpt lat="47.542091" lon="7.871721">
        <ele>343.138166</ele>
        <time>2021-11-12T23:55:16.788Z</time>
      </trkpt>
      <trkpt lat="47.542067" lon="7.871664">
        <ele>343.138166</ele>
        <time>2021-11-12T23:55:17.516Z</time>
      </trkpt>
      <trkpt lat="47.542039" lon="7.871556">
        <ele>343.138166</ele>
        <time>2021-11-12T23:55:18.414Z</time>
      </trkpt>
      <trkpt lat="47.541953" lon="7.871286">
        <ele>343.138166</ele>
        <time>2021-11-12T23:55:20.599Z</time>
      </trkpt>
      <trkpt lat="47.541796" lon="7.871042">
        <ele>343.138166</ele>
        <time>2021-11-12T23:55:23.146Z</time>
      </trkpt>
      <trkpt lat="47.541750" lon="7.870963">
        <ele>343.138166</ele>
        <time>2021-11-12T23:55:23.939Z</time>
      </trkpt>
    </trkseg>
  </trk>
</gpx>